Provisional Data: Conodoguinet Creek near Schlusser, PA


Please select a monitoring station.
Please select start date.
Please select start date.

Toggle Unit: C/F Toggle Unit: C/F
Sample Time Temperature (C) Temperature (F) Specific Conductivity (mS/cm) pH   Turbidity (NTU+) DO (mg/L)
12/4/2020 12:00:00 AM 5.29 41.522 0.3 7.5 7.63 12.39
12/4/2020 12:15:00 AM 5.29 41.522 0.3 7.49 3.93 12.41
12/4/2020 12:30:00 AM 5.29 41.522 0.3 7.49 4.62 12.41
12/4/2020 12:45:00 AM 5.29 41.522 0.3 7.5 4.5 12.42
12/4/2020 1:00:00 AM 5.29 41.522 0.3 7.49 5.21 12.42
12/4/2020 1:15:00 AM 5.29 41.522 0.301 7.49 4.67 12.43
12/4/2020 1:30:00 AM 5.29 41.522 0.301 7.5 3.58 12.44
12/4/2020 1:45:00 AM 5.29 41.522 0.301 7.5 4.52 12.43
12/4/2020 2:00:00 AM 5.28 41.504 0.302 7.49 5.98 12.42
12/4/2020 2:15:00 AM 5.27 41.486 0.302 7.48 4.12 12.43
12/4/2020 2:30:00 AM 5.25 41.45 0.302 7.47 3.98 12.43
12/4/2020 2:45:00 AM 5.22 41.396 0.303 7.48 4.87 12.43
12/4/2020 3:00:00 AM 5.2 41.36 0.303 7.48 3.91 12.43
12/4/2020 3:15:00 AM 5.18 41.324 0.303 7.46 4.69 12.42
12/4/2020 3:30:00 AM 5.16 41.288 0.304 7.45 3.9 12.42
12/4/2020 3:45:00 AM 5.14 41.252 0.304 7.46 4.08 12.41
12/4/2020 4:00:00 AM 5.12 41.216 0.304 7.48 4.6 12.39
12/4/2020 4:15:00 AM 5.12 41.216 0.304 7.47 4.98 12.39
12/4/2020 4:30:00 AM 5.12 41.216 0.305 7.45 4.1 12.38
12/4/2020 4:45:00 AM 5.12 41.216 0.305 7.45 4.33 12.37
12/4/2020 5:00:00 AM 5.12 41.216 0.305 7.46 4.21 12.36
12/4/2020 5:15:00 AM 5.12 41.216 0.306 7.46 3.87 12.34
12/4/2020 5:30:00 AM 5.12 41.216 0.306 7.45 4.73 12.34
12/4/2020 5:45:00 AM 5.11 41.198 0.306 7.43 3.97 12.31
12/4/2020 6:00:00 AM 5.11 41.198 0.307 7.43 4.18 12.32
12/4/2020 6:15:00 AM 5.11 41.198 0.307 7.42 3.66 12.31
12/4/2020 6:30:00 AM 5.1 41.18 0.307 7.42 4.43 12.29
12/4/2020 6:45:00 AM 5.1 41.18 0.307 7.42 4.22 12.27
12/4/2020 7:00:00 AM 5.09 41.162 0.308 7.42 4 12.28
12/4/2020 7:15:00 AM 5.09 41.162 0.308 7.42 4.4 12.27
12/4/2020 7:30:00 AM 5.08 41.144 0.308 7.42 4.65 12.27
12/4/2020 7:45:00 AM 5.08 41.144 0.309 7.42 4.07 12.26
12/4/2020 8:00:00 AM 5.07 41.126 0.309 7.41 3.98 12.27
12/4/2020 8:15:00 AM 5.04 41.072 0.309 7.4 3.89 12.26
12/4/2020 8:30:00 AM 5.04 41.072 0.309 7.41 3.82 12.29
12/4/2020 8:45:00 AM 5.04 41.072 0.31 7.4 3.37 12.3
12/4/2020 9:00:00 AM 5.04 41.072 0.31 7.4 3.82 12.32
12/4/2020 9:15:00 AM 5.05 41.09 0.31 7.41 3.52 12.34
12/4/2020 9:30:00 AM 5.06 41.108 0.31 7.41 3.24 12.35
12/4/2020 9:45:00 AM 5.08 41.144 0.311 7.4 4.21 12.37
12/4/2020 10:00:00 AM 5.09 41.162 0.311 7.42 3.06 12.38
12/4/2020 10:15:00 AM 5.12 41.216 0.311 7.43 3.78 12.42
12/4/2020 10:30:00 AM 5.15 41.27 0.311 7.43 3.49 12.46
12/4/2020 10:45:00 AM 5.17 41.306 0.311 7.45 4.05 12.5
12/4/2020 11:00:00 AM 5.2 41.36 0.312 7.44 4.07 12.54
12/4/2020 11:15:00 AM 5.23 41.414 0.312 7.43 3.71 12.58
12/4/2020 11:30:00 AM 5.23 41.414 0.312 7.44 3.82 12.6
12/4/2020 11:45:00 AM 5.24 41.432 0.312 7.44 3.31 12.61
12/4/2020 12:00:00 PM 5.25 41.45 0.312 7.45 3.17 12.62
12/4/2020 12:15:00 PM 5.25 41.45 0.313 7.44 3.18 12.61
12/4/2020 12:30:00 PM 5.25 41.45 0.313 7.45 3.17 12.58
12/4/2020 12:45:00 PM 5.24 41.432 0.313 7.44 3.27 12.53
12/4/2020 1:00:00 PM 5.23 41.414 0.313 7.44 3.17 12.52
12/4/2020 1:15:00 PM 5.24 41.432 0.314 7.44 3.33 12.48
12/4/2020 1:30:00 PM 5.24 41.432 0.314 7.44 3.37 12.49
12/4/2020 1:45:00 PM 5.23 41.414 0.314 7.44 3.13 12.45
12/4/2020 2:00:00 PM 5.23 41.414 0.314 7.44 3.19 12.43
12/4/2020 2:15:00 PM 5.23 41.414 0.315 7.44 3.56 12.41
12/4/2020 2:30:00 PM 5.23 41.414 0.315 7.44 3.46 12.43
12/4/2020 2:45:00 PM 5.24 41.432 0.315 7.43 3.29 12.42
12/4/2020 3:00:00 PM 5.24 41.432 0.315 7.44 3.28 12.4
12/4/2020 3:15:00 PM 5.23 41.414 0.316 7.42 3.09 12.4
12/4/2020 3:30:00 PM 5.24 41.432 0.316 7.43 4.24 12.4
12/4/2020 3:45:00 PM 5.24 41.432 0.316 7.43 3.57 12.38
12/4/2020 4:00:00 PM 5.24 41.432 0.316 7.43 2.86 12.38
12/4/2020 4:15:00 PM 5.23 41.414 0.316 7.43 3.63 12.35
12/4/2020 4:30:00 PM 5.22 41.396 0.317 7.43 3.38 12.32
12/4/2020 4:45:00 PM 5.21 41.378 0.317 7.43 3.6 12.27
12/4/2020 5:00:00 PM 5.2 41.36 0.317 7.41 3.21 12.23
12/4/2020 5:15:00 PM 5.19 41.342 0.317 7.41 3.49 12.19
12/4/2020 5:30:00 PM 5.18 41.324 0.317 7.41 4.06 12.15
12/4/2020 5:45:00 PM 5.18 41.324 0.317 7.4 4.38 12.12
12/4/2020 6:00:00 PM 5.18 41.324 0.318 7.4 4.5 12.1
12/4/2020 6:15:00 PM 5.18 41.324 0.318 7.4 3.66 12.07
12/4/2020 6:30:00 PM 5.18 41.324 0.318 7.4 3.95 12.07
12/4/2020 6:45:00 PM 5.19 41.342 0.318 7.4 4.26 12.07
12/4/2020 7:00:00 PM 5.19 41.342 0.318 7.39 4.38 12.07
12/4/2020 7:15:00 PM 5.2 41.36 0.318 7.39 3.25 12.05
12/4/2020 7:30:00 PM 5.21 41.378 0.318 7.39 3.65 12.05
12/4/2020 7:45:00 PM 5.21 41.378 0.319 7.39 3.82 12.05
12/4/2020 8:00:00 PM 5.22 41.396 0.319 7.39 4 12.05
12/4/2020 8:15:00 PM 5.23 41.414 0.319 7.39 3.87 12.05
12/4/2020 8:30:00 PM 5.23 41.414 0.319 7.38 5.12 12.05
12/4/2020 8:45:00 PM 5.24 41.432 0.319 7.38 4.61 12.06
12/4/2020 9:00:00 PM 5.25 41.45 0.32 7.39 3.48 12.05
12/4/2020 9:15:00 PM 5.27 41.486 0.32 7.39 4.26 12.06
12/4/2020 9:30:00 PM 5.27 41.486 0.32 7.4 4.57 12.06
12/4/2020 9:45:00 PM 5.28 41.504 0.32 7.39 3.42 12.06
12/4/2020 10:00:00 PM 5.29 41.522 0.32 7.4 9.06 12.06
12/4/2020 10:15:00 PM 5.3 41.54 0.32 7.39 3.52 12.04
12/4/2020 10:30:00 PM 5.31 41.558 0.321 7.39 3.55 12.07
12/4/2020 10:45:00 PM 5.32 41.576 0.321 7.4 5.73 12.06
12/4/2020 11:00:00 PM 5.33 41.594 0.321 7.41 3.9 12.06
12/4/2020 11:15:00 PM 5.34 41.612 0.321 7.4 3.67 12.07
12/4/2020 11:30:00 PM 5.34 41.612 0.321 7.41 4.77 12.06
12/4/2020 11:45:00 PM 5.35 41.63 0.322 7.41 3.85 12.06
12/5/2020 12:00:00 AM 5.36 41.648 0.322 7.41 4.19 12.06
12/5/2020 12:15:00 AM 5.37 41.666 0.322 7.4 3.43 12.06
12/5/2020 12:30:00 AM 5.38 41.684 0.323 7.4 3.71 12.05
12/5/2020 12:45:00 AM 5.39 41.702 0.323 7.42 3.7 12.04
12/5/2020 1:00:00 AM 5.4 41.72 0.323 7.41 4.05 12.04
12/5/2020 1:15:00 AM 5.41 41.738 0.323 7.41 3.44 12.04
12/5/2020 1:30:00 AM 5.41 41.738 0.324 7.41 3.71 12.03
12/5/2020 1:45:00 AM 5.43 41.774 0.324 7.41 3.51 12.01
12/5/2020 2:00:00 AM 5.44 41.792 0.324 7.42 4.51 12.01
12/5/2020 2:15:00 AM 5.44 41.792 0.325 7.4 3.82 12.02
12/5/2020 2:30:00 AM 5.45 41.81 0.325 7.4 3.73 12.01
12/5/2020 2:45:00 AM 5.47 41.846 0.325 7.4 4.53 12
12/5/2020 3:00:00 AM 5.48 41.864 0.325 7.4 3.73 11.99
12/5/2020 3:15:00 AM 5.49 41.882 0.326 7.4 3.87 11.99
12/5/2020 3:30:00 AM 5.5 41.9 0.326 7.41 3.58 11.98
12/5/2020 3:45:00 AM 5.51 41.918 0.326 7.41 3.68 11.98
12/5/2020 4:00:00 AM 5.52 41.936 0.326 7.4 4.42 11.98
12/5/2020 4:15:00 AM 5.53 41.954 0.326 7.41 3.89 11.97
12/5/2020 4:30:00 AM 5.54 41.972 0.327 7.4 3.83 11.96
12/5/2020 4:45:00 AM 5.54 41.972 0.327 7.41 4.26 11.95
12/5/2020 5:00:00 AM 5.53 41.954 0.327 7.4 3.65 11.94
12/5/2020 5:15:00 AM 5.52 41.936 0.327 7.4 3.35 11.94
12/5/2020 5:30:00 AM 5.52 41.936 0.327 7.41 3.61 11.93
12/5/2020 5:45:00 AM 5.52 41.936 0.327 7.4 3.53 11.92
12/5/2020 6:00:00 AM 5.51 41.918 0.328 7.4 3.67 11.9
12/5/2020 6:15:00 AM 5.5 41.9 0.328 7.4 2.92 11.91
12/5/2020 6:30:00 AM 5.5 41.9 0.328 7.4 4.57 11.9
12/5/2020 6:45:00 AM 5.5 41.9 0.328 7.4 3.74 11.88
12/5/2020 7:00:00 AM 5.5 41.9 0.328 7.4 3.7 11.89
12/5/2020 7:15:00 AM 5.5 41.9 0.329 7.39 3.62 11.87
12/5/2020 7:30:00 AM 5.5 41.9 0.329 7.4 3.89 11.87
12/5/2020 7:45:00 AM 5.5 41.9 0.329 7.4 3.63 11.87
12/5/2020 8:00:00 AM 5.5 41.9 0.329 7.4 3.1 11.86
12/5/2020 8:15:00 AM 5.51 41.918 0.329 7.41 5.39 11.88
12/5/2020 8:30:00 AM 5.52 41.936 0.33 7.4 3.94 11.88
12/5/2020 8:45:00 AM 5.53 41.954 0.33 7.4 3.13 11.89
12/5/2020 9:00:00 AM 5.55 41.99 0.33 7.41 3.14 11.92
12/5/2020 9:15:00 AM 5.57 42.026 0.33 7.42 3.2 11.96
12/5/2020 9:30:00 AM 5.61 42.098 0.33 7.41 3.21 12
12/5/2020 9:45:00 AM 5.64 42.152 0.33 7.43 9.52 12.02
12/5/2020 10:00:00 AM 5.68 42.224 0.331 7.43 48.7 12.1
12/5/2020 10:15:00 AM 5.72 42.296 0.331 7.43 3.76 12.17
12/5/2020 10:30:00 AM 5.74 42.332 0.331 7.44 3.9 12.24
12/5/2020 10:45:00 AM 5.75 42.35 0.331 7.45 2.78 12.28
12/5/2020 11:00:00 AM 5.75 42.35 0.331 7.44 2.89 12.27
12/5/2020 11:15:00 AM 5.76 42.368 0.331 7.45 2.7 12.3
12/5/2020 11:30:00 AM 5.78 42.404 0.331 7.46 2.93 12.29
12/5/2020 11:45:00 AM 5.84 42.512 0.331 7.46 3.27 12.29
12/5/2020 12:00:00 PM 5.91 42.638 0.331 7.46 2.99 12.29
12/5/2020 12:15:00 PM 5.88 42.584 0.331 7.47 3.34 12.32
12/5/2020 12:30:00 PM 5.87 42.566 0.332 7.46 3.11 12.38
12/5/2020 12:45:00 PM 5.87 42.566 0.332 7.47 3.72 12.4
12/5/2020 1:00:00 PM 5.88 42.584 0.333 7.48 3.12 12.4
12/5/2020 1:15:00 PM 5.93 42.674 0.333 7.48 2.72 12.42
12/5/2020 1:30:00 PM 5.95 42.71 0.333 7.48 2.8 12.43
12/5/2020 1:45:00 PM 5.93 42.674 0.333 7.49 3.4 12.44
12/5/2020 2:00:00 PM 5.91 42.638 0.333 7.49 3 12.44
12/5/2020 2:15:00 PM 5.88 42.584 0.334 7.49 3.63 12.43
12/5/2020 2:30:00 PM 5.87 42.566 0.334 7.49 3.08 12.42
12/5/2020 2:45:00 PM 5.84 42.512 0.334 7.48 4.03 12.4
12/5/2020 3:00:00 PM 5.82 42.476 0.334 7.49 3.41 12.34
12/5/2020 3:15:00 PM 5.8 42.44 0.334 7.49 3.54 12.31
12/5/2020 3:30:00 PM 5.78 42.404 0.334 7.48 3.42 12.27
12/5/2020 3:45:00 PM 5.76 42.368 0.334 7.48 2.66 12.21
12/5/2020 4:00:00 PM 5.74 42.332 0.335 7.48 3 12.17
12/5/2020 4:15:00 PM 5.72 42.296 0.335 7.47 3.8 12.12
12/5/2020 4:30:00 PM 5.69 42.242 0.336 7.46 3.23 12.06
12/5/2020 4:45:00 PM 5.67 42.206 0.336 7.46 2.96 12.03
12/5/2020 5:00:00 PM 5.66 42.188 0.336 7.45 3.01 12
12/5/2020 5:15:00 PM 5.65 42.17 0.336 7.45 3.51 11.95
12/5/2020 5:30:00 PM 5.63 42.134 0.337 7.45 4.2 11.91
12/5/2020 5:45:00 PM 5.62 42.116 0.337 7.45 3.8 11.9
12/5/2020 6:00:00 PM 5.61 42.098 0.336 7.45 3.67 11.87
12/5/2020 6:15:00 PM 5.61 42.098 0.336 7.43 4.15 11.85
12/5/2020 6:30:00 PM 5.61 42.098 0.336 7.44 3.68 11.85
12/5/2020 6:45:00 PM 5.6 42.08 0.336 7.43 3.49 11.85
12/5/2020 7:00:00 PM 5.6 42.08 0.337 7.44 5.12 11.87
12/5/2020 7:15:00 PM 5.6 42.08 0.337 7.42 4.09 11.87
12/5/2020 7:30:00 PM 5.6 42.08 0.337 7.43 3.84 11.86
12/5/2020 7:45:00 PM 5.61 42.098 0.337 7.43 3.32 11.86
12/5/2020 8:00:00 PM 5.61 42.098 0.338 7.43 3.19 11.87
12/5/2020 8:15:00 PM 5.62 42.116 0.338 7.45 3.17 11.9
12/5/2020 8:30:00 PM 5.63 42.134 0.338 7.45 3.3 11.88
12/5/2020 8:45:00 PM 5.63 42.134 0.338 7.44 3.22 11.9
12/5/2020 9:00:00 PM 5.63 42.134 0.338 7.44 2.6 11.91
12/5/2020 9:15:00 PM 5.64 42.152 0.338 7.45 4.93 11.93
12/5/2020 9:30:00 PM 5.65 42.17 0.339 7.46 3.74 11.93
12/5/2020 9:45:00 PM 5.65 42.17 0.339 7.45 4.08 11.93
12/5/2020 10:00:00 PM 5.64 42.152 0.339 7.46 4.47 11.95
12/5/2020 10:15:00 PM 5.63 42.134 0.338 7.46 4.68 11.94
12/5/2020 10:30:00 PM 5.64 42.152 0.339 7.47 3.92 11.96
12/5/2020 10:45:00 PM 5.63 42.134 0.339 7.47 3.89 11.98
12/5/2020 11:00:00 PM 5.63 42.134 0.339 7.48 4 11.98
12/5/2020 11:15:00 PM 5.63 42.134 0.34 7.48 5.44 11.98
12/5/2020 11:30:00 PM 5.63 42.134 0.34 7.48 2.92 12
12/5/2020 11:45:00 PM 5.62 42.116 0.34 7.48 6.01 11.97
12/6/2020 12:00:00 AM 5.62 42.116 0.34 7.48 4.72 12.01
12/6/2020 12:15:00 AM 5.62 42.116 0.34 7.48 3.08 12.02
12/6/2020 12:30:00 AM 5.61 42.098 0.336 7.49 3.84 12.02
12/6/2020 12:45:00 AM 5.61 42.098 0.34 7.49 3.8 12.03
12/6/2020 1:00:00 AM 5.6 42.08 0.34 7.48 3.13 12.02
12/6/2020 1:15:00 AM 5.58 42.044 0.34 7.49 3.85 12.03
12/6/2020 1:30:00 AM 5.58 42.044 0.34 7.48 3.38 12.01
12/6/2020 1:45:00 AM 5.57 42.026 0.34 7.48 3.98 12.02
12/6/2020 2:00:00 AM 5.56 42.008 0.34 7.49 4.22 12.05
12/6/2020 2:15:00 AM 5.55 41.99 0.34 7.49 3.21 12.04
12/6/2020 2:30:00 AM 5.54 41.972 0.34 7.49 3.53 12.04
12/6/2020 2:45:00 AM 5.53 41.954 0.34 7.49 3.79 12.05
12/6/2020 3:00:00 AM 5.52 41.936 0.339 7.48 3.38 12.06
12/6/2020 3:15:00 AM 5.51 41.918 0.34 7.48 3.74 12.02
12/6/2020 3:30:00 AM 5.5 41.9 0.34 7.47 4.28 12.03
12/6/2020 3:45:00 AM 5.48 41.864 0.34 7.48 3.95 12.02
12/6/2020 4:00:00 AM 5.47 41.846 0.34 7.46 3.6 12.01
12/6/2020 4:15:00 AM 5.45 41.81 0.34 7.46 3.72 12.02
12/6/2020 4:30:00 AM 5.43 41.774 0.34 7.47 4.19 12.02
12/6/2020 4:45:00 AM 5.41 41.738 0.34 7.46 3.49 12.01
12/6/2020 5:00:00 AM 5.39 41.702 0.34 7.45 3.11 12.02
12/6/2020 5:15:00 AM 5.37 41.666 0.34 7.45 3.4 12.01
12/6/2020 5:30:00 AM 5.35 41.63 0.34 7.44 3.31 12
12/6/2020 5:45:00 AM 5.34 41.612 0.34 7.45 4.76 12
12/6/2020 6:00:00 AM 5.32 41.576 0.34 7.44 3.64 12
12/6/2020 6:15:00 AM 5.29 41.522 0.34 7.44 3.74 11.99
12/6/2020 6:30:00 AM 5.28 41.504 0.34 7.46 3.14 11.99
12/6/2020 6:45:00 AM 5.25 41.45 0.34 7.48 4.71 11.97
12/6/2020 7:00:00 AM 5.24 41.432 0.34 7.49 2.92 11.98
12/6/2020 7:15:00 AM 5.22 41.396 0.34 7.49 2.65 11.98
12/6/2020 7:30:00 AM 5.21 41.378 0.34 7.5 3.44 11.98
12/6/2020 7:45:00 AM 5.18 41.324 0.34 7.49 3.79 11.97
12/6/2020 8:00:00 AM 5.15 41.27 0.34 7.5 3.65 11.98
12/6/2020 8:15:00 AM 5.12 41.216 0.34 7.5 3.25 12.01
12/6/2020 8:30:00 AM 5.1 41.18 0.34 7.49 2.64 12.05
12/6/2020 8:45:00 AM 5.1 41.18 0.34 7.49 4.37 12.08
12/6/2020 9:00:00 AM 5.1 41.18 0.34 7.49 2.87 12.14
12/6/2020 9:15:00 AM 5.12 41.216 0.34 7.52 2.94 12.2
12/6/2020 9:30:00 AM 5.12 41.216 0.34 7.53 2.79 12.26
12/6/2020 9:45:00 AM 5.14 41.252 0.34 7.53 2.77 12.31
12/6/2020 10:00:00 AM 5.15 41.27 0.34 7.52 2.9 12.36
12/6/2020 10:15:00 AM 5.16 41.288 0.34 7.51 3.64 12.4
12/6/2020 10:30:00 AM 5.19 41.342 0.34 7.52 3.43 12.45
12/6/2020 10:45:00 AM 5.25 41.45 0.34 7.54 3.47 12.48
12/6/2020 11:00:00 AM 5.33 41.594 0.34 7.55 2.99 12.51
12/6/2020 11:15:00 AM 5.42 41.756 0.34 7.55 3.04 12.55
12/6/2020 11:30:00 AM 5.5 41.9 0.34 7.56 3.84 12.59
12/6/2020 11:45:00 AM 5.61 42.098 0.34 7.57 3.23 12.59
12/6/2020 12:00:00 PM 5.72 42.296 0.34 7.57 3.14 12.64
12/6/2020 12:15:00 PM 5.8 42.44 0.339 7.57 2.67 12.66
12/6/2020 12:30:00 PM 5.89 42.602 0.339 7.59 3.07 12.67
12/6/2020 12:45:00 PM 5.94 42.692 0.339 7.57 2.96 12.66
12/6/2020 1:00:00 PM 5.97 42.746 0.339 7.59 3.72 12.65
12/6/2020 1:15:00 PM 5.97 42.746 0.339 7.58 3.13 12.66
12/6/2020 1:30:00 PM 5.98 42.764 0.339 7.57 3.17 12.65
12/6/2020 1:45:00 PM 6 42.8 0.339 7.59 3.46 12.65
12/6/2020 2:00:00 PM 6.01 42.818 0.339 7.57 3.15 12.64
12/6/2020 2:15:00 PM 5.97 42.746 0.339 7.57 2.93 12.64
12/6/2020 2:30:00 PM 5.97 42.746 0.339 7.58 2.87 12.62
12/6/2020 2:45:00 PM 5.91 42.638 0.339 7.59 3.72 12.61
12/6/2020 3:00:00 PM 5.86 42.548 0.339 7.57 2.96 12.59
12/6/2020 3:15:00 PM 5.77 42.386 0.339 7.58 3.24 12.58
12/6/2020 3:30:00 PM 5.69 42.242 0.339 7.58 3.7 12.53
12/6/2020 3:45:00 PM 5.63 42.134 0.339 7.57 2.93 12.5
12/6/2020 4:00:00 PM 5.54 41.972 0.34 7.57 3.18 12.44
12/6/2020 4:15:00 PM 5.47 41.846 0.34 7.57 3.39 12.4
12/6/2020 4:30:00 PM 5.41 41.738 0.34 7.57 3.14 12.33
12/6/2020 4:45:00 PM 5.35 41.63 0.34 7.55 2.76 12.28
12/6/2020 5:00:00 PM 5.29 41.522 0.34 7.54 2.76 12.23
12/6/2020 5:15:00 PM 5.24 41.432 0.34 7.54 3.29 12.18
12/6/2020 5:30:00 PM 5.2 41.36 0.34 7.53 3.76 12.15
12/6/2020 5:45:00 PM 5.17 41.306 0.34 7.53 4.47 12.1
12/6/2020 6:00:00 PM 5.16 41.288 0.34 7.53 3.49 12.07
12/6/2020 6:15:00 PM 5.13 41.234 0.34 7.52 3.6 12.05
12/6/2020 6:30:00 PM 5.11 41.198 0.34 7.52 3.25 12.05
12/6/2020 6:45:00 PM 5.09 41.162 0.34 7.51 3.11 12.05
12/6/2020 7:00:00 PM 5.07 41.126 0.34 7.51 3.19 12.06
12/6/2020 7:15:00 PM 5.05 41.09 0.339 7.5 3.44 12.07
12/6/2020 7:30:00 PM 5.03 41.054 0.339 7.51 3.43 12.07
12/6/2020 7:45:00 PM 5.01 41.018 0.339 7.5 3.47 12.08
12/6/2020 8:00:00 PM 4.98 40.964 0.34 7.49 3.2 12.09
12/6/2020 8:15:00 PM 4.97 40.946 0.339 7.49 3.36 12.12
12/6/2020 8:30:00 PM 4.98 40.964 0.339 7.5 3.44 12.12
12/6/2020 8:45:00 PM 4.96 40.928 0.339 7.49 3.75 12.12
12/6/2020 9:00:00 PM 4.95 40.91 0.339 7.5 3.2 12.13
12/6/2020 9:15:00 PM 4.94 40.892 0.339 7.49 3.87 12.15
12/6/2020 9:30:00 PM 4.93 40.874 0.339 7.49 3.83 12.17
12/6/2020 9:45:00 PM 4.92 40.856 0.339 7.48 3.35 12.18
12/6/2020 10:00:00 PM 4.92 40.856 0.339 7.49 3.16 12.2
12/6/2020 10:15:00 PM 4.91 40.838 0.339 7.5 3.81 12.17
12/6/2020 10:30:00 PM 4.9 40.82 0.339 7.5 4.1 12.22
12/6/2020 10:45:00 PM 4.9 40.82 0.339 7.49 2.97 12.23
12/6/2020 11:00:00 PM 4.88 40.784 0.339 7.5 3.12 12.23
12/6/2020 11:15:00 PM 4.88 40.784 0.339 7.5 3.53 12.24
12/6/2020 11:30:00 PM 4.87 40.766 0.339 7.51 3.52 12.25
12/6/2020 11:45:00 PM 4.84 40.712 0.339 7.5 3.29 12.28
12/7/2020 12:00:00 AM 4.83 40.694 0.339 7.51 3.93 12.29
12/7/2020 12:15:00 AM 4.82 40.676 0.339 7.5 3.43 12.3
12/7/2020 12:30:00 AM 4.82 40.676 0.339 7.51 3.66 12.3
12/7/2020 12:45:00 AM 4.79 40.622 0.339 7.51 3.38 12.3
12/7/2020 1:00:00 AM 4.77 40.586 0.338 7.53 3.06 12.34
12/7/2020 1:15:00 AM 4.76 40.568 0.339 7.52 3.18 12.31
12/7/2020 1:30:00 AM 4.72 40.496 0.339 7.52 3.11 12.34
12/7/2020 1:45:00 AM 4.71 40.478 0.339 7.52 3.23 12.36
12/7/2020 2:00:00 AM 4.68 40.424 0.339 7.52 4.3 12.38
12/7/2020 2:15:00 AM 4.66 40.388 0.339 7.53 3.54 12.39
12/7/2020 2:30:00 AM 4.63 40.334 0.339 7.53 3.24 12.4
12/7/2020 2:45:00 AM 4.6 40.28 0.339 7.53 3.34 12.4
12/7/2020 3:00:00 AM 4.56 40.208 0.339 7.53 3.22 12.4
12/7/2020 3:15:00 AM 4.54 40.172 0.339 7.52 3.82 12.41
12/7/2020 3:30:00 AM 4.51 40.118 0.339 7.53 4.26 12.4
12/7/2020 3:45:00 AM 4.47 40.046 0.339 7.53 2.91 12.42
12/7/2020 4:00:00 AM 4.44 39.992 0.339 7.52 3.75 12.43
12/7/2020 4:15:00 AM 4.41 39.938 0.339 7.52 3.3 12.43
12/7/2020 4:30:00 AM 4.39 39.902 0.339 7.52 3.43 12.43
12/7/2020 4:45:00 AM 4.36 39.848 0.339 7.52 3.69 12.43
12/7/2020 5:00:00 AM 4.33 39.794 0.339 7.51 3.35 12.41
12/7/2020 5:15:00 AM 4.29 39.722 0.339 7.52 3.39 12.44
12/7/2020 5:30:00 AM 4.26 39.668 0.34 7.51 3.34 12.44
12/7/2020 5:45:00 AM 4.23 39.614 0.34 7.51 3.34 12.44
12/7/2020 6:00:00 AM 4.18 39.524 0.34 7.51 3.3 12.44
12/7/2020 6:15:00 AM 4.15 39.47 0.34 7.5 3.34 12.44
12/7/2020 6:30:00 AM 4.11 39.398 0.34 7.5 3.61 12.43
12/7/2020 6:45:00 AM 4.08 39.344 0.34 7.5 3.45 12.44
12/7/2020 7:00:00 AM 4.04 39.272 0.34 7.49 3.61 12.45
12/7/2020 7:15:00 AM 4.03 39.254 0.34 7.49 3.27 12.45
12/7/2020 7:30:00 AM 4.01 39.218 0.341 7.49 2.93 12.46
12/7/2020 7:45:00 AM 4 39.2 0.341 7.49 3.05 12.46
12/7/2020 8:00:00 AM 3.99 39.182 0.341 7.49 2.92 12.47
12/7/2020 8:15:00 AM 3.99 39.182 0.341 7.5 3.05 12.5
12/7/2020 8:30:00 AM 4 39.2 0.341 7.51 3.15 12.53
12/7/2020 8:45:00 AM 4.01 39.218 0.341 7.53 3.23 12.57
12/7/2020 9:00:00 AM 4.03 39.254 0.341 7.52 3.41 12.65
12/7/2020 9:15:00 AM 4.05 39.29 0.341 7.52 3.02 12.7
12/7/2020 9:30:00 AM 4.07 39.326 0.342 7.51 4.86 12.77
12/7/2020 9:45:00 AM 4.08 39.344 0.342 7.51 3.11 12.82
12/7/2020 10:00:00 AM 4.1 39.38 0.342 7.53 3.5 12.89
12/7/2020 10:15:00 AM 4.12 39.416 0.342 7.53 3.5 12.91
12/7/2020 10:30:00 AM 4.14 39.452 0.342 7.53 3.31 12.99
12/7/2020 10:45:00 AM 4.17 39.506 0.343 7.54 3.11 13.03
12/7/2020 11:00:00 AM 4.21 39.578 0.343 7.54 2.91 13.06
12/7/2020 11:15:00 AM 4.3 39.74 0.343 7.55 3.12 13.1
12/7/2020 11:30:00 AM 4.4 39.92 0.343 7.55 3.1 13.13
12/7/2020 11:45:00 AM 4.46 40.028 0.343 7.56 3.12 13.16
12/7/2020 12:00:00 PM 4.53 40.154 0.343 7.56 2.92 13.2
12/7/2020 12:15:00 PM 4.63 40.334 0.343 7.57 3.16 13.18
12/7/2020 12:30:00 PM 4.74 40.532 0.343 7.58 3.88 13.19
12/7/2020 12:45:00 PM 4.81 40.658 0.344 7.57 2.72 13.19
12/7/2020 1:00:00 PM 4.88 40.784 0.344 7.58 3.13 13.2
12/7/2020 1:15:00 PM 4.92 40.856 0.344 7.58 3.04 13.21
12/7/2020 1:30:00 PM 4.9 40.82 0.344 7.57 2.96 13.21
12/7/2020 1:45:00 PM 4.87 40.766 0.344 7.58 2.88 13.2
12/7/2020 2:00:00 PM 4.82 40.676 0.345 7.57 2.88 13.19
12/7/2020 2:15:00 PM 4.79 40.622 0.345 7.56 2.71 13.18
12/7/2020 2:30:00 PM 4.74 40.532 0.345 7.57 2.91 13.16
12/7/2020 2:45:00 PM 4.68 40.424 0.345 7.57 2.94 13.17
12/7/2020 3:00:00 PM 4.63 40.334 0.345 7.56 2.88 13.14
12/7/2020 3:15:00 PM 4.52 40.136 0.346 7.55 2.87 13.13
12/7/2020 3:30:00 PM 4.4 39.92 0.346 7.53 3.76 13.11
12/7/2020 3:45:00 PM 4.31 39.758 0.346 7.54 3.15 13.08
12/7/2020 4:00:00 PM 4.23 39.614 0.346 7.54 2.73 13.05
12/7/2020 4:15:00 PM 4.12 39.416 0.346 7.54 2.74 12.99
12/7/2020 4:30:00 PM 4.05 39.29 0.346 7.53 3.07 12.92
12/7/2020 4:45:00 PM 3.97 39.146 0.347 7.52 2.7 12.86
12/7/2020 5:00:00 PM 3.91 39.038 0.347 7.51 3.58 12.79
12/7/2020 5:15:00 PM 3.86 38.948 0.347 7.5 2.79 12.73
12/7/2020 5:30:00 PM 3.82 38.876 0.347 7.48 2.63 12.68
12/7/2020 5:45:00 PM 3.78 38.804 0.347 7.48 3.07 12.63
12/7/2020 6:00:00 PM 3.74 38.732 0.347 7.48 3.18 12.58
12/7/2020 6:15:00 PM 3.71 38.678 0.347 7.47 3.17 12.57
12/7/2020 6:30:00 PM 3.68 38.624 0.347 7.46 3.24 12.53
12/7/2020 6:45:00 PM 3.66 38.588 0.347 7.46 3.39 12.54
12/7/2020 7:00:00 PM 3.62 38.516 0.347 7.46 2.6 12.53
12/7/2020 7:15:00 PM 3.6 38.48 0.347 7.46 2.85 12.55
12/7/2020 7:30:00 PM 3.58 38.444 0.347 7.45 3.88 12.55
12/7/2020 7:45:00 PM 3.56 38.408 0.346 7.45 2.56 12.57
12/7/2020 8:00:00 PM 3.54 38.372 0.346 7.46 2.92 12.58
12/7/2020 8:15:00 PM 3.53 38.354 0.346 7.45 2.87 12.59
12/7/2020 8:30:00 PM 3.5 38.3 0.346 7.44 2.71 12.6
12/7/2020 8:45:00 PM 3.48 38.264 0.346 7.44 2.38 12.61
12/7/2020 9:00:00 PM 3.47 38.246 0.346 7.44 2.89 12.63
12/7/2020 9:15:00 PM 3.44 38.192 0.346 7.44 2.78 12.64
12/7/2020 9:30:00 PM 3.43 38.174 0.346 7.44 2.79 12.68
12/7/2020 9:45:00 PM 3.42 38.156 0.345 7.44 2.57 12.67
12/7/2020 10:00:00 PM 3.41 38.138 0.334 7.44 2.99 12.68
12/7/2020 10:15:00 PM 3.41 38.138 0.345 7.45 18.99 12.7
12/7/2020 10:30:00 PM 3.4 38.12 0.345 7.45 2.86 12.7
12/7/2020 10:45:00 PM 3.39 38.102 0.345 7.45 2.71 12.72
12/7/2020 11:00:00 PM 3.39 38.102 0.345 7.45 2.65 12.74
12/7/2020 11:15:00 PM 3.39 38.102 0.345 7.46 2.69 12.74
12/7/2020 11:30:00 PM 3.4 38.12 0.344 7.46 3.34 12.76
12/7/2020 11:45:00 PM 3.41 38.138 0.344 7.46 2.89 12.77
12/8/2020 12:00:00 AM 3.41 38.138 0.344 7.47 2.95 12.78
12/8/2020 12:15:00 AM 3.41 38.138 0.344 7.47 2.49 12.79
12/8/2020 12:30:00 AM 3.41 38.138 0.344 7.47 2.58 12.8
12/8/2020 12:45:00 AM 3.41 38.138 0.337 7.48 2.73 12.81
12/8/2020 1:00:00 AM 3.4 38.12 0.344 7.47 2.82 12.81
12/8/2020 1:15:00 AM 3.42 38.156 0.344 7.49 3.22 12.8
12/8/2020 1:30:00 AM 3.41 38.138 0.344 7.48 2.91 12.84
12/8/2020 1:45:00 AM 3.42 38.156 0.344 7.49 3.16 12.85
12/8/2020 2:00:00 AM 3.43 38.174 0.343 7.5 3.28 12.87
12/8/2020 2:15:00 AM 3.4 38.12 0.343 7.49 2.49 12.86
12/8/2020 2:30:00 AM 3.41 38.138 0.343 7.49 2.38 12.86
12/8/2020 2:45:00 AM 3.41 38.138 0.343 7.49 2.98 12.88
12/8/2020 3:00:00 AM 3.42 38.156 0.343 7.5 2.85 12.88
12/8/2020 3:15:00 AM 3.43 38.174 0.343 7.5 3.35 12.9
12/8/2020 3:30:00 AM 3.41 38.138 0.343 7.5 2.66 12.9
12/8/2020 3:45:00 AM 3.4 38.12 0.343 7.51 2.84 12.91
12/8/2020 4:00:00 AM 3.4 38.12 0.343 7.51 2.78 12.91
12/8/2020 4:15:00 AM 3.4 38.12 0.344 7.51 2.46 12.92
12/8/2020 4:30:00 AM 3.38 38.084 0.344 7.51 2.81 12.91
12/8/2020 4:45:00 AM 3.35 38.03 0.344 7.5 2.83 12.94
12/8/2020 5:00:00 AM 3.32 37.976 0.344 7.5 3.09 12.94
12/8/2020 5:15:00 AM 3.29 37.922 0.344 7.51 2.24 12.92
12/8/2020 5:30:00 AM 3.26 37.868 0.344 7.51 3.15 12.94
12/8/2020 5:45:00 AM 3.22 37.796 0.344 7.5 3.02 12.93
12/8/2020 6:00:00 AM 3.18 37.724 0.344 7.5 3.43 12.93
12/8/2020 6:15:00 AM 3.13 37.634 0.345 7.5 2.72 12.95
12/8/2020 6:30:00 AM 3.08 37.544 0.345 7.48 3.87 12.95
12/8/2020 6:45:00 AM 3.03 37.454 0.345 7.49 2.67 12.95
12/8/2020 7:00:00 AM 2.98 37.364 0.345 7.48 2.87 12.96
12/8/2020 7:15:00 AM 2.94 37.292 0.345 7.48 2.44 12.96
12/8/2020 7:30:00 AM 2.9 37.22 0.345 7.48 2.36 12.95
12/8/2020 7:45:00 AM 2.87 37.166 0.345 7.48 2.86 12.98
12/8/2020 8:00:00 AM 2.83 37.094 0.345 7.47 2.81 13
12/8/2020 8:15:00 AM 2.81 37.058 0.345 7.47 3.21 13.02
12/8/2020 8:30:00 AM 2.81 37.058 0.345 7.48 2.49 13.05
12/8/2020 8:45:00 AM 2.81 37.058 0.345 7.48 2.81 13.11
12/8/2020 9:00:00 AM 2.8 37.04 0.346 7.48 2.91 13.19
12/8/2020 9:15:00 AM 2.79 37.022 0.346 7.48 2.9 13.25
12/8/2020 9:30:00 AM 2.78 37.004 0.346 7.49 2.78 13.31
12/8/2020 9:45:00 AM 2.78 37.004 0.346 7.49 2.57 13.39
12/8/2020 10:00:00 AM 2.8 37.04 0.346 7.5 2.61 13.46
12/8/2020 10:15:00 AM 2.81 37.058 0.346 7.51 2.67 13.47
12/8/2020 10:30:00 AM 2.85 37.13 0.347 7.51 2.54 13.52
12/8/2020 10:45:00 AM 2.92 37.256 0.347 7.52 2.73 13.56
12/8/2020 11:00:00 AM 3.03 37.454 0.346 7.52 2.4 13.6
12/8/2020 11:15:00 AM 3.13 37.634 0.346 7.54 2.71 13.61
12/8/2020 11:30:00 AM 3.26 37.868 0.346 7.55 3.05 13.66
12/8/2020 11:45:00 AM 3.39 38.102 0.346 7.55 2.96 13.69
12/8/2020 12:00:00 PM 3.52 38.336 0.346 7.55 2.82 13.71
12/8/2020 12:15:00 PM 3.64 38.552 0.346 7.55 2.52 13.73
12/8/2020 12:30:00 PM 3.75 38.75 0.346 7.58 2.52 13.73
12/8/2020 12:45:00 PM 3.86 38.948 0.347 7.58 2.46 13.73
12/8/2020 1:00:00 PM 3.93 39.074 0.347 7.55 2.71 13.73
12/8/2020 1:15:00 PM 4 39.2 0.347 7.55 2.73 13.73
12/8/2020 1:30:00 PM 4.04 39.272 0.331 7.54 2.55 13.72
12/8/2020 1:45:00 PM 4.05 39.29 0.347 7.54 2.62 13.71
12/8/2020 2:00:00 PM 4.05 39.29 0.347 7.54 2.48 13.73
12/8/2020 2:15:00 PM 4.06 39.308 0.347 7.54 2.77 13.71
12/8/2020 2:30:00 PM 3.99 39.182 0.347 7.54 2.36 13.7
12/8/2020 2:45:00 PM 3.9 39.02 0.348 7.53 2.37 13.68
12/8/2020 3:00:00 PM 3.8 38.84 0.346 7.53 2.62 13.65
12/8/2020 3:15:00 PM 3.7 38.66 0.337 7.52 2.73 13.63
12/8/2020 3:30:00 PM 3.57 38.426 0.348 7.51 2.57 13.61
12/8/2020 3:45:00 PM 3.49 38.282 0.348 7.5 2.62 13.58
12/8/2020 4:00:00 PM 3.36 38.048 0.332 7.49 2.35 13.53
12/8/2020 4:15:00 PM 3.27 37.886 0.35 7.5 2.53 13.47
12/8/2020 4:30:00 PM 3.19 37.742 0.35 7.5 2.56 13.42
12/8/2020 4:45:00 PM 3.11 37.598 0.351 7.48 2.55 13.35
12/8/2020 5:00:00 PM 3.05 37.49 0.351 7.47 2.39 13.3
12/8/2020 5:15:00 PM 2.99 37.382 0.351 7.48 2.68 13.23
12/8/2020 5:30:00 PM 2.95 37.31 0.351 7.47 2.46 13.17
12/8/2020 5:45:00 PM 2.91 37.238 0.351 7.46 2.43 13.13
12/8/2020 6:00:00 PM 2.89 37.202 0.351 7.46 3.26 13.08
12/8/2020 6:15:00 PM 2.86 37.148 0.329 7.45 2.35 13.06
12/8/2020 6:30:00 PM 2.84 37.112 0.351 7.45 2.93 13.03
12/8/2020 6:45:00 PM 2.82 37.076 0.351 7.45 2.83 13.02
12/8/2020 7:00:00 PM 2.81 37.058 0.337 7.45 2.48 13.03
12/8/2020 7:15:00 PM 2.8 37.04 0.351 7.43 2.82 13.01
12/8/2020 7:30:00 PM 2.79 37.022 0.352 7.44 2.75 13.02
12/8/2020 7:45:00 PM 2.78 37.004 0.352 7.44 2.71 13.01
12/8/2020 8:00:00 PM 2.77 36.986 0.352 7.44 2.96 13.02
12/8/2020 8:15:00 PM 2.75 36.95 0.352 7.44 2.84 13.05
12/8/2020 8:30:00 PM 2.74 36.932 0.34 7.43 2.98 13.03
12/8/2020 8:45:00 PM 2.73 36.914 0.353 7.44 2.66 13.04
12/8/2020 9:00:00 PM 2.72 36.896 0.353 7.43 3.15 13.04
12/8/2020 9:15:00 PM 2.71 36.878 0.35 7.43 2.73 13.07
12/8/2020 9:30:00 PM 2.71 36.878 0.35 7.44 2.72 13.07
12/8/2020 9:45:00 PM 2.7 36.86 0.353 7.42 4.91 13.09
12/8/2020 10:00:00 PM 2.7 36.86 0.354 7.43 2.41 13.09
12/8/2020 10:15:00 PM 2.69 36.842 0.353 7.43 2.62 13.09
12/8/2020 10:30:00 PM 2.68 36.824 0.352 7.43 2.7 13.11
12/8/2020 10:45:00 PM 2.66 36.788 0.353 7.43 2.28 13.13
12/8/2020 11:00:00 PM 2.65 36.77 0.354 7.43 3.14 13.11
12/8/2020 11:15:00 PM 2.64 36.752 0.354 7.43 2.73 13.12
12/8/2020 11:30:00 PM 2.64 36.752 0.354 7.43 2.67 13.15
12/8/2020 11:45:00 PM 2.63 36.734 0.354 7.43 2.68 13.16
12/9/2020 12:00:00 AM 2.64 36.752 0.354 7.48 2.58 13.16
12/9/2020 12:15:00 AM 2.64 36.752 0.354 7.49 2.32 13.16
12/9/2020 12:30:00 AM 2.64 36.752 0.354 7.5 2.47 13.16
12/9/2020 12:45:00 AM 2.64 36.752 0.354 7.49 2.9 13.17
12/9/2020 1:00:00 AM 2.65 36.77 0.354 7.5 2.95 13.17
12/9/2020 1:15:00 AM 2.65 36.77 0.354 7.52 2.72 13.19
12/9/2020 1:30:00 AM 2.67 36.806 0.355 7.5 2.47 13.2
12/9/2020 1:45:00 AM 2.68 36.824 0.343 7.52 3.02 13.2
12/9/2020 2:00:00 AM 2.69 36.842 0.355 7.53 2.79 13.2
12/9/2020 2:15:00 AM 2.72 36.896 0.355 7.51 2.57 13.19
12/9/2020 2:30:00 AM 2.73 36.914 0.355 7.51 3.16 13.2
12/9/2020 2:45:00 AM 2.74 36.932 0.355 7.46 2.66 13.21
12/9/2020 3:00:00 AM 2.76 36.968 0.355 7.46 2.41 13.2
12/9/2020 3:15:00 AM 2.78 37.004 0.355 7.46 2.8 13.22
12/9/2020 3:30:00 AM 2.8 37.04 0.355 7.47 2.42 13.21
12/9/2020 3:45:00 AM 2.8 37.04 0.355 7.47 2.7 13.19
12/9/2020 4:00:00 AM 2.82 37.076 0.35 7.47 2.56 13.21
12/9/2020 4:15:00 AM 2.82 37.076 0.353 7.48 2.48 13.22
12/9/2020 4:30:00 AM 2.84 37.112 0.355 7.48 3.16 13.2
12/9/2020 4:45:00 AM 2.84 37.112 0.356 7.47 2.5 13.2
12/9/2020 5:00:00 AM 2.85 37.13 0.354 7.48 2.96 13.21
12/9/2020 5:15:00 AM 2.85 37.13 0.356 7.48 2.79 13.2
12/9/2020 5:30:00 AM 2.85 37.13 0.356 7.49 2.87 13.21
12/9/2020 5:45:00 AM 2.84 37.112 0.356 7.48 3.31 13.2
12/9/2020 6:00:00 AM 2.84 37.112 0.356 7.49 2.71 13.21
12/9/2020 6:15:00 AM 2.83 37.094 0.356 7.49 2.67 13.2
12/9/2020 6:30:00 AM 2.82 37.076 0.356 7.49 2.31 13.21
12/9/2020 6:45:00 AM 2.8 37.04 0.357 7.49 2.83 13.21
12/9/2020 7:00:00 AM 2.79 37.022 0.357 7.53 2.73 13.19
12/9/2020 7:15:00 AM 2.78 37.004 0.357 7.52 2.67 13.2
12/9/2020 7:30:00 AM 2.77 36.986 0.357 7.52 3.42 13.19
12/9/2020 7:45:00 AM 2.76 36.968 0.357 7.52 3.05 13.19
12/9/2020 8:00:00 AM 2.76 36.968 0.357 7.52 3.8 13.19
12/9/2020 8:15:00 AM 2.75 36.95 0.357 7.51 3.27 13.2
12/9/2020 8:30:00 AM 2.75 36.95 0.357 7.5 3.51 13.21
12/9/2020 8:45:00 AM 2.74 36.932 0.357 7.5 3.29 13.21
12/9/2020 9:00:00 AM 2.74 36.932 0.357 7.49 2.33 13.24
12/9/2020 9:15:00 AM 2.74 36.932 0.357 7.5 2.72 13.25
12/9/2020 9:30:00 AM 2.74 36.932 0.357 7.51 2.69 13.28
12/9/2020 9:45:00 AM 2.75 36.95 0.357 7.51 2.65 13.31
12/9/2020 10:00:00 AM 2.76 36.968 0.357 7.51 3.03 13.33
12/9/2020 10:15:00 AM 2.77 36.986 0.357 7.51 2.91 13.38
12/9/2020 10:30:00 AM 2.8 37.04 0.357 7.46 3.41 13.42
12/9/2020 10:45:00 AM 2.85 37.13 0.356 7.47 2.55 13.47
12/9/2020 11:00:00 AM 2.9 37.22 0.356 7.48 2.6 13.53
12/9/2020 11:15:00 AM 2.94 37.292 0.356 7.53 3.02 13.58
12/9/2020 11:30:00 AM 2.99 37.382 0.356 7.54 2.87 13.64
12/9/2020 11:45:00 AM 3.04 37.472 0.356 7.54 2.44 13.7
12/9/2020 12:00:00 PM 3.08 37.544 0.356 7.55 2.74 13.74
12/9/2020 12:15:00 PM 3.11 37.598 0.356 7.55 2.72 13.79
12/9/2020 12:30:00 PM 3.15 37.67 0.357 7.56 3.12 13.82
12/9/2020 12:45:00 PM 3.21 37.778 0.357 7.56 2.69 13.84
12/9/2020 1:00:00 PM 3.26 37.868 0.357 7.53 2.59 13.83
12/9/2020 1:15:00 PM 3.34 38.012 0.357 7.53 2.32 13.83
12/9/2020 1:30:00 PM 3.41 38.138 0.357 7.53 2.64 13.84
12/9/2020 1:45:00 PM 3.46 38.228 0.321 7.54 2.85 13.85
12/9/2020 2:00:00 PM 3.48 38.264 0.313 7.58 2.6 13.84
12/9/2020 2:15:00 PM 3.47 38.246 0.304 7.59 2.24 13.88
12/9/2020 2:30:00 PM 3.45 38.21 0.357 7.58 2.33 13.86
12/9/2020 2:45:00 PM 3.42 38.156 0.358 7.57 2.23 13.84
12/9/2020 3:00:00 PM 3.37 38.066 0.358 7.57 2.17 13.8
12/9/2020 3:15:00 PM 3.33 37.994 0.358 7.57 2.8 13.75
12/9/2020 3:30:00 PM 3.27 37.886 0.359 7.56 3.23 13.7
12/9/2020 3:45:00 PM 3.24 37.832 0.359 7.56 2.57 13.66
12/9/2020 4:00:00 PM 3.19 37.742 0.359 7.54 2.36 13.61
12/9/2020 4:15:00 PM 3.15 37.67 0.359 7.54 2.44 13.51
12/9/2020 4:30:00 PM 3.11 37.598 0.36 7.53 2.5 13.47
12/9/2020 4:45:00 PM 3.07 37.526 0.349 7.52 2.53 13.4
12/9/2020 5:00:00 PM 3.04 37.472 0.36 7.51 2.96 13.32
12/9/2020 5:15:00 PM 3.01 37.418 0.361 7.49 2.66 13.28
12/9/2020 5:30:00 PM 2.97 37.346 0.361 7.44 2.3 13.23
12/9/2020 5:45:00 PM 2.95 37.31 0.361 7.44 2.61 13.14
12/9/2020 6:00:00 PM 2.93 37.274 0.361 7.42 2.43 13.11
12/9/2020 6:15:00 PM 2.93 37.274 0.362 7.39 2.18 13.06
12/9/2020 6:30:00 PM 2.93 37.274 0.362 7.41 2.59 13.03
12/9/2020 6:45:00 PM 2.93 37.274 0.362 7.41 2.19 12.99
12/9/2020 7:00:00 PM 2.94 37.292 0.362 7.44 2.62 12.99
12/9/2020 7:15:00 PM 2.94 37.292 0.362 7.43 2.62 12.99
12/9/2020 7:30:00 PM 2.95 37.31 0.362 7.43 2.36 12.98
12/9/2020 7:45:00 PM 2.96 37.328 0.363 7.42 2.58 12.98
12/9/2020 8:00:00 PM 2.96 37.328 0.363 7.42 2.25 12.98
12/9/2020 8:15:00 PM 2.97 37.346 0.363 7.42 2.56 12.97
12/9/2020 8:30:00 PM 2.98 37.364 0.363 7.41 3.13 12.97
12/9/2020 8:45:00 PM 2.98 37.364 0.363 7.41 2.87 12.98
12/9/2020 9:00:00 PM 2.99 37.382 0.364 7.4 2.74 12.97
12/9/2020 9:15:00 PM 3 37.4 0.359 7.4 2.31 12.94
12/9/2020 9:30:00 PM 3.01 37.418 0.359 7.39 2.48 12.93
12/9/2020 9:45:00 PM 3.02 37.436 0.327 7.39 2.96 12.97
12/9/2020 10:00:00 PM 3.02 37.436 0.364 7.39 2.26 12.96
12/9/2020 10:15:00 PM 3.03 37.454 0.364 7.39 2.41 12.96
12/9/2020 10:30:00 PM 3.05 37.49 0.364 7.39 2.1 12.97
12/9/2020 10:45:00 PM 3.06 37.508 0.364 7.39 2.58 12.96
12/9/2020 11:00:00 PM 3.07 37.526 0.362 7.38 2.41 12.97
12/9/2020 11:15:00 PM 3.08 37.544 0.365 7.37 2.43 12.96
12/9/2020 11:30:00 PM 3.08 37.544 0.365 7.38 2.59 12.97
12/9/2020 11:45:00 PM 3.09 37.562 0.365 7.39 2.08 12.98
12/10/2020 12:00:00 AM 3.1 37.58 0.35 7.38 2.14 12.97
12/10/2020 12:15:00 AM 3.11 37.598 0.366 7.38 2.24 12.95
12/10/2020 12:30:00 AM 3.11 37.598 0.314 7.38 6.07 12.97
12/10/2020 12:45:00 AM 3.12 37.616 0.348 7.39 2.5 12.97
12/10/2020 1:00:00 AM 3.12 37.616 0.325 7.38 2.15 12.99
12/10/2020 1:15:00 AM 3.12 37.616 0.366 7.38 2.16 12.99
12/10/2020 1:30:00 AM 3.13 37.634 0.366 7.39 2.23 12.99
12/10/2020 1:45:00 AM 3.13 37.634 0.367 7.39 2.17 12.99
12/10/2020 2:00:00 AM 3.12 37.616 0.355 7.39 2.61 12.99
12/10/2020 2:15:00 AM 3.12 37.616 0.367 7.39 2.5 13
12/10/2020 2:30:00 AM 3.12 37.616 0.367 7.39 2.6 12.99
12/10/2020 2:45:00 AM 3.12 37.616 0.36 7.4 2.53 13.02
12/10/2020 3:00:00 AM 3.14 37.652 0.333 7.4 2.14 13.02
12/10/2020 3:15:00 AM 3.15 37.67 0.331 7.4 2.3 13.03
12/10/2020 3:30:00 AM 3.17 37.706 0.348 7.41 2.47 13.03
12/10/2020 3:45:00 AM 3.19 37.742 0.367 7.41 2.04 13.02
12/10/2020 4:00:00 AM 3.22 37.796 0.367 7.42 3.39 13.03
12/10/2020 4:15:00 AM 3.24 37.832 0.329 7.41 2.01 13.03
12/10/2020 4:30:00 AM 3.28 37.904 0.368 7.42 2.17 13.05
12/10/2020 4:45:00 AM 3.3 37.94 0.368 7.42 2.37 13.05
12/10/2020 5:00:00 AM 3.31 37.958 0.368 7.43 2.32 13.04
12/10/2020 5:15:00 AM 3.33 37.994 0.368 7.43 2.45 13.05
12/10/2020 5:30:00 AM 3.35 38.03 0.368 7.43 2.3 13.06
12/10/2020 5:45:00 AM 3.36 38.048 0.368 7.43 2.31 13.06
12/10/2020 6:00:00 AM 3.38 38.084 0.368 7.44 3.05 13.04
12/10/2020 6:15:00 AM 3.39 38.102 0.368 7.43 2.48 13.05
12/10/2020 6:30:00 AM 3.4 38.12 0.368 7.44 2.96 13.06
12/10/2020 6:45:00 AM 3.4 38.12 0.368 7.44 3.01 13.06
12/10/2020 7:00:00 AM 3.41 38.138 0.369 7.44 2.21 13.03
12/10/2020 7:15:00 AM 3.42 38.156 0.369 7.45 1.95 13.05
12/10/2020 7:30:00 AM 3.42 38.156 0.369 7.44 2.75 13.05
12/10/2020 7:45:00 AM 3.43 38.174 0.369 7.45 2.53 13.05
12/10/2020 8:00:00 AM 3.44 38.192 0.369 7.45 2.54 13.08
12/10/2020 8:15:00 AM 3.44 38.192 0.369 7.45 2.33 13.1
12/10/2020 8:30:00 AM 3.44 38.192 0.369 7.45 2.42 13.13
12/10/2020 8:45:00 AM 3.44 38.192 0.369 7.45 2.76 13.17
12/10/2020 9:00:00 AM 3.47 38.246 0.369 7.47 2.59 13.2
12/10/2020 9:15:00 AM 3.53 38.354 0.369 7.48 2.33 13.27
12/10/2020 9:30:00 AM 3.57 38.426 0.369 7.47 3.58 13.33
12/10/2020 9:45:00 AM 3.63 38.534 0.369 7.48 2.13 13.39
12/10/2020 10:00:00 AM 3.72 38.696 0.369 7.5 2.62 13.49
12/10/2020 10:15:00 AM 3.75 38.75 0.369 7.5 2.44 13.56
12/10/2020 10:30:00 AM 3.84 38.912 0.369 7.52 2.85 13.61
12/10/2020 10:45:00 AM 3.91 39.038 0.369 7.54 2.4 13.69
12/10/2020 11:00:00 AM 3.92 39.056 0.369 7.54 2.64 13.7
12/10/2020 11:15:00 AM 4.03 39.254 0.369 7.55 2.46 13.72
12/10/2020 11:30:00 AM 4.13 39.434 0.369 7.56 2.06 13.75
12/10/2020 11:45:00 AM 4.26 39.668 0.369 7.57 2.54 13.77
12/10/2020 12:00:00 PM 4.42 39.956 0.369 7.58 3.48 13.8
12/10/2020 12:15:00 PM 4.59 40.262 0.369 7.61 2.69 13.81
12/10/2020 12:30:00 PM 4.76 40.568 0.369 7.63 2.52 13.84
12/10/2020 12:45:00 PM 4.91 40.838 0.368 7.62 2.74 13.85
12/10/2020 1:00:00 PM 5.02 41.036 0.369 7.64 2.42 13.85
12/10/2020 1:15:00 PM 5.11 41.198 0.368 7.64 2.62 13.86
12/10/2020 1:30:00 PM 5.15 41.27 0.369 7.63 2.34 13.83
12/10/2020 1:45:00 PM 5.17 41.306 0.369 7.63 2.53 13.83
12/10/2020 2:00:00 PM 5.21 41.378 0.369 7.63 3.94 13.79
12/10/2020 2:15:00 PM 5.19 41.342 0.369 7.63 2.83 13.78
12/10/2020 2:30:00 PM 5.14 41.252 0.369 7.63 2.44 13.77
12/10/2020 2:45:00 PM 5.11 41.198 0.369 7.62 2.53 13.72
12/10/2020 3:00:00 PM 4.99 40.982 0.369 7.62 1.9 13.68
12/10/2020 3:15:00 PM 4.9 40.82 0.369 7.62 2.51 13.65
12/10/2020 3:30:00 PM 4.76 40.568 0.37 7.62 2.41 13.59
12/10/2020 3:45:00 PM 4.66 40.388 0.37 7.62 2.42 13.55
12/10/2020 4:00:00 PM 4.56 40.208 0.37 7.6 2.1 13.47
12/10/2020 4:15:00 PM 4.48 40.064 0.37 7.59 2.38 13.41
12/10/2020 4:30:00 PM 4.4 39.92 0.371 7.59 2.01 13.32
12/10/2020 4:45:00 PM 4.31 39.758 0.371 7.58 2.61 13.24
12/10/2020 5:00:00 PM 4.23 39.614 0.371 7.57 2.64 13.16
12/10/2020 5:15:00 PM 4.16 39.488 0.372 7.56 2.23 13.05
12/10/2020 5:30:00 PM 4.12 39.416 0.372 7.56 2.45 12.96
12/10/2020 5:45:00 PM 4.06 39.308 0.372 7.54 2.34 12.9
12/10/2020 6:00:00 PM 4.02 39.236 0.372 7.53 2.76 12.83
12/10/2020 6:15:00 PM 3.98 39.164 0.372 7.52 3.01 12.77
12/10/2020 6:30:00 PM 3.95 39.11 0.373 7.51 2.25 12.72
12/10/2020 6:45:00 PM 3.92 39.056 0.373 7.51 2.39 12.7
12/10/2020 7:00:00 PM 3.89 39.002 0.373 7.5 2.52 12.66
12/10/2020 7:15:00 PM 3.88 38.984 0.373 7.5 3.32 12.66
12/10/2020 7:30:00 PM 3.85 38.93 0.373 7.51 3 12.64
12/10/2020 7:45:00 PM 3.83 38.894 0.373 7.5 2.53 12.65
12/10/2020 8:00:00 PM 3.81 38.858 0.373 7.5 3.47 12.65
12/10/2020 8:15:00 PM 3.79 38.822 0.373 7.5 2.6 12.65
12/10/2020 8:30:00 PM 3.78 38.804 0.374 7.5 2.98 12.66
12/10/2020 8:45:00 PM 3.75 38.75 0.374 7.49 2.55 12.66
12/10/2020 9:00:00 PM 3.74 38.732 0.374 7.49 2.78 12.66
12/10/2020 9:15:00 PM 3.73 38.714 0.374 7.49 2.99 12.66
12/10/2020 9:30:00 PM 3.71 38.678 0.374 7.5 2.72 12.65
12/10/2020 9:45:00 PM 3.7 38.66 0.375 7.49 2.26 12.67
12/10/2020 10:00:00 PM 3.68 38.624 0.375 7.49 2.59 12.66
12/10/2020 10:15:00 PM 3.67 38.606 0.375 7.49 2.72 12.66
12/10/2020 10:30:00 PM 3.66 38.588 0.375 7.45 3.02 12.65
12/10/2020 10:45:00 PM 3.65 38.57 0.375 7.45 2.7 12.65
12/10/2020 11:00:00 PM 3.63 38.534 0.375 7.46 2.04 12.67
12/10/2020 11:15:00 PM 3.62 38.516 0.376 7.45 2.59 12.67
12/10/2020 11:30:00 PM 3.61 38.498 0.376 7.48 2.74 12.67
12/10/2020 11:45:00 PM 3.61 38.498 0.376 7.44 2.67 12.68
12/11/2020 12:00:00 AM 3.6 38.48 0.376 7.43 2.11 12.69
12/11/2020 12:15:00 AM 3.6 38.48 0.376 7.44 3.2 12.7
12/11/2020 12:30:00 AM 3.6 38.48 0.376 7.48 2.74 12.7
12/11/2020 12:45:00 AM 3.6 38.48 0.376 7.45 3.56 12.71
12/11/2020 1:00:00 AM 3.59 38.462 0.376 7.43 2.56 12.72
12/11/2020 1:15:00 AM 3.58 38.444 0.376 7.44 2.51 12.72
12/11/2020 1:30:00 AM 3.58 38.444 0.377 7.44 2.41 12.73
12/11/2020 1:45:00 AM 3.58 38.444 0.377 7.44 3.13 12.73
12/11/2020 2:00:00 AM 3.6 38.48 0.377 7.44 2.37 12.73
12/11/2020 2:15:00 AM 3.6 38.48 0.377 7.44 2.33 12.73
12/11/2020 2:30:00 AM 3.61 38.498 0.377 7.45 2.53 12.75
12/11/2020 2:45:00 AM 3.62 38.516 0.377 7.44 2.57 12.74
12/11/2020 3:00:00 AM 3.64 38.552 0.377 7.45 2.94 12.77
12/11/2020 3:15:00 AM 3.66 38.588 0.377 7.45 2.15 12.77
12/11/2020 3:30:00 AM 3.67 38.606 0.377 7.45 2.7 12.77
12/11/2020 3:45:00 AM 3.68 38.624 0.377 7.46 2.94 12.76
12/11/2020 4:00:00 AM 3.71 38.678 0.377 7.47 2.21 12.78
12/11/2020 4:15:00 AM 3.73 38.714 0.377 7.47 2.77 12.78
12/11/2020 4:30:00 AM 3.74 38.732 0.377 7.47 1.95 12.78
12/11/2020 4:45:00 AM 3.76 38.768 0.377 7.47 2.25 12.78
12/11/2020 5:00:00 AM 3.77 38.786 0.377 7.47 2.35 12.79
12/11/2020 5:15:00 AM 3.78 38.804 0.377 7.47 2.58 12.79
12/11/2020 5:30:00 AM 3.8 38.84 0.377 7.47 2.65 12.78
12/11/2020 5:45:00 AM 3.79 38.822 0.378 7.48 2.84 12.79
12/11/2020 6:00:00 AM 3.79 38.822 0.378 7.48 2.52 12.81
12/11/2020 6:15:00 AM 3.78 38.804 0.377 7.48 2.4 12.81
12/11/2020 6:30:00 AM 3.78 38.804 0.378 7.48 2.4 12.81
12/11/2020 6:45:00 AM 3.78 38.804 0.373 7.48 2.2 12.81
12/11/2020 7:00:00 AM 3.77 38.786 0.378 7.47 2.08 12.82
12/11/2020 7:15:00 AM 3.74 38.732 0.378 7.47 2.35 12.81
12/11/2020 7:30:00 AM 3.74 38.732 0.378 7.48 2.16 12.83
12/11/2020 7:45:00 AM 3.74 38.732 0.378 7.48 2.05 12.86
12/11/2020 8:00:00 AM 3.74 38.732 0.378 7.53 2 12.86
12/11/2020 8:15:00 AM 3.74 38.732 0.378 7.52 2.06 12.89
12/11/2020 8:30:00 AM 3.74 38.732 0.379 7.47 2.26 12.91
12/11/2020 8:45:00 AM 3.76 38.768 0.379 7.48 2.19 12.95
12/11/2020 9:00:00 AM 3.79 38.822 0.379 7.5 1.95 13.01
12/11/2020 9:15:00 AM 3.84 38.912 0.379 7.55 2.28 13.08
12/11/2020 9:30:00 AM 3.89 39.002 0.379 7.54 1.97 13.15
12/11/2020 9:45:00 AM 3.94 39.092 0.379 7.55 2.17 13.23
12/11/2020 10:00:00 AM 4 39.2 0.379 7.53 1.76 13.32
12/11/2020 10:15:00 AM 4.06 39.308 0.378 7.53 2.45 13.41
12/11/2020 10:30:00 AM 4.15 39.47 0.378 7.55 2.01 13.49
12/11/2020 10:45:00 AM 4.24 39.632 0.378 7.56 2 13.56
12/11/2020 11:00:00 AM 4.38 39.884 0.378 7.59 2.48 13.61
12/11/2020 11:15:00 AM 4.5 40.1 0.378 7.6 2.1 13.66
12/11/2020 11:30:00 AM 4.65 40.37 0.378 7.61 2.3 13.7
12/11/2020 11:45:00 AM 4.81 40.658 0.378 7.63 2.37 13.76
12/11/2020 12:00:00 PM 4.95 40.91 0.378 7.67 2.16 13.79
12/11/2020 12:15:00 PM 5.07 41.126 0.378 7.67 2.39 13.81
12/11/2020 12:30:00 PM 5.21 41.378 0.378 7.67 2.17 13.83
12/11/2020 12:45:00 PM 5.28 41.504 0.378 7.67 2.36 13.83
12/11/2020 1:00:00 PM 5.37 41.666 0.378 7.64 2.17 13.84
12/11/2020 1:15:00 PM 5.42 41.756 0.378 7.67 2.42 13.82
12/11/2020 1:30:00 PM 5.47 41.846 0.378 7.66 2.51 13.82
12/11/2020 1:45:00 PM 5.43 41.774 0.378 7.64 2.11 13.8
12/11/2020 2:00:00 PM 5.4 41.72 0.379 7.65 2.38 13.81
12/11/2020 2:15:00 PM 5.33 41.594 0.379 7.64 2.5 13.78
12/11/2020 2:30:00 PM 5.3 41.54 0.379 7.64 2.4 13.75
12/11/2020 2:45:00 PM 5.25 41.45 0.379 7.64 2.43 13.73
12/11/2020 3:00:00 PM 5.19 41.342 0.379 7.64 2.39 13.71
12/11/2020 3:15:00 PM 5.1 41.18 0.38 7.63 2.27 13.67
12/11/2020 3:30:00 PM 5.05 41.09 0.38 7.63 2.12 13.62
12/11/2020 3:45:00 PM 4.93 40.874 0.38 7.62 2.36 13.57
12/11/2020 4:00:00 PM 4.83 40.694 0.381 7.61 2.48 13.49
12/11/2020 4:15:00 PM 4.75 40.55 0.381 7.61 2.64 13.43
12/11/2020 4:30:00 PM 4.67 40.406 0.381 7.6 2.08 13.32
12/11/2020 4:45:00 PM 4.56 40.208 0.382 7.59 2.39 13.25
12/11/2020 5:00:00 PM 4.47 40.046 0.382 7.58 2.47 13.13
12/11/2020 5:15:00 PM 4.39 39.902 0.382 7.57 2.29 13.04
12/11/2020 5:30:00 PM 4.32 39.776 0.383 7.56 2.71 12.92
12/11/2020 5:45:00 PM 4.25 39.65 0.383 7.55 2.85 12.83
12/11/2020 6:00:00 PM 4.2 39.56 0.383 7.55 2.34 12.76
12/11/2020 6:15:00 PM 4.15 39.47 0.382 7.52 2.61 12.68
12/11/2020 6:30:00 PM 4.1 39.38 0.384 7.52 3.95 12.64
12/11/2020 6:45:00 PM 4.06 39.308 0.384 7.51 2.66 12.6
12/11/2020 7:00:00 PM 4.03 39.254 0.384 7.51 2.93 12.59
12/11/2020 7:15:00 PM 3.99 39.182 0.384 7.49 2.75 12.56
12/11/2020 7:30:00 PM 3.97 39.146 0.384 7.48 2.38 12.55
12/11/2020 7:45:00 PM 3.94 39.092 0.384 7.48 3.01 12.57
12/11/2020 8:00:00 PM 3.92 39.056 0.385 7.49 2.38 12.56
12/11/2020 8:15:00 PM 3.89 39.002 0.385 7.48 2.39 12.56
12/11/2020 8:30:00 PM 3.87 38.966 0.385 7.47 2.55 12.55
12/11/2020 8:45:00 PM 3.86 38.948 0.385 7.47 2.65 12.56
12/11/2020 9:00:00 PM 3.84 38.912 0.385 7.46 2.09 12.56
12/11/2020 9:15:00 PM 3.82 38.876 0.385 7.46 2.48 12.56
12/11/2020 9:30:00 PM 3.8 38.84 0.385 7.47 2.21 12.57
12/11/2020 9:45:00 PM 3.78 38.804 0.385 7.45 2.68 12.58
12/11/2020 10:00:00 PM 3.76 38.768 0.386 7.45 2.51 12.57
12/11/2020 10:15:00 PM 3.74 38.732 0.386 7.45 2.26 12.59
12/11/2020 10:30:00 PM 3.72 38.696 0.386 7.45 4.51 12.58
12/11/2020 10:45:00 PM 3.7 38.66 0.386 7.45 2.49 12.59
12/11/2020 11:00:00 PM 3.68 38.624 0.386 7.44 2.29 12.6
12/11/2020 11:15:00 PM 3.65 38.57 0.386 7.44 2.1 12.61
12/11/2020 11:30:00 PM 3.63 38.534 0.386 7.44 2.48 12.6
12/11/2020 11:45:00 PM 3.62 38.516 0.386 7.44 2 12.6
12/12/2020 12:00:00 AM 3.6 38.48 0.387 7.44 2.42 12.6
12/12/2020 12:15:00 AM 3.6 38.48 0.387 7.44 2.54 12.61
12/12/2020 12:30:00 AM 3.58 38.444 0.387 7.45 2.29 12.61
12/12/2020 12:45:00 AM 3.57 38.426 0.387 7.45 2.4 12.62
12/12/2020 1:00:00 AM 3.57 38.426 0.381 7.45 2.71 12.62
12/12/2020 1:15:00 AM 3.56 38.408 0.387 7.45 2.27 12.64
12/12/2020 1:30:00 AM 3.56 38.408 0.387 7.45 2.11 12.64
12/12/2020 1:45:00 AM 3.56 38.408 0.387 7.45 2.07 12.64
12/12/2020 2:00:00 AM 3.56 38.408 0.388 7.45 2.92 12.65
12/12/2020 2:15:00 AM 3.57 38.426 0.388 7.45 2.47 12.65
12/12/2020 2:30:00 AM 3.59 38.462 0.388 7.45 8.82 12.65
12/12/2020 2:45:00 AM 3.61 38.498 0.388 7.46 4.03 12.66
12/12/2020 3:00:00 AM 3.62 38.516 0.388 7.45 3.53 12.67
12/12/2020 3:15:00 AM 3.64 38.552 0.388 7.45 4.05 12.66
12/12/2020 3:30:00 AM 3.66 38.588 0.388 7.46 3.69 12.67
12/12/2020 3:45:00 AM 3.67 38.606 0.388 7.45 3.57 12.67
12/12/2020 4:00:00 AM 3.69 38.642 0.388 7.46 3.29 12.68
12/12/2020 4:15:00 AM 3.71 38.678 0.388 7.46 2.49 12.69
12/12/2020 4:30:00 AM 3.72 38.696 0.388 7.46 2.46 12.67
12/12/2020 4:45:00 AM 3.72 38.696 0.389 7.47 2.65 12.68
12/12/2020 5:00:00 AM 3.73 38.714 0.389 7.42 3.08 12.7
12/12/2020 5:15:00 AM 3.75 38.75 0.389 7.43 4.55 12.71
12/12/2020 5:30:00 AM 3.75 38.75 0.389 7.47 2.57 12.71
12/12/2020 5:45:00 AM 3.76 38.768 0.389 7.48 3.63 12.71
12/12/2020 6:00:00 AM 3.78 38.804 0.389 7.49 2.55 12.71
12/12/2020 6:15:00 AM 3.78 38.804 0.389 7.47 2.56 12.72
12/12/2020 6:30:00 AM 3.8 38.84 0.389 7.47 2.3 12.71
12/12/2020 6:45:00 AM 3.83 38.894 0.389 7.49 2.5 12.74
12/12/2020 7:00:00 AM 3.85 38.93 0.389 7.48 2.76 12.7
12/12/2020 7:15:00 AM 3.87 38.966 0.389 7.49 2.86 12.72
12/12/2020 7:30:00 AM 3.9 39.02 0.389 7.49 2.55 12.7
12/12/2020 7:45:00 AM 3.93 39.074 0.389 7.49 3.83 12.73
12/12/2020 8:00:00 AM 3.97 39.146 0.389 7.49 2.75 12.74
12/12/2020 8:15:00 AM 4.02 39.236 0.389 7.48 2.26 12.76
12/12/2020 8:30:00 AM 4.05 39.29 0.389 7.49 3.11 12.77
12/12/2020 8:45:00 AM 4.1 39.38 0.389 7.49 2.36 12.83
12/12/2020 9:00:00 AM 4.17 39.506 0.389 7.5 2.58 12.87
12/12/2020 9:15:00 AM 4.23 39.614 0.389 7.51 2.31 12.94
12/12/2020 9:30:00 AM 4.29 39.722 0.389 7.52 2.59 13.01
12/12/2020 9:45:00 AM 4.36 39.848 0.389 7.53 1.86 13.1
12/12/2020 10:00:00 AM 4.4 39.92 0.389 7.54 2.18 13.15
12/12/2020 10:15:00 AM 4.46 40.028 0.389 7.55 2.17 13.21
12/12/2020 10:30:00 AM 4.52 40.136 0.389 7.55 2.1 13.29
12/12/2020 10:45:00 AM 4.56 40.208 0.389 7.57 1.95 13.32
12/12/2020 11:00:00 AM 4.6 40.28 0.389 7.58 2.24 13.33
12/12/2020 11:15:00 AM 4.65 40.37 0.388 7.58 2.49 13.39
12/12/2020 11:30:00 AM 4.69 40.442 0.389 7.6 2.14 13.41
12/12/2020 11:45:00 AM 4.73 40.514 0.389 7.6 1.79 13.45
12/12/2020 12:00:00 PM 4.76 40.568 0.389 7.6 2.7 13.43
12/12/2020 12:15:00 PM 4.78 40.604 0.389 7.61 1.79 13.48
12/12/2020 12:30:00 PM 4.83 40.694 0.389 7.62 1.69 13.51
12/12/2020 12:45:00 PM 4.85 40.73 0.389 7.63 1.89 13.54
12/12/2020 1:00:00 PM 4.87 40.766 0.389 7.62 2.07 13.54
12/12/2020 1:15:00 PM 4.88 40.784 0.389 7.63 1.84 13.55
12/12/2020 1:30:00 PM 4.92 40.856 0.389 7.63 1.83 13.53
12/12/2020 1:45:00 PM 4.96 40.928 0.389 7.64 1.75 13.51
12/12/2020 2:00:00 PM 4.96 40.928 0.389 7.64 1.86 13.52
12/12/2020 2:15:00 PM 4.98 40.964 0.389 7.64 2.02 13.54
12/12/2020 2:30:00 PM 5.01 41.018 0.389 7.64 1.94 13.53
12/12/2020 2:45:00 PM 5.02 41.036 0.389 7.64 1.71 13.52
12/12/2020 3:00:00 PM 5.05 41.09 0.389 7.6 2.05 13.52
12/12/2020 3:15:00 PM 5.08 41.144 0.389 7.64 2.18 13.56
12/12/2020 3:30:00 PM 5.08 41.144 0.389 7.64 1.78 13.57
12/12/2020 3:45:00 PM 5.04 41.072 0.39 7.64 2.08 13.53
12/12/2020 4:00:00 PM 5 41 0.39 7.64 1.88 13.5
12/12/2020 4:15:00 PM 4.95 40.91 0.39 7.65 2.14 13.42
12/12/2020 4:30:00 PM 4.89 40.802 0.39 7.65 2.37 13.36
12/12/2020 4:45:00 PM 4.8 40.64 0.39 7.63 2.51 13.29
12/12/2020 5:00:00 PM 4.74 40.532 0.391 7.63 1.72 13.18
12/12/2020 5:15:00 PM 4.67 40.406 0.391 7.62 1.87 13.05
12/12/2020 5:30:00 PM 4.62 40.316 0.392 7.61 2.51 12.93
12/12/2020 5:45:00 PM 4.57 40.226 0.392 7.58 2.32 12.8
12/12/2020 6:00:00 PM 4.52 40.136 0.392 7.57 2.35 12.71
12/12/2020 6:15:00 PM 4.5 40.1 0.392 7.56 2.16 12.62
12/12/2020 6:30:00 PM 4.46 40.028 0.393 7.54 1.89 12.55
12/12/2020 6:45:00 PM 4.45 40.01 0.393 7.54 2.28 12.49
12/12/2020 7:00:00 PM 4.44 39.992 0.393 7.53 2.17 12.45
12/12/2020 7:15:00 PM 4.43 39.974 0.393 7.52 1.86 12.43
12/12/2020 7:30:00 PM 4.43 39.974 0.393 7.52 2.21 12.41
12/12/2020 7:45:00 PM 4.42 39.956 0.393 7.51 2.28 12.38
12/12/2020 8:00:00 PM 4.41 39.938 0.394 7.51 2.65 12.38
12/12/2020 8:15:00 PM 4.42 39.956 0.394 7.5 2.9 12.37
12/12/2020 8:30:00 PM 4.41 39.938 0.394 7.49 2.15 12.36
12/12/2020 8:45:00 PM 4.41 39.938 0.394 7.48 2.27 12.37
12/12/2020 9:00:00 PM 4.4 39.92 0.394 7.48 1.97 12.36
12/12/2020 9:15:00 PM 4.39 39.902 0.394 7.49 4.09 12.36
12/12/2020 9:30:00 PM 4.39 39.902 0.394 7.49 2.49 12.34
12/12/2020 9:45:00 PM 4.37 39.866 0.394 7.48 2.14 12.36
12/12/2020 10:00:00 PM 4.35 39.83 0.394 7.47 2.04 12.35
12/12/2020 10:15:00 PM 4.35 39.83 0.394 7.48 2.09 12.35
12/12/2020 10:30:00 PM 4.32 39.776 0.395 7.48 2 12.35
12/12/2020 10:45:00 PM 4.31 39.758 0.395 7.47 2.33 12.35
12/12/2020 11:00:00 PM 4.31 39.758 0.395 7.47 2.04 12.35
12/12/2020 11:15:00 PM 4.32 39.776 0.395 7.48 4.35 12.34
12/12/2020 11:30:00 PM 4.31 39.758 0.368 7.44 2.33 12.34
12/12/2020 11:45:00 PM 4.32 39.776 0.395 7.47 2.2 12.35
12/13/2020 12:00:00 AM 4.32 39.776 0.395 7.47 2.08 12.36
12/13/2020 12:15:00 AM 4.32 39.776 0.395 7.47 2.31 12.36
12/13/2020 12:30:00 AM 4.33 39.794 0.395 7.47 3 12.36
12/13/2020 12:45:00 AM 4.33 39.794 0.395 7.47 2.59 12.35
12/13/2020 1:00:00 AM 4.35 39.83 0.395 7.46 2.23 12.35
12/13/2020 1:15:00 AM 4.36 39.848 0.396 7.46 2.03 12.34
12/13/2020 1:30:00 AM 4.37 39.866 0.396 7.46 2.35 12.35
12/13/2020 1:45:00 AM 4.37 39.866 0.396 7.46 5.15 12.35
12/13/2020 2:00:00 AM 4.38 39.884 0.396 7.45 3.11 12.34
12/13/2020 2:15:00 AM 4.39 39.902 0.396 7.47 4.03 12.34
12/13/2020 2:30:00 AM 4.4 39.92 0.396 7.47 2.03 12.34
12/13/2020 2:45:00 AM 4.41 39.938 0.396 7.46 3.17 12.34
12/13/2020 3:00:00 AM 4.43 39.974 0.396 7.46 1.56 12.33
12/13/2020 3:15:00 AM 4.43 39.974 0.396 7.46 1.96 12.35
12/13/2020 3:30:00 AM 4.44 39.992 0.396 7.46 1.91 12.35
12/13/2020 3:45:00 AM 4.45 40.01 0.396 7.47 2.73 12.35
12/13/2020 4:00:00 AM 4.46 40.028 0.397 7.47 2.1 12.36
12/13/2020 4:15:00 AM 4.47 40.046 0.397 7.47 1.97 12.36
12/13/2020 4:30:00 AM 4.48 40.064 0.397 7.47 1.95 12.37
12/13/2020 4:45:00 AM 4.49 40.082 0.397 7.47 2.35 12.35
12/13/2020 5:00:00 AM 4.49 40.082 0.396 7.47 3.15 12.36
12/13/2020 5:15:00 AM 4.5 40.1 0.396 7.48 2.28 12.35
12/13/2020 5:30:00 AM 4.51 40.118 0.396 7.48 1.56 12.36
12/13/2020 5:45:00 AM 4.52 40.136 0.397 7.48 2.37 12.36
12/13/2020 6:00:00 AM 4.53 40.154 0.397 7.49 3.85 12.37
12/13/2020 6:15:00 AM 4.54 40.172 0.397 7.48 2.72 12.37
12/13/2020 6:30:00 AM 4.54 40.172 0.397 7.49 2.51 12.37
12/13/2020 6:45:00 AM 4.55 40.19 0.397 7.48 1.95 12.35
12/13/2020 7:00:00 AM 4.54 40.172 0.388 7.49 1.65 12.37
12/13/2020 7:15:00 AM 4.53 40.154 0.395 7.49 1.68 12.38
12/13/2020 7:30:00 AM 4.53 40.154 0.398 7.49 2.12 12.4
12/13/2020 7:45:00 AM 4.53 40.154 0.398 7.49 1.64 12.4
12/13/2020 8:00:00 AM 4.51 40.118 0.398 7.49 1.73 12.41
12/13/2020 8:15:00 AM 4.52 40.136 0.398 7.5 1.98 12.44
12/13/2020 8:30:00 AM 4.53 40.154 0.398 7.5 1.69 12.52
12/13/2020 8:45:00 AM 4.55 40.19 0.398 7.51 1.55 12.56
12/13/2020 9:00:00 AM 4.6 40.28 0.397 7.52 1.75 12.64
12/13/2020 9:15:00 AM 4.68 40.424 0.396 7.53 1.67 12.75
12/13/2020 9:30:00 AM 4.77 40.586 0.357 7.54 1.99 12.91
12/13/2020 9:45:00 AM 4.83 40.694 0.374 7.55 1.62 12.98
12/13/2020 10:00:00 AM 4.93 40.874 0.397 7.56 1.87 13.11
12/13/2020 10:15:00 AM 5.01 41.018 0.397 7.58 2.02 13.24
12/13/2020 10:30:00 AM 5.1 41.18 0.397 7.59 1.98 13.33
12/13/2020 10:45:00 AM 5.23 41.414 0.392 7.59 2.12 13.41
12/13/2020 11:00:00 AM 5.32 41.576 0.393 7.59 2.01 13.49
12/13/2020 11:15:00 AM 5.42 41.756 0.388 7.63 2.54 13.54
12/13/2020 11:30:00 AM 5.51 41.918 0.39 7.63 1.74 13.61
12/13/2020 11:45:00 AM 5.63 42.134 0.396 7.65 1.76 13.66
12/13/2020 12:00:00 PM 5.74 42.332 0.37 7.65 1.79 13.67
12/13/2020 12:15:00 PM 5.8 42.44 0.396 7.66 1.82 13.73
12/13/2020 12:30:00 PM 5.87 42.566 0.396 7.68 1.82 13.71
12/13/2020 12:45:00 PM 5.94 42.692 0.345 7.69 1.86 13.75
12/13/2020 1:00:00 PM 5.96 42.728 0.335 7.67 2.19 13.74
12/13/2020 1:15:00 PM 5.94 42.692 0.361 7.68 2.32 13.74
12/13/2020 1:30:00 PM 5.92 42.656 0.38 7.68 1.94 13.72
12/13/2020 1:45:00 PM 5.91 42.638 0.395 7.7 2.21 13.7
12/13/2020 2:00:00 PM 5.89 42.602 0.395 7.7 1.83 13.68
12/13/2020 2:15:00 PM 5.88 42.584 0.395 7.7 1.93 13.63
12/13/2020 2:30:00 PM 5.88 42.584 0.395 7.68 2.19 13.58
12/13/2020 2:45:00 PM 5.84 42.512 0.395 7.69 2.14 13.55
12/13/2020 3:00:00 PM 5.81 42.458 0.395 7.68 2.1 13.46
12/13/2020 3:15:00 PM 5.78 42.404 0.396 7.66 1.85 13.41
12/13/2020 3:30:00 PM 5.75 42.35 0.394 7.67 2.39 13.33
12/13/2020 3:45:00 PM 5.72 42.296 0.393 7.66 2.29 13.25
12/13/2020 4:00:00 PM 5.7 42.26 0.395 7.65 2.47 13.18
12/13/2020 4:15:00 PM 5.66 42.188 0.394 7.65 2.22 13.05
12/13/2020 4:30:00 PM 5.63 42.134 0.397 7.64 2.41 12.93
12/13/2020 4:45:00 PM 5.6 42.08 0.399 7.64 2.2 12.85
12/13/2020 5:00:00 PM 5.55 41.99 0.398 7.62 2.27 12.72
12/13/2020 5:15:00 PM 5.5 41.9 0.399 7.61 2.41 12.61
12/13/2020 5:30:00 PM 5.45 41.81 0.4 7.6 2.23 12.5
12/13/2020 5:45:00 PM 5.4 41.72 0.4 7.59 2.53 12.41
12/13/2020 6:00:00 PM 5.35 41.63 0.4 7.58 2.58 12.31
12/13/2020 6:15:00 PM 5.3 41.54 0.401 7.57 3.18 12.25
12/13/2020 6:30:00 PM 5.26 41.468 0.401 7.55 2.33 12.18
12/13/2020 6:45:00 PM 5.22 41.396 0.401 7.55 2.52 12.15
12/13/2020 7:00:00 PM 5.19 41.342 0.401 7.54 2.39 12.08
12/13/2020 7:15:00 PM 5.17 41.306 0.401 7.53 2.36 12.09
12/13/2020 7:30:00 PM 5.15 41.27 0.401 7.53 3.13 12.06
12/13/2020 7:45:00 PM 5.14 41.252 0.401 7.54 2.5 12.05
12/13/2020 8:00:00 PM 5.13 41.234 0.401 7.55 2.13 12.02
12/13/2020 8:15:00 PM 5.12 41.216 0.402 7.55 2.58 12.04
12/13/2020 8:30:00 PM 5.12 41.216 0.402 7.56 2.85 12.02
12/13/2020 8:45:00 PM 5.12 41.216 0.402 7.56 3.09 12.02
12/13/2020 9:00:00 PM 5.09 41.162 0.402 7.57 2.86 12.02
12/13/2020 9:15:00 PM 5.08 41.144 0.403 7.56 2.79 12.02
12/13/2020 9:30:00 PM 5.06 41.108 0.403 7.54 3.05 12
12/13/2020 9:45:00 PM 5.06 41.108 0.403 7.54 3.17 12.01
12/13/2020 10:00:00 PM 5.04 41.072 0.403 7.53 3.35 11.99
12/13/2020 10:15:00 PM 5.02 41.036 0.403 7.52 2.64 12
12/13/2020 10:30:00 PM 5 41 0.403 7.52 3.07 12
12/13/2020 10:45:00 PM 5 41 0.403 7.52 2.51 12
12/13/2020 11:00:00 PM 5 41 0.403 7.52 2.46 12
12/13/2020 11:15:00 PM 4.98 40.964 0.403 7.52 3.87 11.99
12/13/2020 11:30:00 PM 4.97 40.946 0.404 7.51 2.87 11.99
12/13/2020 11:45:00 PM 4.97 40.946 0.404 7.5 2.41 11.98
12/14/2020 12:00:00 AM 4.98 40.964 0.404 7.5 2.86 11.98
12/14/2020 12:15:00 AM 4.98 40.964 0.404 7.5 2.75 11.98
12/14/2020 12:30:00 AM 5 41 0.404 7.5 3.1 11.98
12/14/2020 12:45:00 AM 5.01 41.018 0.404 7.5 2.72 11.98
12/14/2020 1:00:00 AM 5.03 41.054 0.404 7.5 3.13 11.98
12/14/2020 1:15:00 AM 5.05 41.09 0.405 7.5 3.01 11.96
12/14/2020 1:30:00 AM 5.1 41.18 0.405 7.49 2.85 11.97
12/14/2020 1:45:00 AM 5.1 41.18 0.405 7.5 5.32 11.97
12/14/2020 2:00:00 AM 5.11 41.198 0.405 7.49 4.23 11.96
12/14/2020 2:15:00 AM 5.12 41.216 0.405 7.49 2.62 11.96
12/14/2020 2:30:00 AM 5.14 41.252 0.406 7.49 3.41 11.97
12/14/2020 2:45:00 AM 5.15 41.27 0.406 7.49 3.45 11.94
12/14/2020 3:00:00 AM 5.16 41.288 0.406 7.48 3.55 11.97
12/14/2020 3:15:00 AM 5.17 41.306 0.406 7.48 3.72 11.96
12/14/2020 3:30:00 AM 5.18 41.324 0.406 7.48 3.07 11.95
12/14/2020 3:45:00 AM 5.19 41.342 0.406 7.48 2.95 11.97
12/14/2020 4:00:00 AM 5.19 41.342 0.407 7.48 5.51 11.96
12/14/2020 4:15:00 AM 5.22 41.396 0.407 7.48 2.98 11.97
12/14/2020 4:30:00 AM 5.23 41.414 0.407 7.49 2.6 11.97
12/14/2020 4:45:00 AM 5.25 41.45 0.407 7.49 2.98 11.97
12/14/2020 5:00:00 AM 5.26 41.468 0.406 7.49 2.94 11.99
12/14/2020 5:15:00 AM 5.27 41.486 0.405 7.49 2.98 11.99
12/14/2020 5:30:00 AM 5.27 41.486 0.405 7.5 2.48 12.01
12/14/2020 5:45:00 AM 5.3 41.54 0.404 7.5 2.67 12.01
12/14/2020 6:00:00 AM 5.31 41.558 0.403 7.51 2.65 12.01
12/14/2020 6:15:00 AM 5.31 41.558 0.397 7.51 2.33 12.03
12/14/2020 6:30:00 AM 5.34 41.612 0.402 7.52 2.89 12.02
12/14/2020 6:45:00 AM 5.35 41.63 0.402 7.52 2.61 12.02
12/14/2020 7:00:00 AM 5.36 41.648 0.401 7.52 2.94 12.02
12/14/2020 7:15:00 AM 5.37 41.666 0.401 7.53 2.84 12.03
12/14/2020 7:30:00 AM 5.39 41.702 0.402 7.53 2.67 12.04
12/14/2020 7:45:00 AM 5.39 41.702 0.401 7.53 2.28 12.05
12/14/2020 8:00:00 AM 5.38 41.684 0.401 7.53 2.74 12.06
12/14/2020 8:15:00 AM 5.38 41.684 0.401 7.54 2.16 12.06
12/14/2020 8:30:00 AM 5.36 41.648 0.401 7.54 2.16 12.08
12/14/2020 8:45:00 AM 5.34 41.612 0.402 7.55 2.61 12.1
12/14/2020 9:00:00 AM 5.33 41.594 0.402 7.53 2.28 12.12
12/14/2020 9:15:00 AM 5.31 41.558 0.405 7.54 2.65 12.14
12/14/2020 9:30:00 AM 5.28 41.504 0.404 7.53 2.44 12.17
12/14/2020 9:45:00 AM 5.23 41.414 0.404 7.55 2.61 12.21
12/14/2020 10:00:00 AM 5.16 41.288 0.404 7.55 2.56 12.22
12/14/2020 10:15:00 AM 5.09 41.162 0.401 7.56 2.55 12.26
12/14/2020 10:30:00 AM 5.07 41.126 0.403 7.56 3.08 12.3
12/14/2020 10:45:00 AM 5.06 41.108 0.404 7.58 3.03 12.35
12/14/2020 11:00:00 AM 5.05 41.09 0.403 7.57 2.4 12.38
12/14/2020 11:15:00 AM 5.04 41.072 0.403 7.58 2.6 12.44
12/14/2020 11:30:00 AM 5.05 41.09 0.404 7.58 2.19 12.47
12/14/2020 11:45:00 AM 5.07 41.126 0.402 7.59 2.48 12.54
12/14/2020 12:00:00 PM 5.1 41.18 0.402 7.59 3.02 12.57
12/14/2020 12:15:00 PM 5.15 41.27 0.403 7.61 2.28 12.62
12/14/2020 12:30:00 PM 5.19 41.342 0.403 7.61 2.75 12.66
12/14/2020 12:45:00 PM 5.21 41.378 0.404 7.61 2.6 12.68
12/14/2020 1:00:00 PM 5.25 41.45 0.404 7.62 3.28 12.73
12/14/2020 1:15:00 PM 5.29 41.522 0.404 7.62 2.61 12.78
12/14/2020 1:30:00 PM 5.33 41.594 0.405 7.63 2.48 12.81
12/14/2020 1:45:00 PM 5.36 41.648 0.405 7.63 2.42 12.85
12/14/2020 2:00:00 PM 5.39 41.702 0.405 7.63 2.66 12.87
12/14/2020 2:15:00 PM 5.41 41.738 0.407 7.63 2.5 12.89
12/14/2020 2:30:00 PM 5.4 41.72 0.407 7.63 2.36 12.9
12/14/2020 2:45:00 PM 5.4 41.72 0.408 7.63 2.46 12.91
12/14/2020 3:00:00 PM 5.44 41.792 0.408 7.65 2.66 12.95
12/14/2020 3:15:00 PM 5.43 41.774 0.408 7.64 2.62 12.94
12/14/2020 3:30:00 PM 5.4 41.72 0.408 7.64 2.44 12.89
12/14/2020 3:45:00 PM 5.35 41.63 0.408 7.63 2.49 12.83
12/14/2020 4:00:00 PM 5.32 41.576 0.409 7.63 2.56 12.79
12/14/2020 4:15:00 PM 5.26 41.468 0.405 7.62 2.54 12.76
12/14/2020 4:30:00 PM 5.2 41.36 0.406 7.6 2.97 12.72
12/14/2020 4:45:00 PM 5.17 41.306 0.405 7.61 2.45 12.66
12/14/2020 5:00:00 PM 5.11 41.198 0.406 7.6 2.46 12.55
12/14/2020 5:15:00 PM 5.07 41.126 0.406 7.6 2.15 12.46
12/14/2020 5:30:00 PM 5.04 41.072 0.407 7.57 2.73 12.36
12/14/2020 5:45:00 PM 4.99 40.982 0.402 7.58 7.26 12.29
12/14/2020 6:00:00 PM 4.95 40.91 0.407 7.57 2.49 12.21
12/14/2020 6:15:00 PM 4.91 40.838 0.407 7.55 3.72 12.13
12/14/2020 6:30:00 PM 4.88 40.784 0.407 7.54 3.27 12.09
12/14/2020 6:45:00 PM 4.85 40.73 0.408 7.54 2.96 12.04
12/14/2020 7:00:00 PM 4.83 40.694 0.408 7.54 2.73 12.03
12/14/2020 7:15:00 PM 4.81 40.658 0.408 7.52 3.39 12.02
12/14/2020 7:30:00 PM 4.76 40.568 0.409 7.51 2.42 12.01
12/14/2020 7:45:00 PM 4.7 40.46 0.409 7.51 2.57 12.03
12/14/2020 8:00:00 PM 4.65 40.37 0.408 7.51 2.47 12.04
12/14/2020 8:15:00 PM 4.61 40.298 0.408 7.51 2.73 12.03
12/14/2020 8:30:00 PM 4.57 40.226 0.408 7.51 2.83 12.04
12/14/2020 8:45:00 PM 4.52 40.136 0.408 7.5 2.69 12.04
12/14/2020 9:00:00 PM 4.46 40.028 0.408 7.5 4.32 12.05
12/14/2020 9:15:00 PM 4.42 39.956 0.408 7.5 3.3 12.07
12/14/2020 9:30:00 PM 4.38 39.884 0.408 7.5 2.82 12.1
12/14/2020 9:45:00 PM 4.34 39.812 0.408 7.5 3.42 12.12
12/14/2020 10:00:00 PM 4.31 39.758 0.408 7.48 3.5 12.12
12/14/2020 10:15:00 PM 4.29 39.722 0.405 7.48 2.73 12.14
12/14/2020 10:30:00 PM 4.26 39.668 0.408 7.46 3.15 12.14
12/14/2020 10:45:00 PM 4.23 39.614 0.407 7.47 3.26 12.15
12/14/2020 11:00:00 PM 4.21 39.578 0.407 7.47 2.85 12.18
12/14/2020 11:15:00 PM 4.19 39.542 0.407 7.47 3.3 12.18
12/14/2020 11:30:00 PM 4.19 39.542 0.407 7.46 3.18 12.19
12/14/2020 11:45:00 PM 4.16 39.488 0.407 7.46 2.97 12.19
12/15/2020 12:00:00 AM 4.13 39.434 0.407 7.47 2.93 12.19
12/15/2020 12:15:00 AM 4.11 39.398 0.406 7.47 3.41 12.24
12/15/2020 12:30:00 AM 4.1 39.38 0.406 7.47 3.48 12.25
12/15/2020 12:45:00 AM 4.09 39.362 0.405 7.47 2.64 12.25
12/15/2020 1:00:00 AM 4.07 39.326 0.405 7.47 3.54 12.27
12/15/2020 1:15:00 AM 4.06 39.308 0.405 7.47 4.29 12.28
12/15/2020 1:30:00 AM 4.04 39.272 0.405 7.46 3.63 12.28
12/15/2020 1:45:00 AM 4.03 39.254 0.405 7.46 3.7 12.31
12/15/2020 2:00:00 AM 4 39.2 0.405 7.46 4.75 12.32
12/15/2020 2:15:00 AM 3.99 39.182 0.405 7.47 3.16 12.34
12/15/2020 2:30:00 AM 3.97 39.146 0.405 7.46 4.26 12.34
12/15/2020 2:45:00 AM 3.95 39.11 0.405 7.48 3.84 12.36
12/15/2020 3:00:00 AM 3.92 39.056 0.406 7.48 4.38 12.37
12/15/2020 3:15:00 AM 3.91 39.038 0.409 7.47 3.44 12.39
12/15/2020 3:30:00 AM 3.88 38.984 0.405 7.48 3.17 12.4
12/15/2020 3:45:00 AM 3.87 38.966 0.397 7.48 5.12 12.42
12/15/2020 4:00:00 AM 3.85 38.93 0.399 7.48 3.24 12.44
12/15/2020 4:15:00 AM 3.83 38.894 0.405 7.48 3.61 12.47
12/15/2020 4:30:00 AM 3.8 38.84 0.408 7.48 3.36 12.48
12/15/2020 4:45:00 AM 3.79 38.822 0.41 7.49 2.79 12.48
12/15/2020 5:00:00 AM 3.76 38.768 0.404 7.49 2.86 12.5
12/15/2020 5:15:00 AM 3.75 38.75 0.407 7.49 2.91 12.5
12/15/2020 5:30:00 AM 3.73 38.714 0.409 7.49 2.36 12.54
12/15/2020 5:45:00 AM 3.73 38.714 0.408 7.49 2.2 12.53
12/15/2020 6:00:00 AM 3.72 38.696 0.408 7.48 3.76 12.55
12/15/2020 6:15:00 AM 3.72 38.696 0.407 7.49 3.48 12.56
12/15/2020 6:30:00 AM 3.71 38.678 0.407 7.5 3.25 12.57
12/15/2020 6:45:00 AM 3.68 38.624 0.407 7.5 3.32 12.59
12/15/2020 7:00:00 AM 3.67 38.606 0.41 7.5 3.17 12.59
12/15/2020 7:15:00 AM 3.66 38.588 0.409 7.49 2.41 12.62
12/15/2020 7:30:00 AM 3.65 38.57 0.406 7.5 2.64 12.62
12/15/2020 7:45:00 AM 3.64 38.552 0.405 7.5 2.43 12.64
12/15/2020 8:00:00 AM 3.64 38.552 0.404 7.51 2.93 12.66
12/15/2020 8:15:00 AM 3.65 38.57 0.404 7.5 3.56 12.68
12/15/2020 8:30:00 AM 3.65 38.57 0.404 7.52 2.41 12.73
12/15/2020 8:45:00 AM 3.67 38.606 0.404 7.49 2.95 12.77
12/15/2020 9:00:00 AM 3.7 38.66 0.403 7.5 2.95 12.87
12/15/2020 9:15:00 AM 3.74 38.732 0.404 7.52 7.43 12.95
12/15/2020 9:30:00 AM 3.77 38.786 0.403 7.52 2.49 13.05
12/15/2020 9:45:00 AM 3.79 38.822 0.404 7.52 2.13 13.14
12/15/2020 10:00:00 AM 3.8 38.84 0.404 7.54 2.46 13.23
12/15/2020 10:15:00 AM 3.82 38.876 0.403 7.55 2.5 13.33
12/15/2020 10:30:00 AM 3.85 38.93 0.403 7.56 2.69 13.38
12/15/2020 10:45:00 AM 3.9 39.02 0.403 7.56 8.91 13.42
12/15/2020 11:00:00 AM 3.96 39.128 0.403 7.57 2.31 13.49
12/15/2020 11:15:00 AM 4.02 39.236 0.403 7.58 2.66 13.51
12/15/2020 11:30:00 AM 4.1 39.38 0.404 7.59 2.58 13.52
12/15/2020 11:45:00 AM 4.17 39.506 0.403 7.6 2.24 13.57
12/15/2020 12:00:00 PM 4.26 39.668 0.403 7.61 2.61 13.58
12/15/2020 12:15:00 PM 4.33 39.794 0.403 7.61 2.35 13.59
12/15/2020 12:30:00 PM 4.39 39.902 0.403 7.6 2.99 13.59
12/15/2020 12:45:00 PM 4.4 39.92 0.403 7.59 2.42 13.58
12/15/2020 1:00:00 PM 4.42 39.956 0.403 7.59 2.88 13.59
12/15/2020 1:15:00 PM 4.43 39.974 0.403 7.58 2.78 13.57
12/15/2020 1:30:00 PM 4.42 39.956 0.403 7.55 2.29 13.58
12/15/2020 1:45:00 PM 4.39 39.902 0.403 7.56 2.79 13.57
12/15/2020 2:00:00 PM 4.38 39.884 0.403 7.58 2.37 13.56
12/15/2020 2:15:00 PM 4.32 39.776 0.403 7.58 2.45 13.57
12/15/2020 2:30:00 PM 4.31 39.758 0.403 7.56 2.42 13.56
12/15/2020 2:45:00 PM 4.22 39.596 0.404 7.57 2.85 13.56
12/15/2020 3:00:00 PM 4.15 39.47 0.404 7.56 2.28 13.55
12/15/2020 3:15:00 PM 4.09 39.362 0.404 7.56 2.5 13.53
12/15/2020 3:30:00 PM 4.02 39.236 0.403 7.56 2.37 13.51
12/15/2020 3:45:00 PM 3.94 39.092 0.403 7.55 2.81 13.48
12/15/2020 4:00:00 PM 3.87 38.966 0.403 7.56 2.53 13.44
12/15/2020 4:15:00 PM 3.82 38.876 0.403 7.54 2.51 13.4
12/15/2020 4:30:00 PM 3.76 38.768 0.402 7.54 2.15 13.33
12/15/2020 4:45:00 PM 3.7 38.66 0.402 7.54 2.03 13.26
12/15/2020 5:00:00 PM 3.65 38.57 0.402 7.54 2.43 13.18
12/15/2020 5:15:00 PM 3.6 38.48 0.401 7.53 3.43 13.1
12/15/2020 5:30:00 PM 3.56 38.408 0.401 7.54 2.76 13.06
12/15/2020 5:45:00 PM 3.52 38.336 0.401 7.53 2.27 12.99
12/15/2020 6:00:00 PM 3.49 38.282 0.4 7.52 2.04 12.96
12/15/2020 6:15:00 PM 3.46 38.228 0.401 7.52 3.04 12.91
12/15/2020 6:30:00 PM 3.44 38.192 0.4 7.51 2.74 12.91
12/15/2020 6:45:00 PM 3.41 38.138 0.399 7.51 2.76 12.9
12/15/2020 7:00:00 PM 3.39 38.102 0.399 7.5 4.95 12.93
12/15/2020 7:15:00 PM 3.37 38.066 0.399 7.5 2.51 12.92
12/15/2020 7:30:00 PM 3.35 38.03 0.399 7.5 2.74 12.92
12/15/2020 7:45:00 PM 3.33 37.994 0.39 7.5 2.58 12.93
12/15/2020 8:00:00 PM 3.31 37.958 0.398 7.5 2.94 12.96
12/15/2020 8:15:00 PM 3.3 37.94 0.387 7.49 3.12 12.96
12/15/2020 8:30:00 PM 3.29 37.922 0.392 7.48 2.86 12.99
12/15/2020 8:45:00 PM 3.28 37.904 0.397 7.5 2.74 12.99
12/15/2020 9:00:00 PM 3.26 37.868 0.397 7.5 2.9 13.01
12/15/2020 9:15:00 PM 3.26 37.868 0.396 7.5 2.62 13.02
12/15/2020 9:30:00 PM 3.25 37.85 0.396 7.5 2.96 13.04
12/15/2020 9:45:00 PM 3.26 37.868 0.379 7.5 2.94 13.06
12/15/2020 10:00:00 PM 3.25 37.85 0.396 7.51 2.23 13.09
12/15/2020 10:15:00 PM 3.25 37.85 0.395 7.52 2.5 13.1
12/15/2020 10:30:00 PM 3.26 37.868 0.395 7.51 2.5 13.11
12/15/2020 10:45:00 PM 3.26 37.868 0.395 7.5 2.45 13.11
12/15/2020 11:00:00 PM 3.26 37.868 0.385 7.51 2.91 13.14
12/15/2020 11:15:00 PM 3.27 37.886 0.389 7.52 2.9 13.15
12/15/2020 11:30:00 PM 3.28 37.904 0.381 7.52 3.28 13.17
12/15/2020 11:45:00 PM 3.29 37.922 0.394 7.52 8.24 13.17
12/16/2020 12:00:00 AM 3.31 37.958 0.394 7.52 2.97 13.18
12/16/2020 12:15:00 AM 3.3 37.94 0.394 7.52 2.58 13.17
12/16/2020 12:30:00 AM 3.31 37.958 0.394 7.54 2.79 13.21
12/16/2020 12:45:00 AM 3.31 37.958 0.393 7.54 2.76 13.21
12/16/2020 1:00:00 AM 3.3 37.94 0.393 7.54 2.69 13.23
12/16/2020 1:15:00 AM 3.3 37.94 0.393 7.54 2.74 13.24
12/16/2020 1:30:00 AM 3.28 37.904 0.389 7.54 2.93 13.26
12/16/2020 1:45:00 AM 3.25 37.85 0.39 7.54 3.12 13.26
12/16/2020 2:00:00 AM 3.24 37.832 0.39 7.55 3.11 13.28
12/16/2020 2:15:00 AM 3.21 37.778 0.392 7.55 3.24 13.28
12/16/2020 2:30:00 AM 3.21 37.778 0.392 7.55 3.02 13.31
12/16/2020 2:45:00 AM 3.17 37.706 0.392 7.56 3.09 13.32
12/16/2020 3:00:00 AM 3.15 37.67 0.392 7.57 3.69 13.31
12/16/2020 3:15:00 AM 3.14 37.652 0.391 7.57 3.09 13.3
12/16/2020 3:30:00 AM 3.13 37.634 0.392 7.56 2.96 13.33
12/16/2020 3:45:00 AM 3.12 37.616 0.381 7.56 3.66 13.35
12/16/2020 4:00:00 AM 3.09 37.562 0.382 7.57 2.84 13.35
12/16/2020 4:15:00 AM 3.09 37.562 0.391 7.58 2.98 13.36
12/16/2020 4:30:00 AM 3.06 37.508 0.391 7.57 3.04 13.36
12/16/2020 4:45:00 AM 3.05 37.49 0.392 7.57 3.27 13.35
12/16/2020 5:00:00 AM 3.04 37.472 0.391 7.58 3.3 13.34
12/16/2020 5:15:00 AM 3.01 37.418 0.391 7.58 3.42 13.35
12/16/2020 5:30:00 AM 2.98 37.364 0.391 7.57 3.8 13.35
12/16/2020 5:45:00 AM 2.96 37.328 0.391 7.58 2.95 13.34
12/16/2020 6:00:00 AM 2.94 37.292 0.391 7.56 2.78 13.34
12/16/2020 6:15:00 AM 2.93 37.274 0.391 7.56 3.42 13.32
12/16/2020 6:30:00 AM 2.91 37.238 0.391 7.58 3.3 13.33
12/16/2020 6:45:00 AM 2.89 37.202 0.393 7.56 3.18 13.33
12/16/2020 7:00:00 AM 2.86 37.148 0.39 7.55 3 13.32
12/16/2020 7:15:00 AM 2.85 37.13 0.39 7.55 2.8 13.33
12/16/2020 7:30:00 AM 2.83 37.094 0.393 7.56 3.11 13.32
12/16/2020 7:45:00 AM 2.82 37.076 0.389 7.55 2.9 13.32
12/16/2020 8:00:00 AM 2.8 37.04 0.392 7.55 3.2 13.32
12/16/2020 8:15:00 AM 2.79 37.022 0.39 7.54 3.01 13.32
12/16/2020 8:30:00 AM 2.77 36.986 0.39 7.55 2.8 13.33
12/16/2020 8:45:00 AM 2.76 36.968 0.389 7.54 3.16 13.34
12/16/2020 9:00:00 AM 2.76 36.968 0.389 7.53 3.32 13.34
12/16/2020 9:15:00 AM 2.74 36.932 0.388 7.52 3.12 13.36
12/16/2020 9:30:00 AM 2.73 36.914 0.388 7.53 3.28 13.41
12/16/2020 9:45:00 AM 2.73 36.914 0.388 7.53 2.81 13.46
12/16/2020 10:00:00 AM 2.71 36.878 0.387 7.53 3.45 13.48
12/16/2020 10:15:00 AM 2.71 36.878 0.387 7.53 3.99 13.5
12/16/2020 10:30:00 AM 2.7 36.86 0.386 7.54 3 13.57
12/16/2020 10:45:00 AM 2.7 36.86 0.386 7.54 3.09 13.58
12/16/2020 11:00:00 AM 2.69 36.842 0.386 7.54 3.01 13.59
12/16/2020 11:15:00 AM 2.68 36.824 0.386 7.54 3.91 13.65
12/16/2020 11:30:00 AM 2.64 36.752 0.385 7.54 3.02 13.68
12/16/2020 11:45:00 AM 2.59 36.662 0.385 7.53 3.4 13.69
12/16/2020 12:00:00 PM 2.54 36.572 0.36 7.53 3.18 13.74
12/16/2020 12:15:00 PM 2.5 36.5 0.361 7.53 3.51 13.74
12/16/2020 12:30:00 PM 2.45 36.41 0.37 7.52 3.26 13.78
12/16/2020 12:45:00 PM 2.42 36.356 0.369 7.51 2.93 13.8
12/16/2020 1:00:00 PM 2.38 36.284 0.383 7.53 3.12 13.82
12/16/2020 1:15:00 PM 2.34 36.212 0.365 7.52 3.34 13.85
12/16/2020 1:30:00 PM 2.32 36.176 0.383 7.52 3.07 13.88
12/16/2020 1:45:00 PM 2.29 36.122 0.383 7.53 3.51 13.9
12/16/2020 2:00:00 PM 2.26 36.068 0.382 7.53 3.1 13.88
12/16/2020 2:15:00 PM 2.21 35.978 0.382 7.52 4.23 13.87
12/16/2020 2:30:00 PM 2.14 35.852 0.381 7.51 3.03 13.87
12/16/2020 2:45:00 PM 2.07 35.726 0.381 7.52 3.06 13.83
12/16/2020 3:00:00 PM 1.98 35.564 0.38 7.51 3.01 13.79
12/16/2020 3:15:00 PM 1.9 35.42 0.379 7.51 3.25 13.77
12/16/2020 3:30:00 PM 1.8 35.24 0.379 7.5 3.06 13.73
12/16/2020 3:45:00 PM 1.7 35.06 0.379 7.5 2.93 13.72
12/16/2020 4:00:00 PM 1.6 34.88 0.378 7.5 2.95 13.68
12/16/2020 4:15:00 PM 1.47 34.646 0.377 7.5 3.29 13.64
12/16/2020 4:30:00 PM 1.34 34.412 0.376 7.48 3.16 13.6
12/16/2020 4:45:00 PM 1.2 34.16 0.375 7.46 3.51 13.55
12/16/2020 5:00:00 PM 1.07 33.926 0.375 7.46 3.31 13.5
12/16/2020 5:15:00 PM 0.98 33.764 0.375 7.46 3.95 13.48
12/16/2020 5:30:00 PM 0.87 33.566 0.374 7.45 3.55 13.48
12/16/2020 5:45:00 PM 0.81 33.458 0.373 7.46 3.38 13.46
12/16/2020 6:00:00 PM 0.82 33.476 0.373 7.47 3.61 13.46
12/16/2020 6:15:00 PM 0.84 33.512 0.374 7.46 3.33 13.45
12/16/2020 6:30:00 PM 0.9 33.62 0.373 7.45 3.49 13.45
12/16/2020 6:45:00 PM 0.93 33.674 0.373 7.45 3.38 13.45
12/16/2020 7:00:00 PM 0.98 33.764 0.373 7.43 3.92 13.46
12/16/2020 7:15:00 PM 1.02 33.836 0.373 7.43 3.78 13.47
12/16/2020 7:30:00 PM 1.01 33.818 0.373 7.42 3.5 13.47
12/16/2020 7:45:00 PM 1 33.8 0.373 7.42 3.64 13.49
12/16/2020 8:00:00 PM 0.98 33.764 0.373 7.43 3.07 13.49
12/16/2020 8:15:00 PM 0.99 33.782 0.372 7.44 3.32 13.51
12/16/2020 8:30:00 PM 0.96 33.728 0.372 7.44 2.98 13.52
12/16/2020 8:45:00 PM 0.83 33.494 0.372 7.42 3.15 13.53
12/16/2020 9:00:00 PM 0.76 33.368 0.371 7.42 3.05 13.54
12/16/2020 9:15:00 PM 0.72 33.296 0.353 7.42 3.27 13.54
12/16/2020 9:30:00 PM 0.61 33.098 0.353 7.41 2.89 13.57
12/16/2020 9:45:00 PM 0.54 32.972 0.37 7.42 2.96 13.59
12/16/2020 10:00:00 PM 0.46 32.828 0.369 7.4 3.06 13.61
12/16/2020 10:15:00 PM 0.39 32.702 0.369 7.41 3.03 13.62
12/16/2020 10:30:00 PM 0.32 32.576 0.342 7.4 3.32 13.62
12/16/2020 10:45:00 PM 0.24 32.432 0.351 7.4 3.18 13.65
12/16/2020 11:00:00 PM 0.14 32.252 0.367 7.38 3.59 13.65
12/16/2020 11:15:00 PM 0.12 32.216 0.367 7.39 3.09 13.66
12/16/2020 11:30:00 PM 0.1 32.18 0.367 7.4 3.63 13.7
12/16/2020 11:45:00 PM 0.1 32.18 0.367 7.38 2.92 13.7
12/17/2020 12:00:00 AM 0.1 32.18 0.367 7.38 3.19 13.73
12/17/2020 12:15:00 AM 0.12 32.216 0.368 7.39 3.58 13.75
12/17/2020 12:30:00 AM 0.13 32.234 0.368 7.4 3.46 13.77
12/17/2020 12:45:00 AM 0.18 32.324 0.368 7.4 3.94 13.75
12/17/2020 1:00:00 AM 0.22 32.396 0.368 7.41 3.2 13.78
12/17/2020 1:15:00 AM 0.24 32.432 0.369 7.4 4.03 13.78
12/17/2020 1:30:00 AM 0.26 32.468 0.368 7.4 3.19 13.79
12/17/2020 1:45:00 AM 0.24 32.432 0.369 7.41 3.04 13.82
12/17/2020 2:00:00 AM 0.24 32.432 0.369 7.43 3.3 13.84
12/17/2020 2:15:00 AM 0.25 32.45 0.369 7.43 3.3 13.84
12/17/2020 2:30:00 AM 0.24 32.432 0.369 7.43 3.47 13.85
12/17/2020 2:45:00 AM 0.25 32.45 0.37 7.43 3.11 13.86
12/17/2020 3:00:00 AM 0.26 32.468 0.37 7.43 3.1 13.85
12/17/2020 3:15:00 AM 0.28 32.504 0.37 7.42 3.1 13.87
12/17/2020 3:30:00 AM 0.32 32.576 0.371 7.41 3.21 13.86
12/17/2020 3:45:00 AM 0.35 32.63 0.371 7.43 3.31 13.85
12/17/2020 4:00:00 AM 0.35 32.63 0.372 7.42 2.98 13.85
12/17/2020 4:15:00 AM 0.36 32.648 0.372 7.43 2.99 13.87
12/17/2020 4:30:00 AM 0.36 32.648 0.372 7.43 3.04 13.87
12/17/2020 4:45:00 AM 0.34 32.612 0.372 7.42 3.15 13.86
12/17/2020 5:00:00 AM 0.35 32.63 0.372 7.43 3.33 13.87
12/17/2020 5:15:00 AM 0.34 32.612 0.373 7.42 3.96 13.87
12/17/2020 5:30:00 AM 0.32 32.576 0.373 7.42 3.32 13.88
12/17/2020 5:45:00 AM 0.29 32.522 0.373 7.41 3.43 13.86
12/17/2020 6:00:00 AM 0.26 32.468 0.373 7.42 3.18 13.9
12/17/2020 6:15:00 AM 0.23 32.414 0.373 7.41 3.32 13.9
12/17/2020 6:30:00 AM 0.21 32.378 0.373 7.41 3.69 13.92
12/17/2020 6:45:00 AM 0.19 32.342 0.373 7.41 3.37 13.93
12/17/2020 7:00:00 AM 0.16 32.288 0.363 7.41 3.64 13.94
12/17/2020 7:15:00 AM 0.12 32.216 0.373 7.43 3.58 13.96
12/17/2020 7:30:00 AM 0.09 32.162 0.373 7.43 3.91 13.97
12/17/2020 7:45:00 AM 0.07 32.126 0.373 7.41 3.41 13.98
12/17/2020 8:00:00 AM 0.05 32.09 0.373 7.41 3.29 14.02
12/17/2020 8:15:00 AM 0.05 32.09 0.374 7.42 4.58 14.01
12/17/2020 8:30:00 AM 0.06 32.108 0.374 7.42 3.35 14.08
12/17/2020 8:45:00 AM 0.08 32.144 0.373 7.41 3.61 14.14
12/17/2020 9:00:00 AM 0.12 32.216 0.373 7.42 4.49 14.19
12/17/2020 9:15:00 AM 0.18 32.324 0.373 7.42 3.93 14.28
12/17/2020 9:30:00 AM 0.23 32.414 0.373 7.42 3.7 14.37
12/17/2020 9:45:00 AM 0.29 32.522 0.373 7.42 3.83 14.44
12/17/2020 10:00:00 AM 0.33 32.594 0.373 7.44 5.44 14.56
12/17/2020 10:15:00 AM 0.39 32.702 0.372 7.47 4.63 14.63
12/17/2020 10:30:00 AM 0.45 32.81 0.372 7.47 3.89 14.67
12/17/2020 10:45:00 AM 0.55 32.99 0.372 7.48 3.97 14.74
12/17/2020 11:00:00 AM 0.66 33.188 0.372 7.49 4.2 14.77
12/17/2020 11:15:00 AM 0.8 33.44 0.372 7.5 4.19 14.81
12/17/2020 11:30:00 AM 0.94 33.692 0.372 7.51 4.58 14.82
12/17/2020 11:45:00 AM 1.08 33.944 0.372 7.52 4.22 14.84
12/17/2020 12:00:00 PM 1.22 34.196 0.371 7.53 5.94 14.85
12/17/2020 12:15:00 PM 1.35 34.43 0.371 7.51 5.21 14.87
12/17/2020 12:30:00 PM 1.47 34.646 0.371 7.5 5.82 14.86
12/17/2020 12:45:00 PM 1.55 34.79 0.371 7.51 3.64 14.87
12/17/2020 1:00:00 PM 1.62 34.916 0.371 7.51 3.74 14.86
12/17/2020 1:15:00 PM 1.65 34.97 0.371 7.5 3.94 14.84
12/17/2020 1:30:00 PM 1.65 34.97 0.371 7.48 4.06 14.81
12/17/2020 1:45:00 PM 1.64 34.952 0.371 7.48 3.38 14.8
12/17/2020 2:00:00 PM 1.6 34.88 0.37 7.48 3.68 14.79
12/17/2020 2:15:00 PM 1.53 34.754 0.371 7.47 3.63 14.78
12/17/2020 2:30:00 PM 1.45 34.61 0.371 7.45 3.72 14.74
12/17/2020 2:45:00 PM 1.34 34.412 0.371 7.44 3.65 14.72
12/17/2020 3:00:00 PM 1.23 34.214 0.371 7.46 4.71 14.69
12/17/2020 3:15:00 PM 1.1 33.98 0.37 7.44 3.57 14.67
12/17/2020 3:30:00 PM 0.98 33.764 0.37 7.44 3.77 14.65
12/17/2020 3:45:00 PM 0.87 33.566 0.37 7.44 4.28 14.62
12/17/2020 4:00:00 PM 0.78 33.404 0.37 7.44 4.17 14.6
12/17/2020 4:15:00 PM 0.71 33.278 0.37 7.44 3.68 14.55
12/17/2020 4:30:00 PM 0.63 33.134 0.37 7.44 4.05 14.52
12/17/2020 4:45:00 PM 0.59 33.062 0.37 7.43 3.74 14.47
12/17/2020 5:00:00 PM 0.54 32.972 0.369 7.44 3.71 14.42
12/17/2020 5:15:00 PM 0.51 32.918 0.369 7.44 6.36 14.37
12/17/2020 5:30:00 PM 0.49 32.882 0.369 7.43 3.79 14.31
12/17/2020 5:45:00 PM 0.48 32.864 0.369 7.41 4.12 14.29
12/17/2020 6:00:00 PM 0.47 32.846 0.369 7.4 5.53 14.25
12/17/2020 6:15:00 PM 0.46 32.828 0.368 7.4 5.23 14.2
12/17/2020 6:30:00 PM 0.45 32.81 0.368 7.39 4 14.2
12/17/2020 6:45:00 PM 0.44 32.792 0.368 7.4 3.34 14.18
12/17/2020 7:00:00 PM 0.43 32.774 0.367 7.39 3.38 14.18
12/17/2020 7:15:00 PM 0.42 32.756 0.367 7.38 3.55 14.18
12/17/2020 7:30:00 PM 0.4 32.72 0.367 7.38 4.24 14.19
12/17/2020 7:45:00 PM 0.39 32.702 0.366 7.37 3.4 14.2
12/17/2020 8:00:00 PM 0.38 32.684 0.341 7.37 3.88 14.19
12/17/2020 8:15:00 PM 0.36 32.648 0.366 7.37 5.09 14.19
12/17/2020 8:30:00 PM 0.34 32.612 0.366 7.37 4.07 14.22
12/17/2020 8:45:00 PM 0.33 32.594 0.366 7.36 4.01 14.22
12/17/2020 9:00:00 PM 0.31 32.558 0.366 7.35 3.06 14.23
12/17/2020 9:15:00 PM 0.3 32.54 0.366 7.35 3.1 14.24
12/17/2020 9:30:00 PM 0.28 32.504 0.365 7.34 3.53 14.25
12/17/2020 9:45:00 PM 0.26 32.468 0.365 7.35 3.63 14.26
12/17/2020 10:00:00 PM 0.25 32.45 0.365 7.34 3.25 14.25
12/17/2020 10:15:00 PM 0.24 32.432 0.364 7.33 3.38 14.26
12/17/2020 10:30:00 PM 0.22 32.396 0.364 7.33 3.55 14.27
12/17/2020 10:45:00 PM 0.21 32.378 0.365 7.34 3.64 14.27
12/17/2020 11:00:00 PM 0.2 32.36 0.365 7.34 3.4 14.28
12/17/2020 11:15:00 PM 0.19 32.342 0.365 7.34 3.57 14.28
12/17/2020 11:30:00 PM 0.18 32.324 0.365 7.33 3.32 14.3
12/17/2020 11:45:00 PM 0.17 32.306 0.364 7.32 3.24 14.3
12/18/2020 12:00:00 AM 0.16 32.288 0.364 7.32 3.47 14.32
12/18/2020 12:15:00 AM 0.15 32.27 0.364 7.32 3.06 14.32
12/18/2020 12:30:00 AM 0.14 32.252 0.364 7.33 3.47 14.33
12/18/2020 12:45:00 AM 0.13 32.234 0.364 7.32 3.43 14.36
12/18/2020 1:00:00 AM 0.12 32.216 0.364 7.33 2.97 14.36
12/18/2020 1:15:00 AM 0.11 32.198 0.346 7.34 3.17 14.39
12/18/2020 1:30:00 AM 0.11 32.198 0.361 7.36 3.46 14.38
12/18/2020 1:45:00 AM 0.1 32.18 0.306 7.38 3.05 14.41
12/18/2020 2:00:00 AM 0.09 32.162 0.319 7.39 3.06 14.41
12/18/2020 2:15:00 AM 0.08 32.144 0.306 7.39 3.14 14.4
12/18/2020 2:30:00 AM 0.07 32.126 0.362 7.39 3.33 14.43
12/18/2020 2:45:00 AM 0.07 32.126 0.337 7.39 3.01 14.44
12/18/2020 3:00:00 AM 0.07 32.126 0.36 7.38 3.63 14.47
12/18/2020 3:15:00 AM 0.06 32.108 0.36 7.37 2.88 14.47
12/18/2020 3:30:00 AM 0.06 32.108 0.359 7.37 3.25 14.48
12/18/2020 3:45:00 AM 0.06 32.108 0.333 7.37 3.64 14.48
12/18/2020 4:00:00 AM 0.07 32.126 0.302 7.37 4.15 14.51
12/18/2020 4:15:00 AM 0.06 32.108 0.359 7.37 2.75 14.51
12/18/2020 4:30:00 AM 0.06 32.108 0.359 7.37 3.15 14.51
12/18/2020 4:45:00 AM 0.06 32.108 0.359 7.37 3.12 14.53
12/18/2020 5:00:00 AM 0.06 32.108 0.359 7.37 2.96 14.52
12/18/2020 5:15:00 AM 0.06 32.108 0.359 7.38 2.72 14.54
12/18/2020 5:30:00 AM 0.06 32.108 0.359 7.37 2.83 14.56
12/18/2020 5:45:00 AM 0.07 32.126 0.359 7.38 2.92 14.54
12/18/2020 6:00:00 AM 0.06 32.108 0.359 7.38 2.92 14.54
12/18/2020 6:15:00 AM 0.06 32.108 0.359 7.38 2.87 14.54
12/18/2020 6:30:00 AM 0.06 32.108 0.36 7.37 2.67 14.54
12/18/2020 6:45:00 AM 0.06 32.108 0.36 7.38 2.8 14.55
12/18/2020 7:00:00 AM 0.06 32.108 0.36 7.37 3.06 14.53
12/18/2020 7:15:00 AM 0.06 32.108 0.36 7.37 2.94 14.52
12/18/2020 7:30:00 AM 0.06 32.108 0.36 7.37 3.63 14.53
12/18/2020 7:45:00 AM 0.06 32.108 0.361 7.37 3.12 14.52
12/18/2020 8:00:00 AM 0.07 32.126 0.362 7.37 3.31 14.52
12/18/2020 8:15:00 AM 0.07 32.126 0.361 7.36 5.25 14.54
12/18/2020 8:30:00 AM 0.07 32.126 0.356 7.37 3.7 14.56
12/18/2020 8:45:00 AM 0.09 32.162 0.362 7.38 5.12 14.57
12/18/2020 9:00:00 AM 0.1 32.18 0.361 7.36 3.13 14.6
12/18/2020 9:15:00 AM 0.12 32.216 0.359 7.37 3.19 14.63
12/18/2020 9:30:00 AM 0.14 32.252 0.363 7.37 3.24 14.65
12/18/2020 9:45:00 AM 0.16 32.288 0.363 7.37 4.36 14.69
12/18/2020 10:00:00 AM 0.18 32.324 0.363 7.38 3.35 14.72
12/18/2020 10:15:00 AM 0.21 32.378 0.363 7.37 2.89 14.74
12/18/2020 10:30:00 AM 0.24 32.432 0.364 7.38 2.72 14.78
12/18/2020 10:45:00 AM 0.28 32.504 0.364 7.38 3.29 14.83
12/18/2020 11:00:00 AM 0.32 32.576 0.364 7.38 3.94 14.84
12/18/2020 11:15:00 AM 0.36 32.648 0.364 7.38 3.33 14.86
12/18/2020 11:30:00 AM 0.4 32.72 0.364 7.38 4.89 14.87
12/18/2020 11:45:00 AM 0.42 32.756 0.364 7.38 2.85 14.88
12/18/2020 12:00:00 PM 0.43 32.774 0.365 7.39 3.42 14.87
12/18/2020 12:15:00 PM 0.43 32.774 0.365 7.39 3.36 14.89
12/18/2020 12:30:00 PM 0.44 32.792 0.365 7.39 2.92 14.88
12/18/2020 12:45:00 PM 0.44 32.792 0.365 7.39 3.77 14.87
12/18/2020 1:00:00 PM 0.44 32.792 0.365 7.38 2.87 14.86
12/18/2020 1:15:00 PM 0.44 32.792 0.366 7.39 2.82 14.86
12/18/2020 1:30:00 PM 0.44 32.792 0.366 7.39 3.31 14.83
12/18/2020 1:45:00 PM 0.48 32.864 0.366 7.38 3.07 14.85
12/18/2020 2:00:00 PM 0.49 32.882 0.366 7.38 3.07 14.85
12/18/2020 2:15:00 PM 0.49 32.882 0.366 7.37 3.92 14.85
12/18/2020 2:30:00 PM 0.47 32.846 0.366 7.37 3.29 14.85
12/18/2020 2:45:00 PM 0.46 32.828 0.367 7.37 3.08 14.84
12/18/2020 3:00:00 PM 0.44 32.792 0.367 7.37 2.71 14.82
12/18/2020 3:15:00 PM 0.42 32.756 0.367 7.38 3.35 14.82
12/18/2020 3:30:00 PM 0.41 32.738 0.365 7.38 3.9 14.77
12/18/2020 3:45:00 PM 0.38 32.684 0.368 7.38 2.58 14.79
12/18/2020 4:00:00 PM 0.35 32.63 0.368 7.38 2.71 14.77
12/18/2020 4:15:00 PM 0.33 32.594 0.367 7.37 3.25 14.75
12/18/2020 4:30:00 PM 0.3 32.54 0.369 7.38 3.4 14.72
12/18/2020 4:45:00 PM 0.26 32.468 0.355 7.37 3.45 14.72
12/18/2020 5:00:00 PM 0.23 32.414 0.355 7.35 3.07 14.68
12/18/2020 5:15:00 PM 0.19 32.342 0.37 7.35 3.63 14.63
12/18/2020 5:30:00 PM 0.15 32.27 0.37 7.35 2.92 14.6
12/18/2020 5:45:00 PM 0.13 32.234 0.369 7.33 3.27 14.56
12/18/2020 6:00:00 PM 0.11 32.198 0.371 7.34 3.5 14.53
12/18/2020 6:15:00 PM 0.11 32.198 0.372 7.34 2.79 14.54
12/18/2020 6:30:00 PM 0.11 32.198 0.372 7.33 4.42 14.5
12/18/2020 6:45:00 PM 0.11 32.198 0.372 7.34 4.4 14.51
12/18/2020 7:00:00 PM 0.11 32.198 0.37 7.32 4.27 14.52
12/18/2020 7:15:00 PM 0.11 32.198 0.372 7.32 3.63 14.52
12/18/2020 7:30:00 PM 0.11 32.198 0.369 7.32 3.13 14.52
12/18/2020 7:45:00 PM 0.11 32.198 0.372 7.32 2.96 14.54
12/18/2020 8:00:00 PM 0.09 32.162 0.366 7.32 2.93 14.57
12/18/2020 8:15:00 PM 0.07 32.126 0.369 7.32 3.29 14.54
12/18/2020 8:30:00 PM 0.06 32.108 0.343 7.32 3.73 14.55
12/18/2020 8:45:00 PM 0.04 32.072 0.35 7.32 3.28 14.56
12/18/2020 9:00:00 PM 0.04 32.072 0.373 7.33 3.36 14.6
12/18/2020 9:15:00 PM 0.03 32.054 0.373 7.33 2.84 14.6
12/18/2020 9:30:00 PM 0.02 32.036 0.328 7.35 3.45 14.61
12/18/2020 9:45:00 PM 0.02 32.036 0.371 7.34 3.15 14.61
12/18/2020 10:00:00 PM 0.01 32.018 0.373 7.35 3.44 14.64
12/18/2020 10:15:00 PM 0.01 32.018 0.373 7.34 3.42 14.63
12/18/2020 10:30:00 PM 0.02 32.036 0.372 7.35 3.23 14.64
12/18/2020 10:45:00 PM 0.01 32.018 0.372 7.34 3.27 14.65
12/18/2020 11:00:00 PM 0.01 32.018 0.355 7.35 3.18 14.66
12/18/2020 11:15:00 PM 0.02 32.036 0.348 7.35 2.9 14.66
12/18/2020 11:30:00 PM 0.02 32.036 0.372 7.38 3.1 14.67
12/18/2020 11:45:00 PM 0.03 32.054 0.372 7.37 3.8 14.68
12/19/2020 12:00:00 AM 0.03 32.054 0.372 7.37 3.18 14.67
12/19/2020 12:15:00 AM 0.02 32.036 0.372 7.36 2.91 14.69
12/19/2020 12:30:00 AM 0.03 32.054 0.372 7.37 3.3 14.71
12/19/2020 12:45:00 AM 0.04 32.072 0.371 7.38 3.24 14.69
12/19/2020 1:00:00 AM 0.03 32.054 0.344 7.38 3.54 14.7
12/19/2020 1:15:00 AM 0.03 32.054 0.352 7.39 3.47 14.71
12/19/2020 1:30:00 AM 0.03 32.054 0.353 7.39 2.96 14.71
12/19/2020 1:45:00 AM 0.02 32.036 0.318 7.39 3.16 14.72
12/19/2020 2:00:00 AM 0.01 32.018 0.318 7.4 3.18 14.72
12/19/2020 2:15:00 AM 0.01 32.018 0.371 7.4 2.92 14.73
12/19/2020 2:30:00 AM 0 32 0.372 7.4 3.27 14.72
12/19/2020 2:45:00 AM 0 32 0.373 7.4 3.52 14.72
12/19/2020 3:00:00 AM -0.01 31.982 0.373 7.39 3.8 14.74
12/19/2020 3:15:00 AM -0.02 31.964 0.373 7.38 3.34 14.73
12/19/2020 3:30:00 AM -0.04 31.928 0.373 7.39 3.23 14.72
12/19/2020 3:45:00 AM -0.04 31.928 0.373 7.38 3.07 14.73
12/19/2020 4:00:00 AM -0.05 31.91 0.373 7.39 3.22 14.73
12/19/2020 4:15:00 AM -0.07 31.874 0.373 7.39 3.7 14.72
12/19/2020 4:30:00 AM -0.07 31.874 0.373 7.39 3.22 14.72
12/19/2020 4:45:00 AM -0.09 31.838 0.373 7.38 4.57 14.72
12/19/2020 5:00:00 AM -0.1 31.82 0.371 7.38 3.45 14.71
12/19/2020 5:15:00 AM -0.1 31.82 0.373 7.38 2.96 14.71
12/19/2020 5:30:00 AM -0.1 31.82 0.373 7.37 2.81 14.69
12/19/2020 5:45:00 AM -0.1 31.82 0.371 7.37 3.44 14.69
12/19/2020 6:00:00 AM -0.1 31.82 0.374 7.37 3.2 14.7
12/19/2020 6:15:00 AM -0.1 31.82 0.374 7.36 2.9 14.7
12/19/2020 6:30:00 AM -0.09 31.838 0.363 7.35 2.95 14.68
12/19/2020 6:45:00 AM -0.08 31.856 0.356 7.36 3.15 14.68
12/19/2020 7:00:00 AM -0.08 31.856 0.356 7.37 6.16 14.66
12/19/2020 7:15:00 AM -0.08 31.856 0.352 7.36 2.67 14.63
12/19/2020 7:30:00 AM -0.09 31.838 0.363 7.35 3.03 14.61
12/19/2020 7:45:00 AM -0.09 31.838 0.374 7.35 3.15 14.65
12/19/2020 8:00:00 AM -0.08 31.856 0.373 7.34 6.62 14.63
12/19/2020 8:15:00 AM -0.08 31.856 0.373 7.34 6.84 14.62
12/19/2020 8:30:00 AM -0.07 31.874 0.371 7.33 3.03 14.66
12/19/2020 8:45:00 AM -0.06 31.892 0.374 7.33 4.93 14.69
12/19/2020 9:00:00 AM -0.06 31.892 0.339 7.33 2.83 14.72
12/19/2020 9:15:00 AM -0.05 31.91 0.361 7.33 3.41 14.76
12/19/2020 9:30:00 AM -0.05 31.91 0.356 7.34 4.49 14.81
12/19/2020 9:45:00 AM -0.04 31.928 0.326 7.34 3.3 14.86
12/19/2020 10:00:00 AM 0 32 0.322 7.36 4.69 14.94
12/19/2020 10:15:00 AM 0.07 32.126 0.347 7.37 3.56 15.02
12/19/2020 10:30:00 AM 0.12 32.216 0.342 7.37 3.75 15.09
12/19/2020 10:45:00 AM 0.19 32.342 0.341 7.38 4.19 15.12
12/19/2020 11:00:00 AM 0.26 32.468 0.339 7.38 3.39 15.16
12/19/2020 11:15:00 AM 0.34 32.612 0.325 7.39 3.32 15.19
12/19/2020 11:30:00 AM 0.43 32.774 0.347 7.36 3.2 15.23
12/19/2020 11:45:00 AM 0.51 32.918 0.343 7.35 3.52 15.23
12/19/2020 12:00:00 PM 0.57 33.026 0.343 7.37 4.96 15.25
12/19/2020 12:15:00 PM 0.63 33.134 0.322 7.37 2.63 15.25
12/19/2020 12:30:00 PM 0.69 33.242 0.342 7.37 2.97 15.27
12/19/2020 12:45:00 PM 0.74 33.332 0.346 7.37 2.8 15.25
12/19/2020 1:00:00 PM 0.79 33.422 0.323 7.38 2.87 15.24
12/19/2020 1:15:00 PM 0.81 33.458 0.342 7.38 2.78 15.26
12/19/2020 1:30:00 PM 0.82 33.476 0.354 7.38 3.04 15.22
12/19/2020 1:45:00 PM 0.82 33.476 0.335 7.38 2.49 15.23
12/19/2020 2:00:00 PM 0.81 33.458 0.367 7.37 2.72 15.22
12/19/2020 2:15:00 PM 0.79 33.422 0.363 7.38 2.99 15.21
12/19/2020 2:30:00 PM 0.77 33.386 0.367 7.39 2.8 15.2
12/19/2020 2:45:00 PM 0.75 33.35 0.367 7.38 2.76 15.18
12/19/2020 3:00:00 PM 0.71 33.278 0.367 7.38 2.82 15.15
12/19/2020 3:15:00 PM 0.67 33.206 0.366 7.38 3.53 15.12
12/19/2020 3:30:00 PM 0.63 33.134 0.349 7.37 3.41 15.11
12/19/2020 3:45:00 PM 0.58 33.044 0.367 7.37 2.99 15.09
12/19/2020 4:00:00 PM 0.53 32.954 0.329 7.39 3.45 15.07
12/19/2020 4:15:00 PM 0.48 32.864 0.366 7.41 2.74 15.02
12/19/2020 4:30:00 PM 0.44 32.792 0.361 7.39 3.2 14.97
12/19/2020 4:45:00 PM 0.4 32.72 0.338 7.39 3.16 14.91
12/19/2020 5:00:00 PM 0.36 32.648 0.363 7.38 2.76 14.85
12/19/2020 5:15:00 PM 0.32 32.576 0.367 7.36 2.84 14.79
12/19/2020 5:30:00 PM 0.29 32.522 0.365 7.36 3.3 14.73
12/19/2020 5:45:00 PM 0.26 32.468 0.368 7.36 2.93 14.67
12/19/2020 6:00:00 PM 0.23 32.414 0.368 7.35 3.02 14.63
12/19/2020 6:15:00 PM 0.21 32.378 0.368 7.34 2.92 14.59
12/19/2020 6:30:00 PM 0.18 32.324 0.364 7.33 2.86 14.57
12/19/2020 6:45:00 PM 0.16 32.288 0.363 7.32 3.18 14.57
12/19/2020 7:00:00 PM 0.14 32.252 0.369 7.33 3.23 14.55
12/19/2020 7:15:00 PM 0.12 32.216 0.367 7.33 3.57 14.53
12/19/2020 7:30:00 PM 0.1 32.18 0.368 7.32 2.93 14.55
12/19/2020 7:45:00 PM 0.09 32.162 0.344 7.31 3.03 14.55
12/19/2020 8:00:00 PM 0.08 32.144 0.368 7.31 2.69 14.55
12/19/2020 8:15:00 PM 0.08 32.144 0.371 7.31 2.99 14.56
12/19/2020 8:30:00 PM 0.07 32.126 0.368 7.32 2.87 14.56
12/19/2020 8:45:00 PM 0.07 32.126 0.321 7.3 3.46 14.57
12/19/2020 9:00:00 PM 0.05 32.09 0.355 7.3 2.64 14.57
12/19/2020 9:15:00 PM 0.06 32.108 0.334 7.31 2.46 14.57
12/19/2020 9:30:00 PM 0.07 32.126 0.367 7.3 2.59 14.58
12/19/2020 9:45:00 PM 0.07 32.126 0.338 7.29 2.79 14.58
12/19/2020 10:00:00 PM 0.06 32.108 0.366 7.3 2.82 14.57
12/19/2020 10:15:00 PM 0.06 32.108 0.312 7.29 2.98 14.58
12/19/2020 10:30:00 PM 0.07 32.126 0.337 7.29 2.87 14.56
12/19/2020 10:45:00 PM 0.08 32.144 0.336 7.29 2.63 14.55
12/19/2020 11:00:00 PM 0.09 32.162 0.339 7.29 3.07 14.55
12/19/2020 11:15:00 PM 0.1 32.18 0.327 7.29 2.63 14.56
12/19/2020 11:30:00 PM 0.11 32.198 0.323 7.29 2.69 14.58
12/19/2020 11:45:00 PM 0.12 32.216 0.361 7.29 2.93 14.55
12/20/2020 12:00:00 AM 0.12 32.216 0.344 7.3 2.6 14.56
12/20/2020 12:15:00 AM 0.12 32.216 0.366 7.29 2.85 14.56
12/20/2020 12:30:00 AM 0.11 32.198 0.354 7.29 2.6 14.57
12/20/2020 12:45:00 AM 0.11 32.198 0.374 7.29 2.93 14.58
12/20/2020 1:00:00 AM 0.11 32.198 0.37 7.29 3.65 14.58
12/20/2020 1:15:00 AM 0.1 32.18 0.36 7.29 2.93 14.58
12/20/2020 1:30:00 AM 0.09 32.162 0.365 7.29 2.72 14.59
12/20/2020 1:45:00 AM 0.07 32.126 0.377 7.29 2.67 14.6
12/20/2020 2:00:00 AM 0.06 32.108 0.359 7.29 2.48 14.61
12/20/2020 2:15:00 AM 0.06 32.108 0.369 7.3 2.48 14.6
12/20/2020 2:30:00 AM 0.05 32.09 0.372 7.29 2.85 14.63
12/20/2020 2:45:00 AM 0.05 32.09 0.35 7.29 2.91 14.63
12/20/2020 3:00:00 AM 0.05 32.09 0.361 7.29 2.54 14.65
12/20/2020 3:15:00 AM 0.05 32.09 0.38 7.31 2.43 14.66
12/20/2020 3:30:00 AM 0.05 32.09 0.364 7.31 2.54 14.68
12/20/2020 3:45:00 AM 0.05 32.09 0.352 7.3 3.8 14.67
12/20/2020 4:00:00 AM 0.04 32.072 0.371 7.3 3.21 14.67
12/20/2020 4:15:00 AM 0.04 32.072 0.368 7.31 2.56 14.69
12/20/2020 4:30:00 AM 0.04 32.072 0.333 7.31 2.74 14.7
12/20/2020 4:45:00 AM 0.04 32.072 0.325 7.32 2.47 14.71
12/20/2020 5:00:00 AM 0.04 32.072 0.382 7.31 2.79 14.72
12/20/2020 5:15:00 AM 0.04 32.072 0.382 7.31 3.26 14.72
12/20/2020 5:30:00 AM 0.03 32.054 0.382 7.32 2.51 14.72
12/20/2020 5:45:00 AM 0.03 32.054 0.383 7.32 2.75 14.72
12/20/2020 6:00:00 AM 0.03 32.054 0.34 7.33 2.82 14.69
12/20/2020 6:15:00 AM 0.03 32.054 0.381 7.32 2.63 14.7
12/20/2020 6:30:00 AM 0.03 32.054 0.383 7.31 2.56 14.7
12/20/2020 6:45:00 AM 0.02 32.036 0.357 7.31 2.75 14.72
12/20/2020 7:00:00 AM 0.02 32.036 0.383 7.31 2.73 14.7
12/20/2020 7:15:00 AM 0.02 32.036 0.383 7.32 3.23 14.69
12/20/2020 7:30:00 AM 0.03 32.054 0.382 7.31 2.79 14.69
12/20/2020 7:45:00 AM 0.03 32.054 0.381 7.31 2.73 14.66
12/20/2020 8:00:00 AM 0.04 32.072 0.347 7.32 2.66 14.7
12/20/2020 8:15:00 AM 0.04 32.072 0.333 7.32 3.14 14.68
12/20/2020 8:30:00 AM 0.05 32.09 0.345 7.33 2.7 14.67
12/20/2020 8:45:00 AM 0.07 32.126 0.382 7.34 2.73 14.71
12/20/2020 9:00:00 AM 0.09 32.162 0.382 7.32 2.69 14.72
12/20/2020 9:15:00 AM 0.11 32.198 0.382 7.34 3.01 14.74
12/20/2020 9:30:00 AM 0.15 32.27 0.382 7.33 3.36 14.78
12/20/2020 9:45:00 AM 0.18 32.324 0.381 7.34 2.65 14.84
12/20/2020 10:00:00 AM 0.22 32.396 0.381 7.34 2.71 14.84
12/20/2020 10:15:00 AM 0.27 32.486 0.38 7.35 3.06 14.9
12/20/2020 10:30:00 AM 0.32 32.576 0.381 7.34 2.78 14.94
12/20/2020 10:45:00 AM 0.36 32.648 0.381 7.35 3.48 14.99
12/20/2020 11:00:00 AM 0.4 32.72 0.381 7.36 2.71 15.01
12/20/2020 11:15:00 AM 0.43 32.774 0.381 7.36 2.53 15.01
12/20/2020 11:30:00 AM 0.47 32.846 0.379 7.38 3.99 15.04
12/20/2020 11:45:00 AM 0.51 32.918 0.381 7.37 2.42 15.07
12/20/2020 12:00:00 PM 0.55 32.99 0.381 7.36 2.65 15.05
12/20/2020 12:15:00 PM 0.6 33.08 0.381 7.38 2.7 15.05
12/20/2020 12:30:00 PM 0.72 33.296 0.38 7.39 2.81 15.07
12/20/2020 12:45:00 PM 0.87 33.566 0.38 7.36 2.4 15.03
12/20/2020 1:00:00 PM 0.9 33.62 0.38 7.35 3.02 15.05
12/20/2020 1:15:00 PM 0.94 33.692 0.38 7.35 2.38 15.04
12/20/2020 1:30:00 PM 0.98 33.764 0.379 7.35 2.83 15.05
12/20/2020 1:45:00 PM 0.97 33.746 0.372 7.35 2.67 15.04
12/20/2020 2:00:00 PM 0.96 33.728 0.375 7.33 3.22 15.01
12/20/2020 2:15:00 PM 0.93 33.674 0.378 7.34 3.2 14.98
12/20/2020 2:30:00 PM 0.89 33.602 0.379 7.34 3.17 14.97
12/20/2020 2:45:00 PM 0.86 33.548 0.379 7.32 2.83 14.93
12/20/2020 3:00:00 PM 0.82 33.476 0.379 7.31 3.58 14.92
12/20/2020 3:15:00 PM 0.77 33.386 0.379 7.31 3.2 14.9
12/20/2020 3:30:00 PM 0.74 33.332 0.379 7.32 3.87 14.87
12/20/2020 3:45:00 PM 0.71 33.278 0.379 7.32 4.58 14.85
12/20/2020 4:00:00 PM 0.67 33.206 0.379 7.31 3.65 14.84
12/20/2020 4:15:00 PM 0.64 33.152 0.379 7.3 3.66 14.81
12/20/2020 4:30:00 PM 0.59 33.062 0.379 7.3 4.47 14.76
12/20/2020 4:45:00 PM 0.56 33.008 0.379 7.34 3.59 14.72
12/20/2020 5:00:00 PM 0.53 32.954 0.379 7.34 3.18 14.66
12/20/2020 5:15:00 PM 0.49 32.882 0.37 7.33 4.07 14.61
12/20/2020 5:30:00 PM 0.47 32.846 0.355 7.32 3.85 14.54
12/20/2020 5:45:00 PM 0.45 32.81 0.38 7.31 2.54 14.49
12/20/2020 6:00:00 PM 0.43 32.774 0.368 7.31 2.93 14.43
12/20/2020 6:15:00 PM 0.42 32.756 0.377 7.3 2.77 14.4
12/20/2020 6:30:00 PM 0.41 32.738 0.381 7.31 2.91 14.37
12/20/2020 6:45:00 PM 0.41 32.738 0.375 7.3 2.68 14.36
12/20/2020 7:00:00 PM 0.4 32.72 0.328 7.31 4.26 14.34
12/20/2020 7:15:00 PM 0.4 32.72 0.381 7.29 4.28 14.34
12/20/2020 7:30:00 PM 0.41 32.738 0.382 7.29 4.98 14.33
12/20/2020 7:45:00 PM 0.4 32.72 0.382 7.28 2.78 14.32
12/20/2020 8:00:00 PM 0.4 32.72 0.382 7.29 2.93 14.32
12/20/2020 8:15:00 PM 0.4 32.72 0.383 7.29 3.66 14.33
12/20/2020 8:30:00 PM 0.4 32.72 0.383 7.28 2.86 14.33
12/20/2020 8:45:00 PM 0.4 32.72 0.383 7.29 3.44 14.32
12/20/2020 9:00:00 PM 0.4 32.72 0.384 7.29 5.2 14.31
12/20/2020 9:15:00 PM 0.4 32.72 0.384 7.28 4.96 14.3
12/20/2020 9:30:00 PM 0.4 32.72 0.385 7.27 4.03 14.32
12/20/2020 9:45:00 PM 0.4 32.72 0.385 7.28 3.11 14.3
12/20/2020 10:00:00 PM 0.4 32.72 0.385 7.27 2.85 14.32
12/20/2020 10:15:00 PM 0.4 32.72 0.386 7.27 3.39 14.32
12/20/2020 10:30:00 PM 0.4 32.72 0.386 7.28 2.85 14.33
12/20/2020 10:45:00 PM 0.4 32.72 0.387 7.28 2.72 14.33
12/20/2020 11:00:00 PM 0.4 32.72 0.387 7.28 2.58 14.31
12/20/2020 11:15:00 PM 0.4 32.72 0.387 7.28 2.41 14.35
12/20/2020 11:30:00 PM 0.4 32.72 0.388 7.28 2.68 14.33
12/20/2020 11:45:00 PM 0.4 32.72 0.388 7.28 3.61 14.35
12/21/2020 12:00:00 AM 0.4 32.72 0.388 7.28 2.78 14.36
12/21/2020 12:15:00 AM 0.4 32.72 0.389 7.29 2.75 14.37
12/21/2020 12:30:00 AM 0.4 32.72 0.389 7.27 2.81 14.37
12/21/2020 12:45:00 AM 0.4 32.72 0.389 7.28 2.68 14.37
12/21/2020 1:00:00 AM 0.41 32.738 0.389 7.27 2.63 14.38
12/21/2020 1:15:00 AM 0.41 32.738 0.359 7.28 2.8 14.39
12/21/2020 1:30:00 AM 0.42 32.756 0.39 7.28 4.02 14.39
12/21/2020 1:45:00 AM 0.42 32.756 0.348 7.28 2.81 14.39
12/21/2020 2:00:00 AM 0.43 32.774 0.39 7.28 2.66 14.39
12/21/2020 2:15:00 AM 0.44 32.792 0.39 7.29 2.77 14.4
12/21/2020 2:30:00 AM 0.45 32.81 0.391 7.29 2.56 14.38
12/21/2020 2:45:00 AM 0.46 32.828 0.369 7.28 2.83 14.38
12/21/2020 3:00:00 AM 0.47 32.846 0.391 7.29 3.12 14.38
12/21/2020 3:15:00 AM 0.47 32.846 0.391 7.3 2.18 14.38
12/21/2020 3:30:00 AM 0.47 32.846 0.391 7.29 2.08 14.36
12/21/2020 3:45:00 AM 0.46 32.828 0.383 7.3 2.21 14.39
12/21/2020 4:00:00 AM 0.45 32.81 0.391 7.3 2.33 14.37
12/21/2020 4:15:00 AM 0.43 32.774 0.391 7.3 2.76 14.39
12/21/2020 4:30:00 AM 0.43 32.774 0.35 7.3 2.43 14.38
12/21/2020 4:45:00 AM 0.42 32.756 0.389 7.31 2.44 14.36
12/21/2020 5:00:00 AM 0.43 32.774 0.392 7.3 2.88 14.37
12/21/2020 5:15:00 AM 0.43 32.774 0.392 7.3 2.61 14.36
12/21/2020 5:30:00 AM 0.43 32.774 0.363 7.3 2.28 14.34
12/21/2020 5:45:00 AM 0.43 32.774 0.362 7.31 2.45 14.34
12/21/2020 6:00:00 AM 0.43 32.774 0.391 7.31 2.77 14.31
12/21/2020 6:15:00 AM 0.43 32.774 0.391 7.3 2.54 14.31
12/21/2020 6:30:00 AM 0.43 32.774 0.341 7.31 2.63 14.29
12/21/2020 6:45:00 AM 0.44 32.792 0.39 7.31 6.37 14.27
12/21/2020 7:00:00 AM 0.45 32.81 0.392 7.31 5.82 14.27
12/21/2020 7:15:00 AM 0.47 32.846 0.355 7.31 4.79 14.25
12/21/2020 7:30:00 AM 0.5 32.9 0.39 7.31 20.33 14.23
12/21/2020 7:45:00 AM 0.52 32.936 0.324 7.29 3.68 14.23
12/21/2020 8:00:00 AM 0.55 32.99 0.38 7.28 4.71 14.2
12/21/2020 8:15:00 AM 0.59 33.062 0.393 7.29 3.76 14.19
12/21/2020 8:30:00 AM 0.62 33.116 0.393 7.29 4.78 14.19
12/21/2020 8:45:00 AM 0.67 33.206 0.393 7.3 4.79 14.21
12/21/2020 9:00:00 AM 0.71 33.278 0.393 7.29 2.84 14.22
12/21/2020 9:15:00 AM 0.77 33.386 0.393 7.3 4.82 14.23
12/21/2020 9:30:00 AM 0.83 33.494 0.392 7.29 3.4 14.27
12/21/2020 9:45:00 AM 0.9 33.62 0.392 7.3 3.84 14.3
12/21/2020 10:00:00 AM 0.97 33.746 0.392 7.31 3.67 14.34
12/21/2020 10:15:00 AM 1.02 33.836 0.392 7.3 4.32 14.38
12/21/2020 10:30:00 AM 1.08 33.944 0.392 7.29 3.91 14.41
12/21/2020 10:45:00 AM 1.12 34.016 0.392 7.3 3.72 14.44
12/21/2020 11:00:00 AM 1.17 34.106 0.391 7.31 3.36 14.47
12/21/2020 11:15:00 AM 1.22 34.196 0.391 7.31 3.34 14.47
12/21/2020 11:30:00 AM 1.25 34.25 0.387 7.32 4.45 14.45
12/21/2020 11:45:00 AM 1.31 34.358 0.391 7.32 2.55 14.48
12/21/2020 12:00:00 PM 1.33 34.394 0.391 7.33 3.01 14.48
12/21/2020 12:15:00 PM 1.37 34.466 0.391 7.33 3.19 14.48
12/21/2020 12:30:00 PM 1.38 34.484 0.39 7.33 3.39 14.48
12/21/2020 12:45:00 PM 1.4 34.52 0.39 7.33 3.32 14.49
12/21/2020 1:00:00 PM 1.43 34.574 0.39 7.34 3.6 14.47
12/21/2020 1:15:00 PM 1.45 34.61 0.39 7.34 3.13 14.48
12/21/2020 1:30:00 PM 1.48 34.664 0.39 7.35 2.87 14.48
12/21/2020 1:45:00 PM 1.5 34.7 0.39 7.35 2.36 14.47
12/21/2020 2:00:00 PM 1.53 34.754 0.39 7.34 2.34 14.46
12/21/2020 2:15:00 PM 1.58 34.844 0.39 7.34 2.65 14.45
12/21/2020 2:30:00 PM 1.62 34.916 0.39 7.34 2.52 14.45
12/21/2020 2:45:00 PM 1.61 34.898 0.39 7.34 2.62 14.43
12/21/2020 3:00:00 PM 1.63 34.934 0.39 7.34 2.6 14.44
12/21/2020 3:15:00 PM 1.62 34.916 0.39 7.34 2.97 14.42
12/21/2020 3:30:00 PM 1.6 34.88 0.389 7.34 2.73 14.4
12/21/2020 3:45:00 PM 1.56 34.808 0.39 7.34 2.63 14.37
12/21/2020 4:00:00 PM 1.52 34.736 0.39 7.34 2.62 14.34
12/21/2020 4:15:00 PM 1.48 34.664 0.39 7.33 2.58 14.27
12/21/2020 4:30:00 PM 1.43 34.574 0.39 7.33 3.05 14.22
12/21/2020 4:45:00 PM 1.39 34.502 0.39 7.33 3.53 14.16
12/21/2020 5:00:00 PM 1.36 34.448 0.39 7.32 7.93 14.09
12/21/2020 5:15:00 PM 1.32 34.376 0.388 7.31 4.18 14.03
12/21/2020 5:30:00 PM 1.3 34.34 0.383 7.31 2.93 13.97
12/21/2020 5:45:00 PM 1.28 34.304 0.39 7.31 2.66 13.89
12/21/2020 6:00:00 PM 1.27 34.286 0.39 7.3 2.82 13.85
12/21/2020 6:15:00 PM 1.26 34.268 0.39 7.3 2.39 13.82
12/21/2020 6:30:00 PM 1.24 34.232 0.39 7.3 2.33 13.78
12/21/2020 6:45:00 PM 1.22 34.196 0.39 7.28 2.63 13.77
12/21/2020 7:00:00 PM 1.22 34.196 0.39 7.29 2.66 13.77
12/21/2020 7:15:00 PM 1.21 34.178 0.39 7.27 2.77 13.74
12/21/2020 7:30:00 PM 1.21 34.178 0.39 7.27 2.78 13.74
12/21/2020 7:45:00 PM 1.2 34.16 0.39 7.27 2.81 13.75
12/21/2020 8:00:00 PM 1.21 34.178 0.391 7.26 2.66 13.74
12/21/2020 8:15:00 PM 1.21 34.178 0.39 7.27 3.46 13.74
12/21/2020 8:30:00 PM 1.21 34.178 0.391 7.27 3.02 13.75
12/21/2020 8:45:00 PM 1.22 34.196 0.391 7.26 2.59 13.74
12/21/2020 9:00:00 PM 1.23 34.214 0.391 7.26 3.06 13.73
12/21/2020 9:15:00 PM 1.24 34.232 0.385 7.26 2.66 13.74
12/21/2020 9:30:00 PM 1.25 34.25 0.391 7.27 2.69 13.74
12/21/2020 9:45:00 PM 1.26 34.268 0.39 7.27 2.95 13.72
12/21/2020 10:00:00 PM 1.28 34.304 0.39 7.28 3.07 13.75
12/21/2020 10:15:00 PM 1.29 34.322 0.391 7.27 2.41 13.73
12/21/2020 10:30:00 PM 1.3 34.34 0.391 7.27 2.39 13.73
12/21/2020 10:45:00 PM 1.33 34.394 0.365 7.27 2.93 13.71
12/21/2020 11:00:00 PM 1.34 34.412 0.384 7.27 2.33 13.71
12/21/2020 11:15:00 PM 1.36 34.448 0.392 7.27 2.57 13.71
12/21/2020 11:30:00 PM 1.38 34.484 0.392 7.28 2.88 13.72
12/21/2020 11:45:00 PM 1.4 34.52 0.39 7.28 2.52 13.69
12/22/2020 12:00:00 AM 1.42 34.556 0.39 7.27 3.15 13.7
12/22/2020 12:15:00 AM 1.44 34.592 0.393 7.27 2.45 13.67
12/22/2020 12:30:00 AM 1.47 34.646 0.393 7.28 3.01 13.69
12/22/2020 12:45:00 AM 1.49 34.682 0.394 7.29 3.44 13.7
12/22/2020 1:00:00 AM 1.52 34.736 0.394 7.29 2.89 13.69
12/22/2020 1:15:00 AM 1.54 34.772 0.394 7.28 4.37 13.69
12/22/2020 1:30:00 AM 1.57 34.826 0.395 7.29 3.88 13.69
12/22/2020 1:45:00 AM 1.59 34.862 0.395 7.3 4.19 13.69
12/22/2020 2:00:00 AM 1.63 34.934 0.395 7.31 2.88 13.69
12/22/2020 2:15:00 AM 1.65 34.97 0.393 7.3 3.48 13.69
12/22/2020 2:30:00 AM 1.68 35.024 0.396 7.29 3.43 13.66
12/22/2020 2:45:00 AM 1.71 35.078 0.395 7.3 3.03 13.65
12/22/2020 3:00:00 AM 1.74 35.132 0.398 7.31 2.48 13.66
12/22/2020 3:15:00 AM 1.77 35.186 0.397 7.31 2.95 13.68
12/22/2020 3:30:00 AM 1.8 35.24 0.391 7.31 3.05 13.66
12/22/2020 3:45:00 AM 1.83 35.294 0.399 7.32 3.19 13.66
12/22/2020 4:00:00 AM 1.86 35.348 0.4 7.33 2.98 13.64
12/22/2020 4:15:00 AM 1.87 35.366 0.4 7.33 3.01 13.61
12/22/2020 4:30:00 AM 1.9 35.42 0.399 7.32 3.17 13.64
12/22/2020 4:45:00 AM 1.93 35.474 0.4 7.31 2.48 13.62
12/22/2020 5:00:00 AM 1.94 35.492 0.401 7.32 3.41 13.63
12/22/2020 5:15:00 AM 1.95 35.51 0.394 7.33 3.3 13.62
12/22/2020 5:30:00 AM 1.96 35.528 0.362 7.33 2.83 13.61
12/22/2020 5:45:00 AM 1.96 35.528 0.385 7.33 3.4 13.62
12/22/2020 6:00:00 AM 1.97 35.546 0.402 7.33 3.06 13.59
12/22/2020 6:15:00 AM 1.97 35.546 0.402 7.33 2.82 13.58
12/22/2020 6:30:00 AM 1.98 35.564 0.402 7.32 2.69 13.59
12/22/2020 6:45:00 AM 1.98 35.564 0.403 7.34 4.28 13.58
12/22/2020 7:00:00 AM 2 35.6 0.403 7.33 2.9 13.57
12/22/2020 7:15:00 AM 2.01 35.618 0.403 7.33 2.57 13.57
12/22/2020 7:30:00 AM 2.02 35.636 0.403 7.32 2.59 13.56
12/22/2020 7:45:00 AM 2.02 35.636 0.403 7.33 2.35 13.56
12/22/2020 8:00:00 AM 2.03 35.654 0.403 7.33 2.89 13.55
12/22/2020 8:15:00 AM 2.05 35.69 0.402 7.34 3.29 13.55
12/22/2020 8:30:00 AM 2.08 35.744 0.402 7.33 2.81 13.57
12/22/2020 8:45:00 AM 2.09 35.762 0.402 7.34 2.94 13.59
12/22/2020 9:00:00 AM 2.1 35.78 0.402 7.34 2.89 13.67
12/22/2020 9:15:00 AM 2.11 35.798 0.402 7.35 3.17 13.72
12/22/2020 9:30:00 AM 2.15 35.87 0.401 7.36 2.84 13.77
12/22/2020 9:45:00 AM 2.19 35.942 0.401 7.35 3.14 13.81
12/22/2020 10:00:00 AM 2.22 35.996 0.401 7.35 2.63 13.85
12/22/2020 10:15:00 AM 2.26 36.068 0.4 7.37 2.92 13.89
12/22/2020 10:30:00 AM 2.28 36.104 0.4 7.37 3.01 13.88
12/22/2020 10:45:00 AM 2.34 36.212 0.399 7.38 3.05 13.94
12/22/2020 11:00:00 AM 2.45 36.41 0.399 7.38 2.59 13.96
12/22/2020 11:15:00 AM 2.54 36.572 0.398 7.39 3.47 13.99
12/22/2020 11:30:00 AM 2.59 36.662 0.398 7.39 2.53 14.02
12/22/2020 11:45:00 AM 2.64 36.752 0.397 7.39 2.94 14.03
12/22/2020 12:00:00 PM 2.7 36.86 0.397 7.4 3.73 14.05
12/22/2020 12:15:00 PM 2.81 37.058 0.396 7.41 2.78 14.07
12/22/2020 12:30:00 PM 2.95 37.31 0.396 7.42 2.64 14.06
12/22/2020 12:45:00 PM 3.03 37.454 0.395 7.41 2.53 14.05
12/22/2020 1:00:00 PM 3.13 37.634 0.395 7.42 2.75 14.06
12/22/2020 1:15:00 PM 3.29 37.922 0.394 7.42 2.99 14.07
12/22/2020 1:30:00 PM 3.38 38.084 0.394 7.42 26.54 14.08
12/22/2020 1:45:00 PM 3.37 38.066 0.393 7.43 3 14.08
12/22/2020 2:00:00 PM 3.31 37.958 0.393 7.41 2.97 14.05
12/22/2020 2:15:00 PM 3.24 37.832 0.393 7.4 3.04 14.01
12/22/2020 2:30:00 PM 3.15 37.67 0.393 7.4 2.94 13.95
12/22/2020 2:45:00 PM 3.04 37.472 0.393 7.39 2.58 13.88
12/22/2020 3:00:00 PM 2.92 37.256 0.393 7.38 3.9 13.82
12/22/2020 3:15:00 PM 2.83 37.094 0.386 7.38 3.89 13.73
12/22/2020 3:30:00 PM 2.77 36.986 0.392 7.37 4.03 13.68
12/22/2020 3:45:00 PM 2.71 36.878 0.391 7.37 4 13.63
12/22/2020 4:00:00 PM 2.68 36.824 0.392 7.37 4.36 13.6
12/22/2020 4:15:00 PM 2.67 36.806 0.392 7.37 7.36 13.55
12/22/2020 4:30:00 PM 2.66 36.788 0.348 7.35 5.47 13.54
12/22/2020 4:45:00 PM 2.65 36.77 0.388 7.34 4.23 13.51
12/22/2020 5:00:00 PM 2.63 36.734 0.391 7.33 4.86 13.48
12/22/2020 5:15:00 PM 2.61 36.698 0.391 7.33 4.31 13.43
12/22/2020 5:30:00 PM 2.58 36.644 0.391 7.32 4.08 13.37
12/22/2020 5:45:00 PM 2.56 36.608 0.391 7.31 3.01 13.35
12/22/2020 6:00:00 PM 2.53 36.554 0.391 7.29 3.57 13.33
12/22/2020 6:15:00 PM 2.52 36.536 0.391 7.3 2.83 13.31
12/22/2020 6:30:00 PM 2.52 36.536 0.391 7.3 3.04 13.27
12/22/2020 6:45:00 PM 2.52 36.536 0.391 7.28 3.62 13.26
12/22/2020 7:00:00 PM 2.53 36.554 0.391 7.27 3.69 13.25
12/22/2020 7:15:00 PM 2.55 36.59 0.391 7.28 3.36 13.26
12/22/2020 7:30:00 PM 2.56 36.608 0.391 7.28 3.26 13.25
12/22/2020 7:45:00 PM 2.57 36.626 0.391 7.27 3.11 13.26
12/22/2020 8:00:00 PM 2.59 36.662 0.391 7.28 3.24 13.26
12/22/2020 8:15:00 PM 2.58 36.644 0.391 7.27 2.78 13.25
12/22/2020 8:30:00 PM 2.55 36.59 0.391 7.26 3.22 13.27
12/22/2020 8:45:00 PM 2.54 36.572 0.39 7.27 3.02 13.27
12/22/2020 9:00:00 PM 2.52 36.536 0.39 7.28 3.35 13.28
12/22/2020 9:15:00 PM 2.51 36.518 0.391 7.28 3.34 13.28
12/22/2020 9:30:00 PM 2.51 36.518 0.391 7.27 3.45 13.29
12/22/2020 9:45:00 PM 2.52 36.536 0.391 7.27 2.91 13.3
12/22/2020 10:00:00 PM 2.5 36.5 0.391 7.27 3.4 13.3
12/22/2020 10:15:00 PM 2.5 36.5 0.391 7.27 2.7 13.32
12/22/2020 10:30:00 PM 2.51 36.518 0.391 7.26 2.57 13.32
12/22/2020 10:45:00 PM 2.51 36.518 0.391 7.27 3.43 13.33
12/22/2020 11:00:00 PM 2.5 36.5 0.391 7.29 2.78 13.32
12/22/2020 11:15:00 PM 2.5 36.5 0.391 7.3 2.87 13.35
12/22/2020 11:30:00 PM 2.5 36.5 0.389 7.3 3.42 13.36
12/22/2020 11:45:00 PM 2.5 36.5 0.356 7.31 2.7 13.36
12/23/2020 12:00:00 AM 2.51 36.518 0.378 7.31 2.65 13.37
12/23/2020 12:15:00 AM 2.51 36.518 0.335 7.31 2.72 13.37
12/23/2020 12:30:00 AM 2.53 36.554 0.39 7.32 3.12 13.37
12/23/2020 12:45:00 AM 2.55 36.59 0.375 7.32 3.19 13.37
12/23/2020 1:00:00 AM 2.58 36.644 0.388 7.33 2.64 13.35
12/23/2020 1:15:00 AM 2.59 36.662 0.372 7.33 3.29 13.4
12/23/2020 1:30:00 AM 2.62 36.716 0.356 7.34 2.85 13.38
12/23/2020 1:45:00 AM 2.65 36.77 0.389 7.35 3.67 13.38
12/23/2020 2:00:00 AM 2.66 36.788 0.388 7.35 2.9 13.37
12/23/2020 2:15:00 AM 2.68 36.824 0.384 7.35 4.43 13.39
12/23/2020 2:30:00 AM 2.68 36.824 0.373 7.35 4.4 13.38
12/23/2020 2:45:00 AM 2.68 36.824 0.389 7.35 2.93 13.39
12/23/2020 3:00:00 AM 2.68 36.824 0.389 7.36 3.24 13.37
12/23/2020 3:15:00 AM 2.68 36.824 0.372 7.35 4.66 13.39
12/23/2020 3:30:00 AM 2.67 36.806 0.347 7.36 4.72 13.4
12/23/2020 3:45:00 AM 2.67 36.806 0.386 7.37 3.2 13.39
12/23/2020 4:00:00 AM 2.67 36.806 0.362 7.36 4.56 13.39
12/23/2020 4:15:00 AM 2.67 36.806 0.359 7.36 3.38 13.39
12/23/2020 4:30:00 AM 2.66 36.788 0.348 7.36 3.63 13.38
12/23/2020 4:45:00 AM 2.64 36.752 0.342 7.36 4.19 13.39
12/23/2020 5:00:00 AM 2.64 36.752 0.34 7.37 4.67 13.38
12/23/2020 5:15:00 AM 2.62 36.716 0.349 7.35 3.84 13.37
12/23/2020 5:30:00 AM 2.6 36.68 0.374 7.36 4.05 13.37
12/23/2020 5:45:00 AM 2.58 36.644 0.373 7.35 3.38 13.37
12/23/2020 6:00:00 AM 2.55 36.59 0.337 7.36 2.86 13.37
12/23/2020 6:15:00 AM 2.55 36.59 0.384 7.35 3.49 13.36
12/23/2020 6:30:00 AM 2.52 36.536 0.385 7.34 4.41 13.34
12/23/2020 6:45:00 AM 2.52 36.536 0.386 7.35 3.57 13.35
12/23/2020 7:00:00 AM 2.48 36.464 0.385 7.35 3.9 13.35
12/23/2020 7:15:00 AM 2.47 36.446 0.386 7.34 3.31 13.33
12/23/2020 7:30:00 AM 2.37 36.266 0.385 7.33 4.98 13.33
12/23/2020 7:45:00 AM 2.44 36.392 0.386 7.34 4.7 13.35
12/23/2020 8:00:00 AM 2.43 36.374 0.38 7.34 4.5 13.35
12/23/2020 8:15:00 AM 2.41 36.338 0.385 7.33 4.8 13.38
12/23/2020 8:30:00 AM 2.39 36.302 0.385 7.34 3.99 13.4
12/23/2020 8:45:00 AM 2.41 36.338 0.383 7.34 5.25 13.43
12/23/2020 9:00:00 AM 2.4 36.32 0.384 7.34 3.89 13.44
12/23/2020 9:15:00 AM 2.41 36.338 0.383 7.33 5.15 13.51
12/23/2020 9:30:00 AM 2.42 36.356 0.384 7.34 3.96 13.56
12/23/2020 9:45:00 AM 2.44 36.392 0.383 7.34 3.7 13.58
12/23/2020 10:00:00 AM 2.45 36.41 0.348 7.33 4.71 13.62
12/23/2020 10:15:00 AM 2.48 36.464 0.367 7.35 3.8 13.66
12/23/2020 10:30:00 AM 2.5 36.5 0.384 7.35 5.22 13.69
12/23/2020 10:45:00 AM 2.54 36.572 0.378 7.34 4.35 13.7
12/23/2020 11:00:00 AM 2.58 36.644 0.38 7.34 4.51 13.71
12/23/2020 11:15:00 AM 2.64 36.752 0.381 7.36 3.46 13.75
12/23/2020 11:30:00 AM 2.68 36.824 0.381 7.35 3.83 13.76
12/23/2020 11:45:00 AM 2.72 36.896 0.379 7.35 3.58 13.75
12/23/2020 12:00:00 PM 2.78 37.004 0.38 7.35 3.28 13.75
12/23/2020 12:15:00 PM 2.83 37.094 0.379 7.35 3.54 13.76
12/23/2020 12:30:00 PM 2.86 37.148 0.379 7.36 4.42 13.76
12/23/2020 12:45:00 PM 2.92 37.256 0.36 7.35 3.58 13.76
12/23/2020 1:00:00 PM 2.93 37.274 0.337 7.35 4.23 13.77
12/23/2020 1:15:00 PM 2.94 37.292 0.346 7.36 4.33 13.76
12/23/2020 1:30:00 PM 2.97 37.346 0.346 7.36 5.03 13.75
12/23/2020 1:45:00 PM 2.96 37.328 0.359 7.35 4.23 13.76
12/23/2020 2:00:00 PM 2.94 37.292 0.374 7.35 3.93 13.76
12/23/2020 2:15:00 PM 2.95 37.31 0.364 7.36 3.55 13.74
12/23/2020 2:30:00 PM 2.94 37.292 0.362 7.34 3.94 13.76
12/23/2020 2:45:00 PM 2.92 37.256 0.365 7.35 3.59 13.75
12/23/2020 3:00:00 PM 2.89 37.202 0.377 7.35 3.69 13.74
12/23/2020 3:15:00 PM 2.85 37.13 0.377 7.35 3.82 13.75
12/23/2020 3:30:00 PM 2.84 37.112 0.377 7.35 4.16 13.71
12/23/2020 3:45:00 PM 2.81 37.058 0.377 7.35 4.01 13.71
12/23/2020 4:00:00 PM 2.79 37.022 0.377 7.35 5.43 13.69
12/23/2020 4:15:00 PM 2.77 36.986 0.376 7.36 3.75 13.67
12/23/2020 4:30:00 PM 2.76 36.968 0.367 7.35 5.01 13.65
12/23/2020 4:45:00 PM 2.74 36.932 0.377 7.35 4.01 13.62
12/23/2020 5:00:00 PM 2.73 36.914 0.376 7.35 4.27 13.56
12/23/2020 5:15:00 PM 2.74 36.932 0.376 7.35 5.64 13.55
12/23/2020 5:30:00 PM 2.75 36.95 0.376 7.35 5.83 13.52
12/23/2020 5:45:00 PM 2.77 36.986 0.376 7.35 5.11 13.51
12/23/2020 6:00:00 PM 2.79 37.022 0.376 7.34 7.08 13.47
12/23/2020 6:15:00 PM 2.81 37.058 0.371 7.36 5.45 13.49
12/23/2020 6:30:00 PM 2.83 37.094 0.36 7.35 8.35 13.49
12/23/2020 6:45:00 PM 2.85 37.13 0.362 7.37 5.92 13.47
12/23/2020 7:00:00 PM 2.88 37.184 0.325 7.36 9.16 13.5
12/23/2020 7:15:00 PM 2.9 37.22 0.344 7.36 5.86 13.48
12/23/2020 7:30:00 PM 2.92 37.256 0.359 7.36 8.1 13.5
12/23/2020 7:45:00 PM 2.95 37.31 0.367 7.36 11.87 13.5
12/23/2020 8:00:00 PM 2.98 37.364 0.377 7.37 13.23 13.49
12/23/2020 8:15:00 PM 2.99 37.382 0.377 7.37 8.4 13.5
12/23/2020 8:30:00 PM 2.99 37.382 0.377 7.37 10.64 13.48
12/23/2020 8:45:00 PM 3.01 37.418 0.377 7.37 6.81 13.47
12/23/2020 9:00:00 PM 3.02 37.436 0.327 7.37 8.37 13.49
12/23/2020 9:15:00 PM 3.03 37.454 0.355 7.36 7.21 13.47
12/23/2020 9:30:00 PM 3.04 37.472 0.342 7.38 7.52 13.47
12/23/2020 9:45:00 PM 3.04 37.472 0.339 7.37 8.69 13.47
12/23/2020 10:00:00 PM 3.04 37.472 0.367 7.38 7.62 13.46
12/23/2020 10:15:00 PM 3.05 37.49 0.377 7.37 8.69 13.46
12/23/2020 10:30:00 PM 3.05 37.49 0.376 7.37 8.46 13.46
12/23/2020 10:45:00 PM 3.04 37.472 0.309 7.37 7.82 13.44
12/23/2020 11:00:00 PM 3.03 37.454 0.362 7.37 7.82 13.45
12/23/2020 11:15:00 PM 3.01 37.418 0.377 7.36 6.72 13.43
12/23/2020 11:30:00 PM 3.01 37.418 0.377 7.36 9.52 13.4
12/23/2020 11:45:00 PM 3 37.4 0.347 7.36 7.59 13.42
12/24/2020 12:00:00 AM 3 37.4 0.347 7.36 7.78 13.38
12/24/2020 12:15:00 AM 3 37.4 0.365 7.36 9.84 13.37
12/24/2020 12:30:00 AM 3 37.4 0.318 7.35 12 13.38
12/24/2020 12:45:00 AM 3 37.4 0.376 7.35 9.07 13.36
12/24/2020 1:00:00 AM 3.01 37.418 0.365 7.35 9.61 13.34
12/24/2020 1:15:00 AM 3.01 37.418 0.375 7.34 8.55 13.34
12/24/2020 1:30:00 AM 3.02 37.436 0.375 7.34 9.03 13.32
12/24/2020 1:45:00 AM 3.02 37.436 0.375 7.34 9.24 13.32
12/24/2020 2:00:00 AM 3.03 37.454 0.375 7.34 8.79 13.29
12/24/2020 2:15:00 AM 3.03 37.454 0.375 7.34 11.54 13.29
12/24/2020 2:30:00 AM 3.03 37.454 0.374 7.32 8.22 13.27
12/24/2020 2:45:00 AM 3.03 37.454 0.374 7.3 8.68 13.28
12/24/2020 3:00:00 AM 3.04 37.472 0.361 7.3 13.49 13.25
12/24/2020 3:15:00 AM 3.04 37.472 0.373 7.3 8.29 13.25
12/24/2020 3:30:00 AM 3.04 37.472 0.373 7.31 9.47 13.23
12/24/2020 3:45:00 AM 3.04 37.472 0.373 7.31 10.98 13.19
12/24/2020 4:00:00 AM 3.04 37.472 0.372 7.3 9.4 13.21
12/24/2020 4:15:00 AM 3.04 37.472 0.372 7.3 10.39 13.2
12/24/2020 4:30:00 AM 3.04 37.472 0.372 7.3 8.28 13.19
12/24/2020 4:45:00 AM 3.04 37.472 0.372 7.29 12.4 13.16
12/24/2020 5:00:00 AM 3.04 37.472 0.371 7.29 8.94 13.17
12/24/2020 5:15:00 AM 3.04 37.472 0.371 7.28 9.51 13.16
12/24/2020 5:30:00 AM 3.05 37.49 0.371 7.28 8.68 13.17
12/24/2020 5:45:00 AM 3.05 37.49 0.372 7.28 10.35 13.15
12/24/2020 6:00:00 AM 3.06 37.508 0.372 7.28 9.21 13.13
12/24/2020 6:15:00 AM 3.06 37.508 0.372 7.27 8.75 13.12
12/24/2020 6:30:00 AM 3.06 37.508 0.372 7.27 8.85 13.12
12/24/2020 6:45:00 AM 3.07 37.526 0.372 7.26 7.97 13.1
12/24/2020 7:00:00 AM 3.07 37.526 0.372 7.25 8.89 13.1
12/24/2020 7:15:00 AM 3.07 37.526 0.373 7.26 8.79 13.09
12/24/2020 7:30:00 AM 3.08 37.544 0.373 7.27 10.02 13.06
12/24/2020 7:45:00 AM 3.09 37.562 0.373 7.27 9.53 13.08
12/24/2020 8:00:00 AM 3.1 37.58 0.373 7.26 9.77 13.07
12/24/2020 8:15:00 AM 3.1 37.58 0.374 7.25 10.51 13.06
12/24/2020 8:30:00 AM 3.12 37.616 0.374 7.25 9.02 13.06
12/24/2020 8:45:00 AM 3.13 37.634 0.374 7.25 8.88 13.06
12/24/2020 9:00:00 AM 3.14 37.652 0.374 7.24 9.56 13.07
12/24/2020 9:15:00 AM 3.16 37.688 0.374 7.24 9.71 13.06
12/24/2020 9:30:00 AM 3.17 37.706 0.374 7.24 9.19 13.06
12/24/2020 9:45:00 AM 3.19 37.742 0.374 7.24 10.97 13.06
12/24/2020 10:00:00 AM 3.2 37.76 0.374 7.23 10.78 13.06
12/24/2020 10:15:00 AM 3.22 37.796 0.374 7.24 8.92 13.04
12/24/2020 10:30:00 AM 3.24 37.832 0.374 7.23 8.82 13.06
12/24/2020 10:45:00 AM 3.27 37.886 0.373 7.25 9.01 13.04
12/24/2020 11:00:00 AM 3.28 37.904 0.373 7.24 8.91 13.04
12/24/2020 11:15:00 AM 3.3 37.94 0.371 7.23 9.96 13.03
12/24/2020 11:30:00 AM 3.31 37.958 0.369 7.22 9.55 13.04
12/24/2020 11:45:00 AM 3.33 37.994 0.366 7.23 10.18 13.02
12/24/2020 12:00:00 PM 3.33 37.994 0.365 7.23 12.44 13.01
12/24/2020 12:15:00 PM 3.34 38.012 0.364 7.22 10.56 13.01
12/24/2020 12:30:00 PM 3.36 38.048 0.363 7.22 12.25 12.98
12/24/2020 12:45:00 PM 3.38 38.084 0.362 7.22 12.26 12.99
12/24/2020 1:00:00 PM 3.39 38.102 0.362 7.21 15.06 12.99
12/24/2020 1:15:00 PM 3.42 38.156 0.361 7.22 11.2 12.97
12/24/2020 1:30:00 PM 3.44 38.192 0.361 7.21 12.93 12.97
12/24/2020 1:45:00 PM 3.46 38.228 0.359 7.22 14.41 12.95
12/24/2020 2:00:00 PM 3.47 38.246 0.359 7.19 14.49 12.92
12/24/2020 2:15:00 PM 3.49 38.282 0.358 7.2 12.18 12.92
12/24/2020 2:30:00 PM 3.51 38.318 0.356 7.19 12.88 12.9
12/24/2020 2:45:00 PM 3.53 38.354 0.354 7.19 13.03 12.89
12/24/2020 3:00:00 PM 3.55 38.39 0.353 7.18 15.09 12.88
12/24/2020 3:15:00 PM 3.57 38.426 0.347 7.19 16.37 12.86
12/24/2020 3:30:00 PM 3.6 38.48 0.349 7.19 15.78 12.84
12/24/2020 3:45:00 PM 3.62 38.516 0.346 7.19 19.58 12.83
12/24/2020 4:00:00 PM 3.65 38.57 0.343 7.19 14.63 12.75
12/24/2020 4:15:00 PM 3.67 38.606 0.339 7.19 13.49 12.76
12/24/2020 4:30:00 PM 3.69 38.642 0.336 7.18 12.53 12.73
12/24/2020 4:45:00 PM 3.71 38.678 0.331 7.19 15.67 12.73
12/24/2020 5:00:00 PM 3.73 38.714 0.328 7.18 24.59 12.72
12/24/2020 5:15:00 PM 3.75 38.75 0.324 7.18 18.55 12.71
12/24/2020 5:30:00 PM 3.77 38.786 0.32 7.17 27.3 12.7
12/24/2020 5:45:00 PM 3.79 38.822 0.315 7.17 36.35 12.68
12/24/2020 6:00:00 PM 3.8 38.84 0.294 7.16 28.03 12.65
12/24/2020 6:15:00 PM 3.83 38.894 0.31 7.15 35.98 12.66
12/24/2020 6:30:00 PM 3.85 38.93 0.307 7.14 29.01 12.63
12/24/2020 6:45:00 PM 3.87 38.966 0.303 7.13 49.93 12.6
12/24/2020 7:00:00 PM 3.9 39.02 0.303 7.11 42.43 12.6
12/24/2020 7:15:00 PM 3.94 39.092 0.283 7.11 55.92 12.58
12/24/2020 7:30:00 PM 3.97 39.146 0.294 7.11 65.54 12.54
12/24/2020 7:45:00 PM 4 39.2 0.289 7.1 106.6 12.5
12/24/2020 8:00:00 PM 4.01 39.218 0.285 7.09 82.99 12.46
12/24/2020 8:15:00 PM 4.02 39.236 0.28 7.1 110.6 12.4
12/24/2020 8:30:00 PM 4.01 39.218 0.274 7.1 121.9 12.33
12/24/2020 8:45:00 PM 4 39.2 0.27 7.09 217.1 12.38
12/24/2020 9:00:00 PM 3.99 39.182 0.267 7.1 138.9 12.34
12/24/2020 9:15:00 PM 3.97 39.146 0.264 7.1 145.9 12.33
12/24/2020 9:30:00 PM 3.94 39.092 0.26 7.11 158.6 12.32
12/24/2020 9:45:00 PM 3.92 39.056 0.258 7.11 166.4 12.28
12/24/2020 10:00:00 PM 3.9 39.02 0.257 7.11 134.2 12.33
12/24/2020 10:15:00 PM 3.88 38.984 0.255 7.12 221.1 12.28
12/24/2020 10:30:00 PM 3.86 38.948 0.253 7.14 139.6 12.29
12/24/2020 10:45:00 PM 3.84 38.912 0.253 7.14 153.4 12.3
12/24/2020 11:00:00 PM 3.83 38.894 0.25 7.15 126.4 12.29
12/24/2020 11:15:00 PM 3.82 38.876 0.247 7.17 147.7 12.22
12/24/2020 11:30:00 PM 3.84 38.912 0.247 7.19 148.6 12.15
12/24/2020 11:45:00 PM 3.84 38.912 0.24 7.19 276.7 12.15
12/25/2020 12:00:00 AM 3.83 38.894 0.238 7.19 152.7 12.11
12/25/2020 12:15:00 AM 3.82 38.876 0.234 7.19 147.3 12.1
12/25/2020 12:30:00 AM 3.8 38.84 0.235 7.2 173.4 12.03
12/25/2020 12:45:00 AM 3.78 38.804 0.227 7.2 165.5 11.98
12/25/2020 1:00:00 AM 3.76 38.768 0.221 7.2 148.5 11.77
12/25/2020 1:15:00 AM 3.73 38.714 0.216 7.2 155.1 11.64
12/25/2020 1:30:00 AM 3.71 38.678 0.209 7.17 148.2 11.64
12/25/2020 1:45:00 AM 3.7 38.66 0.205 7.18 167.6 11.59
12/25/2020 2:00:00 AM 3.7 38.66 0.198 7.17 268 11.73
12/25/2020 2:15:00 AM 3.69 38.642 0.197 7.18 191.7 11.72
12/25/2020 2:30:00 AM 3.67 38.606 0.189 7.16 215 11.45
12/25/2020 2:45:00 AM 3.66 38.588 0.189 7.14 241.5 11.35
12/25/2020 3:00:00 AM 3.64 38.552 0.186 7.14 238.2 10.97
12/25/2020 3:15:00 AM 3.64 38.552 0.179 7.14 212.4 9.94
12/25/2020 3:30:00 AM 3.63 38.534 0.177 7.13 207.3 9.52
12/25/2020 3:45:00 AM 3.63 38.534 0.175 7.13 211.4 7.87
12/25/2020 4:00:00 AM 3.63 38.534 0.162 7.12 228.1 7.42
12/25/2020 4:15:00 AM 3.63 38.534 0.171 7.11 211 6.18
12/25/2020 4:30:00 AM 3.64 38.552 0.171 7.13 186.2 5.81
12/25/2020 4:45:00 AM 3.64 38.552 0.17 7.1 260.9 5.15
12/25/2020 5:00:00 AM 3.64 38.552 0.168 7.1 262.2 6.75
12/25/2020 5:15:00 AM 3.66 38.588 0.168 7.1 263.1 5.4
12/25/2020 5:30:00 AM 3.67 38.606 0.165 7.09 225.7 5.33
12/25/2020 5:45:00 AM 3.68 38.624 0.165 7.09 230.7 4.8
12/25/2020 6:00:00 AM 3.7 38.66 0.167 7.07 250.6 4.55
12/25/2020 6:15:00 AM 3.72 38.696 0.157 7.06 241 4.86
12/25/2020 6:30:00 AM 3.73 38.714 0.164 7.07 201.9 4.67
12/25/2020 6:45:00 AM 3.75 38.75 0.167 7.07 190.5 4.95
12/25/2020 7:00:00 AM 3.76 38.768 0.163 7.06 209.5 5.07
12/25/2020 7:15:00 AM 3.78 38.804 0.161 7.05 185.7 4.68
12/25/2020 7:30:00 AM 3.8 38.84 0.161 7.05 264.4 5.33
12/25/2020 7:45:00 AM 3.81 38.858 0.163 7.05 190.6 4.95
12/25/2020 8:00:00 AM 3.83 38.894 0.16 7.04 167.2 4.91
12/25/2020 8:15:00 AM 3.84 38.912 0.161 7.04 187.1 4.49
12/25/2020 8:30:00 AM 3.85 38.93 0.161 7.02 176.6 4.54
12/25/2020 8:45:00 AM 3.87 38.966 0.161 7.01 160.8 4.64
12/25/2020 9:00:00 AM 3.88 38.984 0.162 7 162.5 4.58
12/25/2020 9:15:00 AM 3.89 39.002 0.162 6.99 175.8 4.88
12/25/2020 9:30:00 AM 3.9 39.02 0.163 6.98 245.4 5.27
12/25/2020 9:45:00 AM 3.91 39.038 0.165 6.98 219.1 4.96
12/25/2020 10:00:00 AM 3.92 39.056 0.166 6.97 173.8 4.6
12/25/2020 10:15:00 AM 3.93 39.074 0.165 6.96 199.4 4.98
12/25/2020 10:30:00 AM 3.94 39.092 0.166 6.96 194.2 5.21
12/25/2020 10:45:00 AM 3.95 39.11 0.165 6.95 183.7 5.2
12/25/2020 11:00:00 AM 3.96 39.128 0.165 6.96 208 4.83
12/25/2020 11:15:00 AM 3.96 39.128 0.168 6.94 163 5.41
12/25/2020 11:30:00 AM 3.98 39.164 0.17 6.93 179.5 4.36
12/25/2020 11:45:00 AM 3.99 39.182 0.169 6.96 217.7 4.38
12/25/2020 12:00:00 PM 3.99 39.182 0.171 6.95 156.7 4.67
12/25/2020 12:15:00 PM 4 39.2 0.17 6.96 177.8 4.35
12/25/2020 12:30:00 PM 4.02 39.236 0.168 6.93 151.9 4.41
12/25/2020 12:45:00 PM 4.02 39.236 0.17 6.93 190.9 5
12/25/2020 1:00:00 PM 4.03 39.254 0.167 6.93 196 4.19
12/25/2020 1:15:00 PM 4.04 39.272 0.166 6.91 169.6 4.06
12/25/2020 1:30:00 PM 4.04 39.272 0.166 6.89 143.6 4.23
12/25/2020 1:45:00 PM 4.06 39.308 0.169 6.89 170.1 4.39
12/25/2020 2:00:00 PM 4.07 39.326 0.168 6.88 166.3 3.69
12/25/2020 2:15:00 PM 4.08 39.344 0.169 6.89 144.2 4.04
12/25/2020 2:30:00 PM 4.1 39.38 0.166 6.88 168 3.96
12/25/2020 2:45:00 PM 4.11 39.398 0.166 6.87 220.5 3.97
12/25/2020 3:00:00 PM 4.12 39.416 0.162 6.89 194.8 3.77
12/25/2020 3:15:00 PM 4.14 39.452 0.162 6.87 202.5 3.63
12/25/2020 3:30:00 PM 4.15 39.47 0.162 6.86 240.8 3.97
12/25/2020 3:45:00 PM 4.16 39.488 0.161 6.86 201.7 3.86
12/25/2020 4:00:00 PM 4.16 39.488 0.16 6.86 163.3 4.11
12/25/2020 4:15:00 PM 4.17 39.506 0.159 6.86 196.4 4.97
12/25/2020 4:30:00 PM 4.18 39.524 0.16 6.85 147 4.4
12/25/2020 4:45:00 PM 4.18 39.524 0.159 6.85 186.7 4.11
12/25/2020 5:00:00 PM 4.18 39.524 0.159 6.85 244.1 4.15
12/25/2020 5:15:00 PM 4.19 39.542 0.16 6.83 221.7 4.57
12/25/2020 5:30:00 PM 4.19 39.542 0.161 6.82 226.4 5.83
12/25/2020 5:45:00 PM 4.2 39.56 0.162 6.83 201.3 5.74
12/25/2020 6:00:00 PM 4.19 39.542 0.16 6.82 280.2 5.15
12/25/2020 6:15:00 PM 4.2 39.56 0.16 6.82 233.7 5.8
12/25/2020 6:30:00 PM 4.19 39.542 0.159 6.81 224.4 5.17
12/25/2020 6:45:00 PM 4.19 39.542 0.159 6.82 161.3 5.17
12/25/2020 7:00:00 PM 4.19 39.542 0.158 6.82 130.6 5.56
12/25/2020 7:15:00 PM 4.18 39.524 0.155 6.82 256.9 4.87
12/25/2020 7:30:00 PM 4.18 39.524 0.155 6.81 234.3 5.19
12/25/2020 7:45:00 PM 4.17 39.506 0.156 6.81 149.1 4.85
12/25/2020 8:00:00 PM 4.17 39.506 0.156 6.82 171.8 4.46
12/25/2020 8:15:00 PM 4.16 39.488 0.157 6.81 185.7 4.44
12/25/2020 8:30:00 PM 4.15 39.47 0.158 6.8 218 4.75
12/25/2020 8:45:00 PM 4.15 39.47 0.159 6.81 206.6 4.85
12/25/2020 9:00:00 PM 4.13 39.434 0.158 6.81 232.3 2.74
12/25/2020 9:15:00 PM 4.12 39.416 0.159 6.8 220.2 4.84
12/25/2020 9:30:00 PM 4.11 39.398 0.159 6.8 192.7 4.26
12/25/2020 9:45:00 PM 4.1 39.38 0.16 6.81 206.7 4.26
12/25/2020 10:00:00 PM 4.08 39.344 0.159 6.79 218.9 3.82
12/25/2020 10:15:00 PM 4.05 39.29 0.158 6.78 170.7 4.16
12/25/2020 10:30:00 PM 4.03 39.254 0.157 6.8 188 4.74
12/25/2020 10:45:00 PM 4.01 39.218 0.157 6.79 180.7 4.62
12/25/2020 11:00:00 PM 3.99 39.182 0.155 6.78 174.7 4.26
12/25/2020 11:15:00 PM 3.98 39.164 0.155 6.8 169 4.54
12/25/2020 11:30:00 PM 3.94 39.092 0.154 6.79 190.7 4.51
12/25/2020 11:45:00 PM 3.92 39.056 0.154 6.79 193.4 5.16
12/26/2020 12:00:00 AM 3.9 39.02 0.155 6.78 173.6 4.57
12/26/2020 12:15:00 AM 3.88 38.984 0.154 6.79 216.9 4.65
12/26/2020 12:30:00 AM 3.84 38.912 0.153 6.79 131.9 4.77
12/26/2020 12:45:00 AM 3.84 38.912 0.155 6.8 181.1 4.97
12/26/2020 1:00:00 AM 3.8 38.84 0.154 6.78 241.3 4.53
12/26/2020 1:15:00 AM 3.78 38.804 0.155 6.8 236.6 4.48
12/26/2020 1:30:00 AM 3.75 38.75 0.154 6.8 167.9 3.47
12/26/2020 1:45:00 AM 3.73 38.714 0.145 6.79 186.2 3.7
12/26/2020 2:00:00 AM 3.71 38.678 0.153 6.78 191.1 3.4
12/26/2020 2:15:00 AM 3.66 38.588 0.152 6.78 172 3.8
12/26/2020 2:30:00 AM 3.65 38.57 0.154 6.79 173.1 3.11
12/26/2020 2:45:00 AM 3.61 38.498 0.153 6.79 182.5 3.36
12/26/2020 3:00:00 AM 3.58 38.444 0.153 6.78 178.8 3.92
12/26/2020 3:15:00 AM 3.54 38.372 0.153 6.78 282.3 3.99
12/26/2020 3:30:00 AM 3.51 38.318 0.152 6.78 133.4 4.28
12/26/2020 3:45:00 AM 3.48 38.264 0.153 6.78 241.5 3.78
12/26/2020 4:00:00 AM 3.44 38.192 0.153 6.78 150.5 4.02
12/26/2020 4:15:00 AM 3.44 38.192 0.153 6.78 229.2 4.07
12/26/2020 4:30:00 AM 3.41 38.138 0.154 6.77 137.2 4.03
12/26/2020 4:45:00 AM 3.38 38.084 0.154 6.77 239.3 4.02
12/26/2020 5:00:00 AM 3.34 38.012 0.146 6.77 195.9 4.2
12/26/2020 5:15:00 AM 3.31 37.958 0.15 6.77 170 3.4
12/26/2020 5:30:00 AM 3.29 37.922 0.156 6.79 206.8 3
12/26/2020 5:45:00 AM 3.29 37.922 0.157 6.78 196.9 3.8
12/26/2020 6:00:00 AM 3.24 37.832 0.155 6.78 212.4 3.73
12/26/2020 6:15:00 AM 3.21 37.778 0.153 6.77 173.8 4.19
12/26/2020 6:30:00 AM 3.22 37.796 0.158 6.78 165.7 3.52
12/26/2020 6:45:00 AM 3.19 37.742 0.157 6.77 241.4 3.89
12/26/2020 7:00:00 AM 3.16 37.688 0.159 6.79 158.7 3.45
12/26/2020 7:15:00 AM 3.11 37.598 0.159 6.76 191.9 3.59
12/26/2020 7:30:00 AM 3.09 37.562 0.161 6.77 221.6 3.72
12/26/2020 7:45:00 AM 3.09 37.562 0.161 6.77 173.2 3.22
12/26/2020 8:00:00 AM 2.99 37.382 0.16 6.76 189.7 3.27
12/26/2020 8:15:00 AM 2.98 37.364 0.162 6.75 138 3.48
12/26/2020 8:30:00 AM 2.94 37.292 0.161 6.76 166.4 3.63
12/26/2020 8:45:00 AM 2.9 37.22 0.163 6.74 203.5 3.95
12/26/2020 9:00:00 AM 2.89 37.202 0.165 6.74 131.3 3.47
12/26/2020 9:15:00 AM 2.85 37.13 0.165 6.74 103.8 3.71
12/26/2020 9:30:00 AM 2.85 37.13 0.166 6.75 159 4.05
12/26/2020 9:45:00 AM 2.95 37.31 0.169 6.76 134.6 3.62
12/26/2020 10:00:00 AM 2.79 37.022 0.169 6.76 154.9 3.93
12/26/2020 10:15:00 AM 2.78 37.004 0.17 6.76 168.2 3.81
12/26/2020 10:30:00 AM 2.78 37.004 0.171 6.75 205.5 3.96
12/26/2020 10:45:00 AM 2.77 36.986 0.173 6.75 120.3 3.45
12/26/2020 11:00:00 AM 2.76 36.968 0.174 6.74 115.3 3.42
12/26/2020 11:15:00 AM 2.75 36.95 0.175 6.74 106.6 3.39
12/26/2020 11:30:00 AM 2.79 37.022 0.177 6.74 121.6 2.71
12/26/2020 11:45:00 AM 2.79 37.022 0.178 6.74 144.4 2.76
12/26/2020 12:00:00 PM 2.77 36.986 0.179 6.72 142.4 3.52
12/26/2020 12:15:00 PM 2.78 37.004 0.18 6.73 199.5 3.53
12/26/2020 12:30:00 PM 2.77 36.986 0.182 6.74 159.8 3.32
12/26/2020 12:45:00 PM 2.79 37.022 0.183 6.72 250.7 3.09
12/26/2020 1:00:00 PM 2.85 37.13 0.184 6.73 178.6 3.45
12/26/2020 1:15:00 PM 2.72 36.896 0.183 6.7 212.5 3.48
12/26/2020 1:30:00 PM 2.73 36.914 0.185 6.72 107.2 4.14
12/26/2020 1:45:00 PM 2.73 36.914 0.186 6.73 156.6 4.5
12/26/2020 2:00:00 PM 2.73 36.914 0.189 6.72 162.7 4.94
12/26/2020 2:15:00 PM 2.74 36.932 0.188 6.73 127.3 3.98
12/26/2020 2:30:00 PM 2.73 36.914 0.189 6.73 113.4 5.68
12/26/2020 2:45:00 PM 2.73 36.914 0.19 6.74 164.7 5.34
12/26/2020 3:00:00 PM 2.73 36.914 0.191 6.74 138.6 5.1
12/26/2020 3:15:00 PM 2.73 36.914 0.192 6.75 137.7 5.31
12/26/2020 3:30:00 PM 2.74 36.932 0.193 6.77 143.7 5.15
12/26/2020 3:45:00 PM 2.77 36.986 0.195 6.76 155.7 5.35
12/26/2020 4:00:00 PM 2.79 37.022 0.197 6.77 154.7 4.81
12/26/2020 4:15:00 PM 2.78 37.004 0.198 6.76 141.6 4.49
12/26/2020 4:30:00 PM 2.79 37.022 0.2 6.77 132.9 4.84
12/26/2020 4:45:00 PM 2.82 37.076 0.201 6.76 180.7 4.19
12/26/2020 5:00:00 PM 2.81 37.058 0.202 6.77 141.3 4.55
12/26/2020 5:15:00 PM 2.83 37.094 0.202 6.76 173.8 3.64
12/26/2020 5:30:00 PM 2.86 37.148 0.205 6.76 164 3.57
12/26/2020 5:45:00 PM 2.83 37.094 0.205 6.74 152 3.36
12/26/2020 6:00:00 PM 2.9 37.22 0.205 6.78 202.8 3.68
12/26/2020 6:15:00 PM 2.88 37.184 0.199 6.76 235.2 3.66
12/26/2020 6:30:00 PM 2.86 37.148 0.199 6.77 176.1 3.6
12/26/2020 6:45:00 PM 2.9 37.22 0.205 6.79 189.6 3.61
12/26/2020 7:00:00 PM 2.79 37.022 0.2 6.78 275.4 3.97
12/26/2020 7:15:00 PM 2.75 36.95 0.201 6.78 208.3 4.33
12/26/2020 7:30:00 PM 2.78 37.004 0.201 6.78 212 5.39
12/26/2020 7:45:00 PM 2.78 37.004 0.202 6.79 210.4 4.41
12/26/2020 8:00:00 PM 2.79 37.022 0.202 6.78 212.6 5.29
12/26/2020 8:15:00 PM 2.73 36.914 0.203 6.78 185.4 5.24
12/26/2020 8:30:00 PM 2.72 36.896 0.203 6.78 146.5 4.66
12/26/2020 8:45:00 PM 2.75 36.95 0.204 6.79 156.9 4.87
12/26/2020 9:00:00 PM 2.71 36.878 0.204 6.78 144.5 5.62
12/26/2020 9:15:00 PM 2.77 36.986 0.205 6.78 143.2 5.48
12/26/2020 9:30:00 PM 2.79 37.022 0.205 6.8 151.2 5.52
12/26/2020 9:45:00 PM 2.84 37.112 0.205 6.82 176.1 5.06
12/26/2020 10:00:00 PM 2.81 37.058 0.206 6.82 171.4 4.97
12/26/2020 10:15:00 PM 2.76 36.968 0.207 6.82 183.6 4.81
12/26/2020 10:30:00 PM 2.84 37.112 0.207 6.82 154.3 4.91
12/26/2020 10:45:00 PM 2.77 36.986 0.207 6.82 140.6 4.7
12/26/2020 11:00:00 PM 2.74 36.932 0.208 6.82 199.8 5.19
12/26/2020 11:15:00 PM 2.73 36.914 0.209 6.82 298.4 5.19
12/26/2020 11:30:00 PM 2.88 37.184 0.208 6.84 200.2 5.48
12/26/2020 11:45:00 PM 2.92 37.256 0.21 6.84 194.9 4.18
12/27/2020 12:00:00 AM 2.9 37.22 0.22 6.84 210.5 3.63
12/27/2020 12:15:00 AM 2.86 37.148 0.221 6.83 220.2 3.61
12/27/2020 12:30:00 AM 2.9 37.22 0.219 6.85 214.2 3.45
12/27/2020 12:45:00 AM 2.87 37.166 0.221 6.84 221.6 3.3
12/27/2020 1:00:00 AM 2.88 37.184 0.219 6.85 158.2 3.09
12/27/2020 1:15:00 AM 2.86 37.148 0.223 6.84 199.5 2.69
12/27/2020 1:30:00 AM 2.81 37.058 0.215 6.85 132.6 2.46
12/27/2020 1:45:00 AM 2.84 37.112 0.217 6.85 146.7 2.47
12/27/2020 2:00:00 AM 2.85 37.13 0.216 6.85 141.8 2.61
12/27/2020 2:15:00 AM 2.81 37.058 0.219 6.85 182.6 2.62
12/27/2020 2:30:00 AM 2.84 37.112 0.217 6.85 212.3 2.43
12/27/2020 2:45:00 AM 2.8 37.04 0.222 6.86 189.2 2.4
12/27/2020 3:00:00 AM 2.83 37.094 0.212 6.85 237.3 1.82
12/27/2020 3:15:00 AM 2.84 37.112 0.21 6.84 181.3 1.75
12/27/2020 3:30:00 AM 2.83 37.094 0.212 6.83 259 1.61
12/27/2020 3:45:00 AM 2.87 37.166 0.223 6.84 146.9 1.77
12/27/2020 4:00:00 AM 2.86 37.148 0.222 6.86 180.7 1.9
12/27/2020 4:15:00 AM 2.8 37.04 0.226 6.85 213.8 2.4
12/27/2020 4:30:00 AM 2.88 37.184 0.227 6.86 147 2.5
12/27/2020 4:45:00 AM 2.86 37.148 0.221 6.85 214.2 2.66
12/27/2020 5:00:00 AM 2.88 37.184 0.22 6.87 198.6 2.34
12/27/2020 5:15:00 AM 2.88 37.184 0.227 6.84 179 1.82
12/27/2020 5:30:00 AM 2.91 37.238 0.219 6.85 184.3 1.92
12/27/2020 5:45:00 AM 2.9 37.22 0.224 6.85 170.3 1.64
12/27/2020 6:00:00 AM 2.89 37.202 0.221 6.85 159.1 1.43
12/27/2020 6:15:00 AM 2.88 37.184 0.232 6.84 150.5 1.7
12/27/2020 6:30:00 AM 2.9 37.22 0.226 6.85 170.2 1.67
12/27/2020 6:45:00 AM 2.9 37.22 0.225 6.84 148.8 1.89
12/27/2020 7:00:00 AM 2.92 37.256 0.23 6.84 136.7 1.65
12/27/2020 7:15:00 AM 2.9 37.22 0.231 6.85 197.6 1.72
12/27/2020 7:30:00 AM 2.9 37.22 0.232 6.84 154.4 1.66
12/27/2020 7:45:00 AM 2.93 37.274 0.235 6.86 166 1.89
12/27/2020 8:00:00 AM 2.89 37.202 0.219 6.86 274.7 1.83
12/27/2020 8:15:00 AM 2.9 37.22 0.237 6.87 163.4 1.84
12/27/2020 8:30:00 AM 2.86 37.148 0.237 6.88 304.9 2
12/27/2020 8:45:00 AM 2.82 37.076 0.237 6.89 249.7 2.06
12/27/2020 9:00:00 AM 2.86 37.148 0.237 6.9 242.8 1.78
12/27/2020 9:15:00 AM 2.9 37.22 0.238 6.9 216.8 1.48
12/27/2020 9:30:00 AM 2.92 37.256 0.237 6.89 210.1 1.73
12/27/2020 9:45:00 AM 2.91 37.238 0.24 6.89 195.8 1.53
12/27/2020 10:00:00 AM 2.91 37.238 0.231 6.88 288.1 1.22
12/27/2020 10:15:00 AM 2.91 37.238 0.236 6.89 183.5 1.31
12/27/2020 10:30:00 AM 2.93 37.274 0.236 6.87 225.2 1.54
12/27/2020 10:45:00 AM 2.89 37.202 0.236 6.87 156.8 1.63
12/27/2020 11:00:00 AM 2.93 37.274 0.24 6.87 196.2 1.76
12/27/2020 11:15:00 AM 2.93 37.274 0.23 6.87 213.8 1.37
12/27/2020 11:30:00 AM 2.91 37.238 0.234 6.87 226.5 1.37
12/27/2020 11:45:00 AM 2.97 37.346 0.236 6.87 204.8 1.31
12/27/2020 12:00:00 PM 2.99 37.382 0.238 6.88 184 1.35
12/27/2020 12:15:00 PM 2.98 37.364 0.238 6.87 153.6 1.45
12/27/2020 12:30:00 PM 3 37.4 0.239 6.85 197.7 1.5
12/27/2020 12:45:00 PM 3.06 37.508 0.24 6.87 188.5 1.97
12/27/2020 1:00:00 PM 3.07 37.526 0.239 6.89 219.4 1.3
12/27/2020 1:15:00 PM 3.09 37.562 0.239 6.89 167.2 1.49
12/27/2020 1:30:00 PM 3.13 37.634 0.239 6.9 179.6 1.69
12/27/2020 1:45:00 PM 3.16 37.688 0.24 6.89 184.1 1.91
12/27/2020 2:00:00 PM 3.21 37.778 0.241 6.92 169.9 1.66
12/27/2020 2:15:00 PM 3.24 37.832 0.242 6.92 145.1 1.79
12/27/2020 2:30:00 PM 3.25 37.85 0.245 6.91 181.1 1.52
12/27/2020 2:45:00 PM 3.28 37.904 0.245 6.91 184.4 1.39
12/27/2020 3:00:00 PM 3.3 37.94 0.245 6.91 213.2 1.48
12/27/2020 3:15:00 PM 3.34 38.012 0.244 6.91 181.4 1.51
12/27/2020 3:30:00 PM 3.34 38.012 0.246 6.91 164.9 1.34
12/27/2020 3:45:00 PM 3.36 38.048 0.245 6.91 173.5 1.36
12/27/2020 4:00:00 PM 3.37 38.066 0.245 6.91 121.5 1.58
12/27/2020 4:15:00 PM 3.38 38.084 0.246 6.91 187.3 1.47
12/27/2020 4:30:00 PM 3.35 38.03 0.235 6.9 135.1 1.15
12/27/2020 4:45:00 PM 3.39 38.102 0.238 6.9 229.9 1.2
12/27/2020 5:00:00 PM 3.4 38.12 0.244 6.91 175.1 1.28
12/27/2020 5:15:00 PM 3.42 38.156 0.248 6.9 148.6 1.13
12/27/2020 5:30:00 PM 3.43 38.174 0.249 6.9 147.4 0.97
12/27/2020 5:45:00 PM 3.44 38.192 0.25 6.9 174.6 1.16
12/27/2020 6:00:00 PM 3.45 38.21 0.249 6.9 213.5 1.22
12/27/2020 6:15:00 PM 3.46 38.228 0.252 6.9 174.9 1.43
12/27/2020 6:30:00 PM 3.47 38.246 0.254 6.9 182.2 1.18
12/27/2020 6:45:00 PM 3.47 38.246 0.257 6.9 171.5 1.2
12/27/2020 7:00:00 PM 3.44 38.192 0.255 6.92 196.3 0.94
12/27/2020 7:15:00 PM 3.43 38.174 0.252 6.92 228.6 0.92
12/27/2020 7:30:00 PM 3.43 38.174 0.25 6.92 167.6 1.42
12/27/2020 7:45:00 PM 3.44 38.192 0.247 6.92 243.4 1.52
12/27/2020 8:00:00 PM 3.45 38.21 0.246 6.92 170.8 1.57
12/27/2020 8:15:00 PM 3.42 38.156 0.248 6.92 232 1.33
12/27/2020 8:30:00 PM 3.43 38.174 0.249 6.91 198.2 1.57
12/27/2020 8:45:00 PM 3.44 38.192 0.249 6.93 227.2 1.42
12/27/2020 9:00:00 PM 3.43 38.174 0.249 6.92 153.1 1.65
12/27/2020 9:15:00 PM 3.42 38.156 0.249 6.92 171.7 1.97
12/27/2020 9:30:00 PM 3.39 38.102 0.248 6.93 163.4 2.13
12/27/2020 9:45:00 PM 3.4 38.12 0.249 6.93 136.3 2.3
12/27/2020 10:00:00 PM 3.39 38.102 0.25 6.93 153.7 2.29
12/27/2020 10:15:00 PM 3.4 38.12 0.25 6.93 184.8 2.4
12/27/2020 10:30:00 PM 3.39 38.102 0.25 6.93 170.3 2.07
12/27/2020 10:45:00 PM 3.39 38.102 0.249 6.94 160.2 2.52
12/27/2020 11:00:00 PM 3.41 38.138 0.251 6.94 177.1 2.38
12/27/2020 11:15:00 PM 3.39 38.102 0.25 6.94 190.7 2.18
12/27/2020 11:30:00 PM 3.4 38.12 0.25 6.94 236.1 2.3
12/27/2020 11:45:00 PM 3.4 38.12 0.251 6.94 133.9 1.98
12/28/2020 12:00:00 AM 3.35 38.03 0.251 6.94 163.5 1.95
12/28/2020 12:15:00 AM 3.36 38.048 0.251 6.94 167.8 2.44
12/28/2020 12:30:00 AM 3.33 37.994 0.251 6.93 161.2 2.54
12/28/2020 12:45:00 AM 3.33 37.994 0.251 6.93 198 2.12
12/28/2020 1:00:00 AM 3.35 38.03 0.251 6.93 223.9 2.56
12/28/2020 1:15:00 AM 3.32 37.976 0.251 6.91 236.2 2.36
12/28/2020 1:30:00 AM 3.34 38.012 0.251 6.91 225.1 2.42
12/28/2020 1:45:00 AM 3.32 37.976 0.25 6.91 199.7 2.62
12/28/2020 2:00:00 AM 3.35 38.03 0.251 6.9 187.1 2.86
12/28/2020 2:15:00 AM 3.35 38.03 0.252 6.9 141.3 2.55
12/28/2020 2:30:00 AM 3.35 38.03 0.253 6.9 171.7 2.67
12/28/2020 2:45:00 AM 3.31 37.958 0.253 6.9 156.3 2.6
12/28/2020 3:00:00 AM 3.31 37.958 0.252 6.9 164.3 2.42
12/28/2020 3:15:00 AM 3.41 38.138 0.253 6.92 161.8 2.49
12/28/2020 3:30:00 AM 3.32 37.976 0.255 6.91 132.9 2.05
12/28/2020 3:45:00 AM 3.34 38.012 0.254 6.9 225.5 2.21
12/28/2020 4:00:00 AM 3.31 37.958 0.251 6.91 209.6 2.25
12/28/2020 4:15:00 AM 3.28 37.904 0.251 6.91 194.9 2.4
12/28/2020 4:30:00 AM 3.26 37.868 0.25 6.92 133.4 2.28
12/28/2020 4:45:00 AM 3.25 37.85 0.25 6.92 288.4 2.02
12/28/2020 5:00:00 AM 3.27 37.886 0.249 6.93 206.6 2.42
12/28/2020 5:15:00 AM 3.25 37.85 0.25 6.93 152.3 2.3
12/28/2020 5:30:00 AM 3.25 37.85 0.25 6.94 154 2.41
12/28/2020 5:45:00 AM 3.26 37.868 0.25 6.94 142.6 2.81
12/28/2020 6:00:00 AM 3.27 37.886 0.25 6.95 120.6 2.91
12/28/2020 6:15:00 AM 3.26 37.868 0.25 6.95 89.43 2.9
12/28/2020 6:30:00 AM 3.29 37.922 0.251 6.95 119.3 3.09
12/28/2020 6:45:00 AM 3.31 37.958 0.25 6.94 153.2 2.9
12/28/2020 7:00:00 AM 3.3 37.94 0.25 6.94 171 2.73
12/28/2020 7:15:00 AM 3.33 37.994 0.251 6.95 158.8 2.7
12/28/2020 7:30:00 AM 3.29 37.922 0.251 6.94 169.8 2.87
12/28/2020 7:45:00 AM 3.29 37.922 0.252 6.95 164 2.74
12/28/2020 8:00:00 AM 3.3 37.94 0.253 6.95 165 2.88
12/28/2020 8:15:00 AM 3.34 38.012 0.252 6.96 150.1 2.83
12/28/2020 8:30:00 AM 3.34 38.012 0.253 6.94 143.1 2.88
12/28/2020 8:45:00 AM 3.34 38.012 0.253 6.97 209.8 2.24
12/28/2020 9:00:00 AM 3.33 37.994 0.253 6.97 137.5 2.32
12/28/2020 9:15:00 AM 3.35 38.03 0.252 6.98 137.3 2.39
12/28/2020 9:30:00 AM 3.35